PWSweather.com
Personal Weather Stations
Station Observations
KCODIVIDE
Highland Lakes Subdivision, Divide, CO 80814

Highland Lakes SubdivisionDivide, CO 80814

Lat: 38.953817, Lon: -105.209271

Elevation: 9045

Station Type: Ambient Weather Observer IP

http://www.highlandlakesweather.net

Latest ConditionsUpdated 8:51:19 PM MST Sunday, Feb 19, 2017
Currently Today's Max Today's Min Today's Average
Temperature 30.6°F-0.8°C 50.5°F10.3°C 28.0°F-2.2°C 39.2°F4.0°C
Dew Point 26.1°F-3.3°C 26.2°F-3.2°C 17.4°F-8.1°C 21.8°F-5.7°C
Winds 2.5 mph NW4.0 kmh NW 22.4 mph WSW36.0 kmh WSW - 4.3 mph 6.9 kmh
Wind Gusts 2.5 mph4.0 kmh 27.5 mph44.3 kmh - -
Humidity 83% 83% 28% 52%
Pressure 29.63 in1003.4 mb 29.72 in1006.4 mb 29.24 in990.2 mb -
Hour Temp Dew Point Humidity Winds Wind Gusts Pressure Precip Precip Rate Daily Precip Total
08:51 PM 30.6°F-0.8°C 26.1°F-3.3°C 83% 2.5 mph NW4.0 kmh NW 2.5 mph4.0 kmh 29.63 in1003.4 mb 0.00 in0.0 mm 0.00 in0.0 mm 0.00 in0.0 mm
08:50 PM 30.6°F-0.8°C 26.1°F-3.3°C 83% Calm Calm 2.5 mph4.0 kmh 29.65 in1004.1 mb 0.00 in0.0 mm 0.00 in0.0 mm 0.00 in0.0 mm
08:49 PM 30.7°F-0.7°C 26.2°F-3.2°C 83% 0.4 mph SW0.6 kmh SW 4.9 mph7.9 kmh 29.65 in1004.1 mb 0.00 in0.0 mm 0.00 in0.0 mm 0.00 in0.0 mm
08:48 PM 30.7°F-0.7°C 26.2°F-3.2°C 83% 4.3 mph NW6.9 kmh NW 7.4 mph11.9 kmh 29.65 in1004.1 mb 0.00 in0.0 mm 0.00 in0.0 mm 0.00 in0.0 mm
08:47 PM 30.7°F-0.7°C 26.2°F-3.2°C 83% 4.3 mph WNW6.9 kmh WNW 7.4 mph11.9 kmh 29.65 in1004.1 mb 0.00 in0.0 mm 0.00 in0.0 mm 0.00 in0.0 mm
08:45 PM 30.7°F-0.7°C 25.9°F-3.4°C 82% 4.5 mph NW7.2 kmh NW 7.4 mph11.9 kmh 29.65 in1004.1 mb 0.00 in0.0 mm 0.00 in0.0 mm 0.00 in0.0 mm
08:44 PM 30.9°F-0.6°C 26.1°F-3.3°C 82% 2.0 mph W3.2 kmh W 4.9 mph7.9 kmh 29.65 in1004.1 mb 0.00 in0.0 mm 0.00 in0.0 mm 0.00 in0.0 mm
08:43 PM 30.9°F-0.6°C 26.1°F-3.3°C 82% 1.8 mph WNW2.9 kmh WNW 4.9 mph7.9 kmh 29.64 in1003.7 mb 0.00 in0.0 mm 0.00 in0.0 mm 0.00 in0.0 mm
08:42 PM 30.9°F-0.6°C 26.1°F-3.3°C 82% Calm Calm 4.9 mph7.9 kmh 29.64 in1003.7 mb 0.00 in0.0 mm 0.00 in0.0 mm 0.00 in0.0 mm
08:41 PM 31.1°F-0.5°C 25.9°F-3.4°C 81% Calm Calm 7.4 mph11.9 kmh 29.62 in1003.0 mb 0.00 in0.0 mm 0.00 in0.0 mm 0.00 in0.0 mm
08:40 PM 31.1°F-0.5°C 25.9°F-3.4°C 81% 2.9 mph W4.7 kmh W 9.8 mph15.8 kmh 29.64 in1003.7 mb 0.00 in0.0 mm 0.00 in0.0 mm 0.00 in0.0 mm
08:39 PM 31.1°F-0.5°C 25.7°F-3.5°C 80% 7.6 mph W12.2 kmh W 15.0 mph24.1 kmh 29.62 in1003.0 mb 0.00 in0.0 mm 0.00 in0.0 mm 0.00 in0.0 mm
08:38 PM 31.1°F-0.5°C 25.7°F-3.5°C 80% 6.0 mph W9.7 kmh W 7.4 mph11.9 kmh 29.62 in1003.0 mb 0.00 in0.0 mm 0.00 in0.0 mm 0.00 in0.0 mm
08:37 PM 31.3°F-0.4°C 25.5°F-3.6°C 79% 1.1 mph W1.8 kmh W 4.9 mph7.9 kmh 29.62 in1003.0 mb 0.00 in0.0 mm 0.00 in0.0 mm 0.00 in0.0 mm
08:36 PM 31.3°F-0.4°C 25.2°F-3.8°C 78% 3.4 mph WSW5.5 kmh WSW 7.4 mph11.9 kmh 29.64 in1003.7 mb 0.00 in0.0 mm 0.00 in0.0 mm 0.00 in0.0 mm
08:35 PM 31.3°F-0.4°C 25.2°F-3.8°C 78% 2.5 mph SW4.0 kmh SW 9.8 mph15.8 kmh 29.62 in1003.0 mb 0.00 in0.0 mm 0.00 in0.0 mm 0.00 in0.0 mm
08:34 PM 31.3°F-0.4°C 25.2°F-3.8°C 78% 4.5 mph SW7.2 kmh SW 12.3 mph19.8 kmh 29.62 in1003.0 mb 0.00 in0.0 mm 0.00 in0.0 mm 0.00 in0.0 mm
08:33 PM 31.5°F-0.3°C 25.3°F-3.7°C 78% 3.4 mph SW5.5 kmh SW 4.9 mph7.9 kmh 29.62 in1003.0 mb 0.00 in0.0 mm 0.00 in0.0 mm 0.00 in0.0 mm
08:32 PM 31.5°F-0.3°C 25.3°F-3.7°C 78% 1.3 mph WSW2.1 kmh WSW 4.9 mph7.9 kmh 29.63 in1003.4 mb 0.00 in0.0 mm 0.00 in0.0 mm 0.00 in0.0 mm
08:30 PM 31.5°F-0.3°C 25.2°F-3.8°C 77% 0.2 mph WNW0.3 kmh WNW 9.8 mph15.8 kmh 29.62 in1003.0 mb 0.00 in0.0 mm 0.00 in0.0 mm 0.00 in0.0 mm
08:29 PM 31.5°F-0.3°C 25.2°F-3.8°C 77% 7.6 mph NW12.2 kmh NW 9.8 mph15.8 kmh 29.61 in1002.7 mb 0.00 in0.0 mm 0.00 in0.0 mm 0.00 in0.0 mm
08:28 PM 31.5°F-0.3°C 25.2°F-3.8°C 77% Calm Calm 12.3 mph19.8 kmh 29.61 in1002.7 mb 0.00 in0.0 mm 0.00 in0.0 mm 0.00 in0.0 mm
08:27 PM 31.5°F-0.3°C 25.2°F-3.8°C 77% 4.0 mph NW6.4 kmh NW 7.4 mph11.9 kmh 29.61 in1002.7 mb 0.00 in0.0 mm 0.00 in0.0 mm 0.00 in0.0 mm
08:26 PM 31.5°F-0.3°C 25.2°F-3.8°C 77% 0.4 mph NNW0.6 kmh NNW 4.9 mph7.9 kmh 29.61 in1002.7 mb 0.00 in0.0 mm 0.00 in0.0 mm 0.00 in0.0 mm
08:25 PM 31.5°F-0.3°C 25.2°F-3.8°C 77% 2.9 mph NW4.7 kmh NW 4.9 mph7.9 kmh 29.60 in1002.4 mb 0.00 in0.0 mm 0.00 in0.0 mm 0.00 in0.0 mm
08:24 PM 31.6°F-0.2°C 25.3°F-3.7°C 77% 0.9 mph SW1.4 kmh SW 9.8 mph15.8 kmh 29.61 in1002.7 mb 0.00 in0.0 mm 0.00 in0.0 mm 0.00 in0.0 mm
08:23 PM 31.6°F-0.2°C 25.3°F-3.7°C 77% 0.2 mph SW0.3 kmh SW 4.9 mph7.9 kmh 29.60 in1002.4 mb 0.00 in0.0 mm 0.00 in0.0 mm 0.00 in0.0 mm
08:22 PM 31.6°F-0.2°C 25.3°F-3.7°C 77% 1.3 mph WSW2.1 kmh WSW 4.9 mph7.9 kmh 29.59 in1002.0 mb 0.00 in0.0 mm 0.00 in0.0 mm 0.00 in0.0 mm
08:21 PM 31.6°F-0.2°C 25.3°F-3.7°C 77% 0.9 mph S1.4 kmh S 4.9 mph7.9 kmh 29.59 in1002.0 mb 0.00 in0.0 mm 0.00 in0.0 mm 0.00 in0.0 mm
08:20 PM 31.6°F-0.2°C 25.0°F-3.9°C 76% 2.5 mph NW4.0 kmh NW 4.9 mph7.9 kmh 29.60 in1002.4 mb 0.00 in0.0 mm 0.00 in0.0 mm 0.00 in0.0 mm
08:19 PM 31.6°F-0.2°C 25.0°F-3.9°C 76% 1.1 mph WSW1.8 kmh WSW 2.5 mph4.0 kmh 29.59 in1002.0 mb 0.00 in0.0 mm 0.00 in0.0 mm 0.00 in0.0 mm
08:18 PM 31.6°F-0.2°C 25.0°F-3.9°C 76% 1.3 mph W2.1 kmh W 4.9 mph7.9 kmh 29.60 in1002.4 mb 0.00 in0.0 mm 0.00 in0.0 mm 0.00 in0.0 mm
08:17 PM 31.8°F-0.1°C 25.2°F-3.8°C 76% Calm Calm 4.9 mph7.9 kmh 29.59 in1002.0 mb 0.00 in0.0 mm 0.00 in0.0 mm 0.00 in0.0 mm
08:15 PM 31.8°F-0.1°C 25.2°F-3.8°C 76% 2.5 mph WSW4.0 kmh WSW 7.4 mph11.9 kmh 29.59 in1002.0 mb 0.00 in0.0 mm 0.00 in0.0 mm 0.00 in0.0 mm
08:14 PM 31.8°F-0.1°C 25.2°F-3.8°C 76% 2.5 mph W4.0 kmh W 7.4 mph11.9 kmh 29.59 in1002.0 mb 0.00 in0.0 mm 0.00 in0.0 mm 0.00 in0.0 mm
08:13 PM 31.8°F-0.1°C 25.2°F-3.8°C 76% 0.2 mph SSE0.3 kmh SSE 4.9 mph7.9 kmh 29.58 in1001.7 mb 0.00 in0.0 mm 0.00 in0.0 mm 0.00 in0.0 mm
08:12 PM 31.8°F-0.1°C 25.2°F-3.8°C 76% Calm Calm 7.4 mph11.9 kmh 29.58 in1001.7 mb 0.00 in0.0 mm 0.00 in0.0 mm 0.00 in0.0 mm
08:11 PM 31.8°F-0.1°C 25.2°F-3.8°C 76% 0.2 mph SW0.3 kmh SW 7.4 mph11.9 kmh 29.58 in1001.7 mb 0.00 in0.0 mm 0.00 in0.0 mm 0.00 in0.0 mm
08:10 PM 31.8°F-0.1°C 25.2°F-3.8°C 76% 1.1 mph WNW1.8 kmh WNW 7.4 mph11.9 kmh 29.59 in1002.0 mb 0.00 in0.0 mm 0.00 in0.0 mm 0.00 in0.0 mm
08:09 PM 32.0°F0.0°C 25.3°F-3.7°C 76% 3.6 mph NW5.8 kmh NW 7.4 mph11.9 kmh 29.59 in1002.0 mb 0.00 in0.0 mm 0.00 in0.0 mm 0.00 in0.0 mm
08:08 PM 32.0°F0.0°C 25.3°F-3.7°C 76% Calm Calm 4.9 mph7.9 kmh 29.59 in1002.0 mb 0.00 in0.0 mm 0.00 in0.0 mm 0.00 in0.0 mm
08:07 PM 32.0°F0.0°C 25.3°F-3.7°C 76% 1.3 mph WSW2.1 kmh WSW 4.9 mph7.9 kmh 29.59 in1002.0 mb 0.00 in0.0 mm 0.00 in0.0 mm 0.00 in0.0 mm
08:06 PM 32.0°F0.0°C 25.3°F-3.7°C 76% 0.9 mph WSW1.4 kmh WSW 7.4 mph11.9 kmh 29.57 in1001.4 mb 0.00 in0.0 mm 0.00 in0.0 mm 0.00 in0.0 mm
08:05 PM 32.0°F0.0°C 25.3°F-3.7°C 76% 2.0 mph N3.2 kmh N 7.4 mph11.9 kmh 29.59 in1002.0 mb 0.00 in0.0 mm 0.00 in0.0 mm 0.00 in0.0 mm
08:04 PM 32.0°F0.0°C 25.3°F-3.7°C 76% 3.6 mph NW5.8 kmh NW 9.8 mph15.8 kmh 29.58 in1001.7 mb 0.00 in0.0 mm 0.00 in0.0 mm 0.00 in0.0 mm
08:03 PM 32.0°F0.0°C 25.3°F-3.7°C 76% 7.2 mph W11.6 kmh W 9.8 mph15.8 kmh 29.57 in1001.4 mb 0.00 in0.0 mm 0.00 in0.0 mm 0.00 in0.0 mm
08:02 PM 32.0°F0.0°C 25.3°F-3.7°C 76% 0.4 mph SW0.6 kmh SW 7.4 mph11.9 kmh 29.57 in1001.4 mb 0.00 in0.0 mm 0.00 in0.0 mm 0.00 in0.0 mm
08:00 PM 32.0°F0.0°C 25.3°F-3.7°C 76% 4.9 mph NW7.9 kmh NW 9.8 mph15.8 kmh 29.57 in1001.4 mb 0.00 in0.0 mm 0.00 in0.0 mm 0.00 in0.0 mm
07:59 PM 32.0°F0.0°C 25.3°F-3.7°C 76% 4.0 mph NE6.4 kmh NE 9.8 mph15.8 kmh 29.57 in1001.4 mb 0.00 in0.0 mm 0.00 in0.0 mm 0.00 in0.0 mm
07:58 PM 32.0°F0.0°C 25.3°F-3.7°C 76% Calm Calm 7.4 mph11.9 kmh 29.57 in1001.4 mb 0.00 in0.0 mm 0.00 in0.0 mm 0.00 in0.0 mm
07:57 PM 32.0°F0.0°C 25.3°F-3.7°C 76% 2.9 mph WNW4.7 kmh WNW 9.8 mph15.8 kmh 29.57 in1001.4 mb 0.00 in0.0 mm 0.00 in0.0 mm 0.00 in0.0 mm
07:56 PM 32.0°F0.0°C 25.3°F-3.7°C 76% 2.7 mph WNW4.3 kmh WNW 9.8 mph15.8 kmh 29.57 in1001.4 mb 0.00 in0.0 mm 0.00 in0.0 mm 0.00 in0.0 mm
07:55 PM 32.0°F0.0°C 25.0°F-3.9°C 75% 0.4 mph WSW0.6 kmh WSW 7.4 mph11.9 kmh 29.55 in1000.7 mb 0.00 in0.0 mm 0.00 in0.0 mm 0.00 in0.0 mm
07:54 PM 32.0°F0.0°C 24.6°F-4.1°C 74% 6.0 mph W9.7 kmh W 7.4 mph11.9 kmh 29.56 in1001.0 mb 0.00 in0.0 mm 0.00 in0.0 mm 0.00 in0.0 mm
07:53 PM 32.0°F0.0°C 24.6°F-4.1°C 74% 3.4 mph WSW5.5 kmh WSW 12.3 mph19.8 kmh 29.54 in1000.3 mb 0.00 in0.0 mm 0.00 in0.0 mm 0.00 in0.0 mm
07:52 PM 32.0°F0.0°C 24.3°F-4.3°C 73% Calm Calm 2.5 mph4.0 kmh 29.56 in1001.0 mb 0.00 in0.0 mm 0.00 in0.0 mm 0.00 in0.0 mm
07:51 PM 32.0°F0.0°C 24.3°F-4.3°C 73% Calm Calm -- 29.56 in1001.0 mb 0.00 in0.0 mm 0.00 in0.0 mm 0.00 in0.0 mm
07:50 PM 32.2°F0.1°C 24.3°F-4.3°C 72% Calm Calm 9.8 mph15.8 kmh 29.56 in1001.0 mb 0.00 in0.0 mm 0.00 in0.0 mm 0.00 in0.0 mm
07:49 PM 32.2°F0.1°C 24.3°F-4.3°C 72% 7.4 mph W11.9 kmh W 9.8 mph15.8 kmh 29.56 in1001.0 mb 0.00 in0.0 mm 0.00 in0.0 mm 0.00 in0.0 mm
07:48 PM 32.2°F0.1°C 23.9°F-4.5°C 71% 0.4 mph W0.6 kmh W 7.4 mph11.9 kmh 29.55 in1000.7 mb 0.00 in0.0 mm 0.00 in0.0 mm 0.00 in0.0 mm
07:47 PM 32.2°F0.1°C 23.9°F-4.5°C 71% 2.9 mph WSW4.7 kmh WSW 4.9 mph7.9 kmh 29.54 in1000.3 mb 0.00 in0.0 mm 0.00 in0.0 mm 0.00 in0.0 mm
07:45 PM 32.2°F0.1°C 23.5°F-4.7°C 70% 1.3 mph WSW2.1 kmh WSW 9.8 mph15.8 kmh 29.54 in1000.3 mb 0.00 in0.0 mm 0.00 in0.0 mm 0.00 in0.0 mm
07:44 PM 32.2°F0.1°C 23.5°F-4.7°C 70% 2.9 mph W4.7 kmh W 9.8 mph15.8 kmh 29.54 in1000.3 mb 0.00 in0.0 mm 0.00 in0.0 mm 0.00 in0.0 mm
07:43 PM 32.2°F0.1°C 23.2°F-4.9°C 69% 7.2 mph N11.6 kmh N 12.3 mph19.8 kmh 29.54 in1000.3 mb 0.00 in0.0 mm 0.00 in0.0 mm 0.00 in0.0 mm
07:42 PM 32.2°F0.1°C 22.8°F-5.1°C 68% 7.6 mph NW12.2 kmh NW 9.8 mph15.8 kmh 29.54 in1000.3 mb 0.00 in0.0 mm 0.00 in0.0 mm 0.00 in0.0 mm
07:41 PM 32.2°F0.1°C 22.8°F-5.1°C 68% 4.9 mph W7.9 kmh W 7.4 mph11.9 kmh 29.53 in1000.0 mb 0.00 in0.0 mm 0.00 in0.0 mm 0.00 in0.0 mm
07:40 PM 32.2°F0.1°C 22.5°F-5.3°C 67% 1.3 mph NW2.1 kmh NW 4.9 mph7.9 kmh 29.53 in1000.0 mb 0.00 in0.0 mm 0.00 in0.0 mm 0.00 in0.0 mm
07:39 PM 32.2°F0.1°C 22.8°F-5.1°C 68% 1.1 mph WSW1.8 kmh WSW 4.9 mph7.9 kmh 29.53 in1000.0 mb 0.00 in0.0 mm 0.00 in0.0 mm 0.00 in0.0 mm
07:38 PM 32.2°F0.1°C 22.5°F-5.3°C 67% 2.7 mph WSW4.3 kmh WSW 4.9 mph7.9 kmh 29.52 in999.7 mb 0.00 in0.0 mm 0.00 in0.0 mm 0.00 in0.0 mm
07:37 PM 32.2°F0.1°C 22.5°F-5.3°C 67% Calm Calm 4.9 mph7.9 kmh 29.52 in999.7 mb 0.00 in0.0 mm 0.00 in0.0 mm 0.00 in0.0 mm
07:36 PM 32.4°F0.2°C 22.6°F-5.2°C 67% 2.9 mph W4.7 kmh W 7.4 mph11.9 kmh 29.53 in1000.0 mb 0.00 in0.0 mm 0.00 in0.0 mm 0.00 in0.0 mm
07:35 PM 32.4°F0.2°C 23.0°F-5.0°C 68% 2.0 mph WSW3.2 kmh WSW 9.8 mph15.8 kmh 29.52 in999.7 mb 0.00 in0.0 mm 0.00 in0.0 mm 0.00 in0.0 mm
07:34 PM 32.4°F0.2°C 23.0°F-5.0°C 68% 5.1 mph WSW8.2 kmh WSW 7.4 mph11.9 kmh 29.51 in999.3 mb 0.00 in0.0 mm 0.00 in0.0 mm 0.00 in0.0 mm
07:33 PM 32.4°F0.2°C 23.0°F-5.0°C 68% 3.4 mph WSW5.5 kmh WSW 4.9 mph7.9 kmh 29.51 in999.3 mb 0.00 in0.0 mm 0.00 in0.0 mm 0.00 in0.0 mm
07:32 PM 32.4°F0.2°C 23.0°F-5.0°C 68% 1.3 mph WSW2.1 kmh WSW 4.9 mph7.9 kmh 29.51 in999.3 mb 0.00 in0.0 mm 0.00 in0.0 mm 0.00 in0.0 mm
07:31 PM 32.4°F0.2°C 23.0°F-5.0°C 68% 3.6 mph WNW5.8 kmh WNW 4.9 mph7.9 kmh 29.50 in999.0 mb 0.00 in0.0 mm 0.00 in0.0 mm 0.00 in0.0 mm
07:29 PM 32.4°F0.2°C 23.0°F-5.0°C 68% 2.5 mph WSW4.0 kmh WSW 4.9 mph7.9 kmh 29.49 in998.6 mb 0.00 in0.0 mm 0.00 in0.0 mm 0.00 in0.0 mm
07:28 PM 32.4°F0.2°C 23.0°F-5.0°C 68% 2.9 mph WSW4.7 kmh WSW 9.8 mph15.8 kmh 29.49 in998.6 mb 0.00 in0.0 mm 0.00 in0.0 mm 0.00 in0.0 mm
07:27 PM 32.4°F0.2°C 23.0°F-5.0°C 68% 4.3 mph W6.9 kmh W 7.4 mph11.9 kmh 29.49 in998.6 mb 0.00 in0.0 mm 0.00 in0.0 mm 0.00 in0.0 mm
07:26 PM 32.5°F0.3°C 23.2°F-4.9°C 68% 3.4 mph WSW5.5 kmh WSW 12.3 mph19.8 kmh 29.50 in999.0 mb 0.00 in0.0 mm 0.00 in0.0 mm 0.00 in0.0 mm
07:25 PM 32.5°F0.3°C 23.5°F-4.7°C 69% 8.1 mph WNW13.0 kmh WNW 12.3 mph19.8 kmh 29.49 in998.6 mb 0.00 in0.0 mm 0.00 in0.0 mm 0.00 in0.0 mm
07:24 PM 32.5°F0.3°C 23.5°F-4.7°C 69% 4.5 mph W7.2 kmh W 12.3 mph19.8 kmh 29.50 in999.0 mb 0.00 in0.0 mm 0.00 in0.0 mm 0.00 in0.0 mm
07:23 PM 32.5°F0.3°C 23.5°F-4.7°C 69% 9.2 mph W14.8 kmh W 12.3 mph19.8 kmh 29.50 in999.0 mb 0.00 in0.0 mm 0.00 in0.0 mm 0.00 in0.0 mm
07:22 PM 32.5°F0.3°C 23.5°F-4.7°C 69% 5.6 mph SW9.0 kmh SW 9.8 mph15.8 kmh 29.50 in999.0 mb 0.00 in0.0 mm 0.00 in0.0 mm 0.00 in0.0 mm
07:21 PM 32.5°F0.3°C 23.5°F-4.7°C 69% 2.5 mph W4.0 kmh W 7.4 mph11.9 kmh 29.49 in998.6 mb 0.00 in0.0 mm 0.00 in0.0 mm 0.00 in0.0 mm
07:20 PM 32.5°F0.3°C 23.9°F-4.5°C 70% 6.0 mph SW9.7 kmh SW 12.3 mph19.8 kmh 29.48 in998.3 mb 0.00 in0.0 mm 0.00 in0.0 mm 0.00 in0.0 mm
07:19 PM 32.5°F0.3°C 23.9°F-4.5°C 70% 7.6 mph NW12.2 kmh NW 22.4 mph36.0 kmh 29.49 in998.6 mb 0.00 in0.0 mm 0.00 in0.0 mm 0.00 in0.0 mm
07:18 PM 32.5°F0.3°C 23.9°F-4.5°C 70% 15.4 mph SW24.8 kmh SW 19.9 mph32.0 kmh 29.48 in998.3 mb 0.00 in0.0 mm 0.00 in0.0 mm 0.00 in0.0 mm
07:17 PM 32.5°F0.3°C 23.9°F-4.5°C 70% 2.9 mph WSW4.7 kmh WSW 7.4 mph11.9 kmh 29.49 in998.6 mb 0.00 in0.0 mm 0.00 in0.0 mm 0.00 in0.0 mm
07:16 PM 32.5°F0.3°C 23.9°F-4.5°C 70% 7.2 mph WSW11.6 kmh WSW 12.3 mph19.8 kmh 29.48 in998.3 mb 0.00 in0.0 mm 0.00 in0.0 mm 0.00 in0.0 mm
07:14 PM 32.7°F0.4°C 24.1°F-4.4°C 70% 9.6 mph WSW15.4 kmh WSW 12.3 mph19.8 kmh 29.49 in998.6 mb 0.00 in0.0 mm 0.00 in0.0 mm 0.00 in0.0 mm
07:13 PM 32.7°F0.4°C 24.1°F-4.4°C 70% 6.5 mph SW10.5 kmh SW 7.4 mph11.9 kmh 29.49 in998.6 mb 0.00 in0.0 mm 0.00 in0.0 mm 0.00 in0.0 mm
07:12 PM 32.7°F0.4°C 24.1°F-4.4°C 70% 2.7 mph W4.3 kmh W 4.9 mph7.9 kmh 29.47 in998.0 mb 0.00 in0.0 mm 0.00 in0.0 mm 0.00 in0.0 mm
07:11 PM 32.7°F0.4°C 24.1°F-4.4°C 70% 2.5 mph WSW4.0 kmh WSW 4.9 mph7.9 kmh 29.49 in998.6 mb 0.00 in0.0 mm 0.00 in0.0 mm 0.00 in0.0 mm
07:10 PM 32.9°F0.5°C 24.3°F-4.3°C 70% 1.8 mph WSW2.9 kmh WSW 9.8 mph15.8 kmh 29.49 in998.6 mb 0.00 in0.0 mm 0.00 in0.0 mm 0.00 in0.0 mm
07:09 PM 32.9°F0.5°C 24.3°F-4.3°C 70% 4.3 mph WSW6.9 kmh WSW 15.0 mph24.1 kmh 29.48 in998.3 mb 0.00 in0.0 mm 0.00 in0.0 mm 0.00 in0.0 mm
07:08 PM 32.9°F0.5°C 24.3°F-4.3°C 70% 5.1 mph SW8.2 kmh SW 17.4 mph28.0 kmh 29.47 in998.0 mb 0.00 in0.0 mm 0.00 in0.0 mm 0.00 in0.0 mm
07:07 PM 32.9°F0.5°C 24.3°F-4.3°C 70% 8.3 mph WSW13.4 kmh WSW 12.3 mph19.8 kmh 29.48 in998.3 mb 0.00 in0.0 mm 0.00 in0.0 mm 0.00 in0.0 mm
07:06 PM 33.1°F0.6°C 24.4°F-4.2°C 70% 7.2 mph WSW11.6 kmh WSW 12.3 mph19.8 kmh 29.48 in998.3 mb 0.00 in0.0 mm 0.00 in0.0 mm 0.00 in0.0 mm
07:05 PM 33.1°F0.6°C 24.4°F-4.2°C 70% 6.5 mph WSW10.5 kmh WSW 9.8 mph15.8 kmh 29.47 in998.0 mb 0.00 in0.0 mm 0.00 in0.0 mm 0.00 in0.0 mm
07:04 PM 33.1°F0.6°C 24.4°F-4.2°C 70% 4.0 mph WSW6.4 kmh WSW 9.8 mph15.8 kmh 29.46 in997.6 mb 0.00 in0.0 mm 0.00 in0.0 mm 0.00 in0.0 mm
07:03 PM 33.1°F0.6°C 24.1°F-4.4°C 69% 5.1 mph WSW8.2 kmh WSW 7.4 mph11.9 kmh 29.46 in997.6 mb 0.00 in0.0 mm 0.00 in0.0 mm 0.00 in0.0 mm
07:02 PM 33.3°F0.7°C 24.3°F-4.3°C 69% 4.9 mph SW7.9 kmh SW 7.4 mph11.9 kmh 29.46 in997.6 mb 0.00 in0.0 mm 0.00 in0.0 mm 0.00 in0.0 mm
07:01 PM 33.3°F0.7°C 24.3°F-4.3°C 69% 2.5 mph WSW4.0 kmh WSW 7.4 mph11.9 kmh 29.46 in997.6 mb 0.00 in0.0 mm 0.00 in0.0 mm 0.00 in0.0 mm
06:59 PM 33.3°F0.7°C 24.3°F-4.3°C 69% 5.6 mph WSW9.0 kmh WSW 7.4 mph11.9 kmh 29.46 in997.6 mb 0.00 in0.0 mm 0.00 in0.0 mm 0.00 in0.0 mm
06:58 PM 33.4°F0.8°C 24.8°F-4.0°C 70% 5.6 mph S9.0 kmh S 15.0 mph24.1 kmh 29.46 in997.6 mb 0.00 in0.0 mm 0.00 in0.0 mm 0.00 in0.0 mm
06:57 PM 33.4°F0.8°C 24.8°F-4.0°C 70% 9.2 mph SW14.8 kmh SW 12.3 mph19.8 kmh 29.47 in998.0 mb 0.00 in0.0 mm 0.00 in0.0 mm 0.00 in0.0 mm
06:56 PM 33.4°F0.8°C 24.4°F-4.2°C 69% 8.9 mph WSW14.3 kmh WSW 12.3 mph19.8 kmh 29.47 in998.0 mb 0.00 in0.0 mm 0.00 in0.0 mm 0.00 in0.0 mm
06:55 PM 33.6°F0.9°C 24.6°F-4.1°C 69% 4.5 mph SW7.2 kmh SW 9.8 mph15.8 kmh 29.47 in998.0 mb 0.00 in0.0 mm 0.00 in0.0 mm 0.00 in0.0 mm
06:54 PM 33.8°F1.0°C 24.8°F-4.0°C 69% 1.8 mph S2.9 kmh S 9.8 mph15.8 kmh 29.45 in997.3 mb 0.00 in0.0 mm 0.00 in0.0 mm 0.00 in0.0 mm
06:53 PM 33.8°F1.0°C 24.8°F-4.0°C 69% 6.7 mph S10.8 kmh S 9.8 mph15.8 kmh 29.47 in998.0 mb 0.00 in0.0 mm 0.00 in0.0 mm 0.00 in0.0 mm
06:52 PM 34.0°F1.1°C 24.8°F-4.0°C 69% 2.7 mph SSW4.3 kmh SSW 9.8 mph15.8 kmh 29.45 in997.3 mb 0.00 in0.0 mm 0.00 in0.0 mm 0.00 in0.0 mm
06:51 PM 34.2°F1.2°C 25.0°F-3.9°C 69% 0.2 mph SW0.3 kmh SW 7.4 mph11.9 kmh 29.46 in997.6 mb 0.00 in0.0 mm 0.00 in0.0 mm 0.00 in0.0 mm
06:50 PM 34.2°F1.2°C 25.0°F-3.9°C 69% 1.3 mph SW2.1 kmh SW 4.9 mph7.9 kmh 29.46 in997.6 mb 0.00 in0.0 mm 0.00 in0.0 mm 0.00 in0.0 mm
06:49 PM 34.3°F1.3°C 24.8°F-4.0°C 68% 1.3 mph WSW2.1 kmh WSW 7.4 mph11.9 kmh 29.44 in997.0 mb 0.00 in0.0 mm 0.00 in0.0 mm 0.00 in0.0 mm
06:48 PM 34.5°F1.4°C 25.0°F-3.9°C 68% 2.9 mph NW4.7 kmh NW 7.4 mph11.9 kmh 29.44 in997.0 mb 0.00 in0.0 mm 0.00 in0.0 mm 0.00 in0.0 mm
06:47 PM 34.7°F1.5°C 25.2°F-3.8°C 68% 3.6 mph WNW5.8 kmh WNW 9.8 mph15.8 kmh 29.45 in997.3 mb 0.00 in0.0 mm 0.00 in0.0 mm 0.00 in0.0 mm
06:46 PM 34.9°F1.6°C 25.3°F-3.7°C 68% 6.7 mph SW10.8 kmh SW 9.8 mph15.8 kmh 29.44 in997.0 mb 0.00 in0.0 mm 0.00 in0.0 mm 0.00 in0.0 mm
06:44 PM 35.1°F1.7°C 25.2°F-3.8°C 67% 4.9 mph WSW7.9 kmh WSW 15.0 mph24.1 kmh 29.44 in997.0 mb 0.00 in0.0 mm 0.00 in0.0 mm 0.00 in0.0 mm
06:43 PM 35.1°F1.7°C 25.2°F-3.8°C 67% 1.1 mph N1.8 kmh N 7.4 mph11.9 kmh 29.44 in997.0 mb 0.00 in0.0 mm 0.00 in0.0 mm 0.00 in0.0 mm
06:42 PM 35.2°F1.8°C 25.3°F-3.7°C 67% 4.0 mph SW6.4 kmh SW 9.8 mph15.8 kmh 29.44 in997.0 mb 0.00 in0.0 mm 0.00 in0.0 mm 0.00 in0.0 mm
06:41 PM 35.4°F1.9°C 24.8°F-4.0°C 65% 6.7 mph WSW10.8 kmh WSW 9.8 mph15.8 kmh 29.44 in997.0 mb 0.00 in0.0 mm 0.00 in0.0 mm 0.00 in0.0 mm
06:40 PM 35.6°F2.0°C 25.0°F-3.9°C 65% 3.6 mph SW5.8 kmh SW 9.8 mph15.8 kmh 29.44 in997.0 mb 0.00 in0.0 mm 0.00 in0.0 mm 0.00 in0.0 mm
06:39 PM 35.6°F2.0°C 25.0°F-3.9°C 65% 8.7 mph WSW14.0 kmh WSW 9.8 mph15.8 kmh 29.42 in996.3 mb 0.00 in0.0 mm 0.00 in0.0 mm 0.00 in0.0 mm
06:38 PM 35.8°F2.1°C 24.8°F-4.0°C 64% 5.1 mph SW8.2 kmh SW 17.4 mph28.0 kmh 29.42 in996.3 mb 0.00 in0.0 mm 0.00 in0.0 mm 0.00 in0.0 mm
06:37 PM 36.0°F2.2°C 25.0°F-3.9°C 64% 3.6 mph WSW5.8 kmh WSW 9.8 mph15.8 kmh 29.42 in996.3 mb 0.00 in0.0 mm 0.00 in0.0 mm 0.00 in0.0 mm
06:36 PM 36.1°F2.3°C 25.2°F-3.8°C 64% 5.1 mph WSW8.2 kmh WSW 15.0 mph24.1 kmh 29.42 in996.3 mb 0.00 in0.0 mm 0.00 in0.0 mm 0.00 in0.0 mm
06:35 PM 36.3°F2.4°C 25.3°F-3.7°C 64% 9.6 mph WSW15.4 kmh WSW 17.4 mph28.0 kmh 29.40 in995.6 mb 0.00 in0.0 mm 0.00 in0.0 mm 0.00 in0.0 mm
06:34 PM 36.5°F2.5°C 25.2°F-3.8°C 63% 12.3 mph WSW19.8 kmh WSW 19.9 mph32.0 kmh 29.41 in995.9 mb 0.00 in0.0 mm 0.00 in0.0 mm 0.00 in0.0 mm
06:33 PM 36.7°F2.6°C 25.0°F-3.9°C 62% 6.5 mph W10.5 kmh W 12.3 mph19.8 kmh 29.40 in995.6 mb 0.00 in0.0 mm 0.00 in0.0 mm 0.00 in0.0 mm
06:32 PM 36.9°F2.7°C 24.6°F-4.1°C 61% 6.0 mph WSW9.7 kmh WSW 22.4 mph36.0 kmh 29.41 in995.9 mb 0.00 in0.0 mm 0.00 in0.0 mm 0.00 in0.0 mm
06:31 PM 36.9°F2.7°C 24.3°F-4.3°C 60% 14.3 mph WNW23.0 kmh WNW 19.9 mph32.0 kmh 29.41 in995.9 mb 0.00 in0.0 mm 0.00 in0.0 mm 0.00 in0.0 mm
06:29 PM 37.0°F2.8°C 24.1°F-4.4°C 59% 9.2 mph S14.8 kmh S 19.9 mph32.0 kmh 29.40 in995.6 mb 0.00 in0.0 mm 0.00 in0.0 mm 0.00 in0.0 mm
06:28 PM 37.2°F2.9°C 23.7°F-4.6°C 58% 10.5 mph SW16.9 kmh SW 12.3 mph19.8 kmh 29.41 in995.9 mb 0.00 in0.0 mm 0.00 in0.0 mm 0.00 in0.0 mm
06:27 PM 37.4°F3.0°C 23.5°F-4.7°C 57% 8.3 mph SW13.4 kmh SW 12.3 mph19.8 kmh 29.39 in995.3 mb 0.00 in0.0 mm 0.00 in0.0 mm 0.00 in0.0 mm
06:26 PM 37.6°F3.1°C 23.4°F-4.8°C 56% 6.5 mph WSW10.5 kmh WSW 12.3 mph19.8 kmh 29.41 in995.9 mb 0.00 in0.0 mm 0.00 in0.0 mm 0.00 in0.0 mm
06:25 PM 37.6°F3.1°C 22.8°F-5.1°C 55% 8.1 mph W13.0 kmh W 12.3 mph19.8 kmh 29.42 in996.3 mb 0.00 in0.0 mm 0.00 in0.0 mm 0.00 in0.0 mm
06:24 PM 37.8°F3.2°C 22.6°F-5.2°C 54% 8.7 mph SW14.0 kmh SW 15.0 mph24.1 kmh 29.42 in996.3 mb 0.00 in0.0 mm 0.00 in0.0 mm 0.00 in0.0 mm
06:23 PM 37.9°F3.3°C 22.8°F-5.1°C 54% 10.7 mph WSW17.2 kmh WSW 15.0 mph24.1 kmh 29.42 in996.3 mb 0.00 in0.0 mm 0.00 in0.0 mm 0.00 in0.0 mm
06:22 PM 38.1°F3.4°C 22.5°F-5.3°C 53% 5.8 mph W9.3 kmh W 22.4 mph36.0 kmh 29.42 in996.3 mb 0.00 in0.0 mm 0.00 in0.0 mm 0.00 in0.0 mm
06:21 PM 38.1°F3.4°C 22.5°F-5.3°C 53% 4.9 mph SW7.9 kmh SW 17.4 mph28.0 kmh 29.42 in996.3 mb 0.00 in0.0 mm 0.00 in0.0 mm 0.00 in0.0 mm
06:20 PM 38.3°F3.5°C 22.3°F-5.4°C 52% 14.5 mph SW23.3 kmh SW 17.4 mph28.0 kmh 29.42 in996.3 mb 0.00 in0.0 mm 0.00 in0.0 mm 0.00 in0.0 mm
06:19 PM 38.3°F3.5°C 21.7°F-5.7°C 51% 6.5 mph WSW10.5 kmh WSW 9.8 mph15.8 kmh 29.42 in996.3 mb 0.00 in0.0 mm 0.00 in0.0 mm 0.00 in0.0 mm
06:18 PM 38.5°F3.6°C 21.4°F-5.9°C 50% 4.9 mph W7.9 kmh W 9.8 mph15.8 kmh 29.42 in996.3 mb 0.00 in0.0 mm 0.00 in0.0 mm 0.00 in0.0 mm
06:17 PM 38.5°F3.6°C 23.4°F-4.8°C 54% 4.3 mph WSW6.9 kmh WSW 7.4 mph11.9 kmh 29.40 in995.6 mb 0.00 in0.0 mm 0.00 in0.0 mm 0.00 in0.0 mm
06:16 PM 38.7°F3.7°C 23.0°F-5.0°C 53% 3.4 mph S5.5 kmh S 7.4 mph11.9 kmh 29.39 in995.3 mb 0.00 in0.0 mm 0.00 in0.0 mm 0.00 in0.0 mm
06:14 PM 38.7°F3.7°C 23.0°F-5.0°C 53% 3.6 mph W5.8 kmh W 9.8 mph15.8 kmh 29.41 in995.9 mb 0.00 in0.0 mm 0.00 in0.0 mm 0.00 in0.0 mm
06:13 PM 38.7°F3.7°C 22.6°F-5.2°C 52% 3.4 mph W5.5 kmh W 7.4 mph11.9 kmh 29.41 in995.9 mb 0.00 in0.0 mm 0.00 in0.0 mm 0.00 in0.0 mm
06:12 PM 38.8°F3.8°C 22.6°F-5.2°C 52% 5.1 mph SW8.2 kmh SW 12.3 mph19.8 kmh 29.41 in995.9 mb 0.00 in0.0 mm 0.00 in0.0 mm 0.00 in0.0 mm
06:11 PM 38.8°F3.8°C 22.3°F-5.4°C 51% 4.5 mph NW7.2 kmh NW 15.0 mph24.1 kmh 29.39 in995.3 mb 0.00 in0.0 mm 0.00 in0.0 mm 0.00 in0.0 mm
06:10 PM 39.0°F3.9°C 22.5°F-5.3°C 51% 5.6 mph WSW9.0 kmh WSW 7.4 mph11.9 kmh 29.39 in995.3 mb 0.00 in0.0 mm 0.00 in0.0 mm 0.00 in0.0 mm
06:09 PM 39.0°F3.9°C 21.9°F-5.6°C 50% 4.9 mph WSW7.9 kmh WSW 12.3 mph19.8 kmh 29.39 in995.3 mb 0.00 in0.0 mm 0.00 in0.0 mm 0.00 in0.0 mm
06:08 PM 39.0°F3.9°C 21.9°F-5.6°C 50% 5.1 mph WSW8.2 kmh WSW 9.8 mph15.8 kmh 29.41 in995.9 mb 0.00 in0.0 mm 0.00 in0.0 mm 0.00 in0.0 mm
06:07 PM 39.2°F4.0°C 21.6°F-5.8°C 49% 3.6 mph SW5.8 kmh SW 7.4 mph11.9 kmh 29.41 in995.9 mb 0.00 in0.0 mm 0.00 in0.0 mm 0.00 in0.0 mm
06:06 PM 39.2°F4.0°C 21.2°F-6.0°C 48% 4.9 mph W7.9 kmh W 15.0 mph24.1 kmh 29.38 in994.9 mb 0.00 in0.0 mm 0.00 in0.0 mm 0.00 in0.0 mm
06:05 PM 39.4°F4.1°C 21.4°F-5.9°C 48% 3.6 mph W5.8 kmh W 9.8 mph15.8 kmh 29.38 in994.9 mb 0.00 in0.0 mm 0.00 in0.0 mm 0.00 in0.0 mm
06:04 PM 39.4°F4.1°C 21.4°F-5.9°C 48% 4.9 mph WSW7.9 kmh WSW 7.4 mph11.9 kmh 29.39 in995.3 mb 0.00 in0.0 mm 0.00 in0.0 mm 0.00 in0.0 mm
06:03 PM 39.4°F4.1°C 20.8°F-6.2°C 47% 2.0 mph W3.2 kmh W 9.8 mph15.8 kmh 29.38 in994.9 mb 0.00 in0.0 mm 0.00 in0.0 mm 0.00 in0.0 mm
06:02 PM 39.4°F4.1°C 20.8°F-6.2°C 47% 2.0 mph NW3.2 kmh NW 12.3 mph19.8 kmh 29.39 in995.3 mb 0.00 in0.0 mm 0.00 in0.0 mm 0.00 in0.0 mm
06:01 PM 39.6°F4.2°C 21.0°F-6.1°C 47% 2.5 mph W4.0 kmh W 12.3 mph19.8 kmh 29.39 in995.3 mb 0.00 in0.0 mm 0.00 in0.0 mm 0.00 in0.0 mm
05:59 PM 39.6°F4.2°C 21.0°F-6.1°C 47% 2.7 mph SW4.3 kmh SW 12.3 mph19.8 kmh 29.39 in995.3 mb 0.00 in0.0 mm 0.00 in0.0 mm 0.00 in0.0 mm
05:58 PM 39.6°F4.2°C 21.0°F-6.1°C 47% 2.5 mph SSW4.0 kmh SSW 9.8 mph15.8 kmh 29.39 in995.3 mb 0.00 in0.0 mm 0.00 in0.0 mm 0.00 in0.0 mm
05:57 PM 39.6°F4.2°C 21.0°F-6.1°C 47% 2.7 mph NW4.3 kmh NW 9.8 mph15.8 kmh 29.38 in994.9 mb 0.00 in0.0 mm 0.00 in0.0 mm 0.00 in0.0 mm
05:56 PM 39.7°F4.3°C 20.7°F-6.3°C 46% 4.0 mph W6.4 kmh W 7.4 mph11.9 kmh 29.37 in994.6 mb 0.00 in0.0 mm 0.00 in0.0 mm 0.00 in0.0 mm
05:55 PM 39.7°F4.3°C 20.1°F-6.6°C 45% 4.9 mph WSW7.9 kmh WSW 12.3 mph19.8 kmh 29.38 in994.9 mb 0.00 in0.0 mm 0.00 in0.0 mm 0.00 in0.0 mm
05:54 PM 39.7°F4.3°C 19.6°F-6.9°C 44% 7.2 mph WSW11.6 kmh WSW 12.3 mph19.8 kmh 29.37 in994.6 mb 0.00 in0.0 mm 0.00 in0.0 mm 0.00 in0.0 mm
05:53 PM 39.7°F4.3°C 19.6°F-6.9°C 44% 8.3 mph WSW13.4 kmh WSW 9.8 mph15.8 kmh 29.37 in994.6 mb 0.00 in0.0 mm 0.00 in0.0 mm 0.00 in0.0 mm
05:52 PM 39.9°F4.4°C 19.8°F-6.8°C 44% 0.9 mph WSW1.4 kmh WSW 7.4 mph11.9 kmh 29.37 in994.6 mb 0.00 in0.0 mm 0.00 in0.0 mm 0.00 in0.0 mm
05:51 PM 39.9°F4.4°C 19.8°F-6.8°C 44% 2.0 mph WSW3.2 kmh WSW 4.9 mph7.9 kmh 29.37 in994.6 mb 0.00 in0.0 mm 0.00 in0.0 mm 0.00 in0.0 mm
05:50 PM 39.9°F4.4°C 19.8°F-6.8°C 44% 2.7 mph WSW4.3 kmh WSW 4.9 mph7.9 kmh 29.37 in994.6 mb 0.00 in0.0 mm 0.00 in0.0 mm 0.00 in0.0 mm
05:49 PM 39.9°F4.4°C 19.2°F-7.1°C 43% 3.4 mph SW5.5 kmh SW 4.9 mph7.9 kmh 29.37 in994.6 mb 0.00 in0.0 mm 0.00 in0.0 mm 0.00 in0.0 mm
05:48 PM 40.1°F4.5°C 19.4°F-7.0°C 43% 3.6 mph WNW5.8 kmh WNW 7.4 mph11.9 kmh 29.36 in994.2 mb 0.00 in0.0 mm 0.00 in0.0 mm 0.00 in0.0 mm
05:47 PM 40.1°F4.5°C 19.4°F-7.0°C 43% 4.9 mph WSW7.9 kmh WSW 7.4 mph11.9 kmh 29.36 in994.2 mb 0.00 in0.0 mm 0.00 in0.0 mm 0.00 in0.0 mm
05:46 PM 40.1°F4.5°C 19.4°F-7.0°C 43% 3.6 mph SW5.8 kmh SW 7.4 mph11.9 kmh 29.36 in994.2 mb 0.00 in0.0 mm 0.00 in0.0 mm 0.00 in0.0 mm
05:44 PM 40.3°F4.6°C 19.6°F-6.9°C 43% 2.0 mph W3.2 kmh W 7.4 mph11.9 kmh 29.36 in994.2 mb 0.00 in0.0 mm 0.00 in0.0 mm 0.00 in0.0 mm
05:43 PM 40.3°F4.6°C 19.6°F-6.9°C 43% 4.0 mph WSW6.4 kmh WSW 7.4 mph11.9 kmh 29.35 in993.9 mb 0.00 in0.0 mm 0.00 in0.0 mm 0.00 in0.0 mm
05:42 PM 40.3°F4.6°C 19.6°F-6.9°C 43% 1.3 mph SW2.1 kmh SW 7.4 mph11.9 kmh 29.36 in994.2 mb 0.00 in0.0 mm 0.00 in0.0 mm 0.00 in0.0 mm
05:41 PM 40.5°F4.7°C 19.8°F-6.8°C 43% 4.3 mph W6.9 kmh W 7.4 mph11.9 kmh 29.36 in994.2 mb 0.00 in0.0 mm 0.00 in0.0 mm 0.00 in0.0 mm
05:40 PM 40.5°F4.7°C 19.8°F-6.8°C 43% 1.8 mph W2.9 kmh W 7.4 mph11.9 kmh 29.36 in994.2 mb 0.00 in0.0 mm 0.00 in0.0 mm 0.00 in0.0 mm
05:39 PM 40.6°F4.8°C 19.4°F-7.0°C 42% 6.0 mph WSW9.7 kmh WSW 9.8 mph15.8 kmh 29.36 in994.2 mb 0.00 in0.0 mm 0.00 in0.0 mm 0.00 in0.0 mm
05:38 PM 40.6°F4.8°C 19.4°F-7.0°C 42% 4.3 mph SW6.9 kmh SW 9.8 mph15.8 kmh 29.36 in994.2 mb 0.00 in0.0 mm 0.00 in0.0 mm 0.00 in0.0 mm
05:37 PM 40.8°F4.9°C 19.6°F-6.9°C 42% 2.5 mph SW4.0 kmh SW 9.8 mph15.8 kmh 29.36 in994.2 mb 0.00 in0.0 mm 0.00 in0.0 mm 0.00 in0.0 mm
05:36 PM 40.8°F4.9°C 19.6°F-6.9°C 42% 2.5 mph SW4.0 kmh SW 9.8 mph15.8 kmh 29.36 in994.2 mb 0.00 in0.0 mm 0.00 in0.0 mm 0.00 in0.0 mm
05:35 PM 41.0°F5.0°C 19.6°F-6.9°C 42% 4.3 mph WSW6.9 kmh WSW 4.9 mph7.9 kmh 29.36 in994.2 mb 0.00 in0.0 mm 0.00 in0.0 mm 0.00 in0.0 mm
05:34 PM 41.0°F5.0°C 19.0°F-7.2°C 41% 1.3 mph WSW2.1 kmh WSW 7.4 mph11.9 kmh 29.34 in993.6 mb 0.00 in0.0 mm 0.00 in0.0 mm 0.00 in0.0 mm
05:33 PM 41.0°F5.0°C 19.0°F-7.2°C 41% 0.2 mph SW0.3 kmh SW 4.9 mph7.9 kmh 29.36 in994.2 mb 0.00 in0.0 mm 0.00 in0.0 mm 0.00 in0.0 mm
05:32 PM 41.2°F5.1°C 19.2°F-7.1°C 41% 1.3 mph WSW2.1 kmh WSW 4.9 mph7.9 kmh 29.36 in994.2 mb 0.00 in0.0 mm 0.00 in0.0 mm 0.00 in0.0 mm
05:31 PM 41.2°F5.1°C 18.7°F-7.4°C 40% 1.3 mph SW2.1 kmh SW 7.4 mph11.9 kmh 29.34 in993.6 mb 0.00 in0.0 mm 0.00 in0.0 mm 0.00 in0.0 mm
05:29 PM 41.2°F5.1°C 18.7°F-7.4°C 40% 1.8 mph WSW2.9 kmh WSW 4.9 mph7.9 kmh 29.34 in993.6 mb 0.00 in0.0 mm 0.00 in0.0 mm 0.00 in0.0 mm
05:28 PM 41.2°F5.1°C 18.7°F-7.4°C 40% 0.9 mph WSW1.4 kmh WSW 4.9 mph7.9 kmh 29.34 in993.6 mb 0.00 in0.0 mm 0.00 in0.0 mm 0.00 in0.0 mm
05:27 PM 41.4°F5.2°C 18.9°F-7.3°C 40% 0.9 mph SW1.4 kmh SW 7.4 mph11.9 kmh 29.34 in993.6 mb 0.00 in0.0 mm 0.00 in0.0 mm 0.00 in0.0 mm
05:26 PM 41.4°F5.2°C 18.9°F-7.3°C 40% 1.3 mph SW2.1 kmh SW 4.9 mph7.9 kmh 29.34 in993.6 mb 0.00 in0.0 mm 0.00 in0.0 mm 0.00 in0.0 mm
05:25 PM 41.4°F5.2°C 18.9°F-7.3°C 40% 2.0 mph WSW3.2 kmh WSW 4.9 mph7.9 kmh 29.34 in993.6 mb 0.00 in0.0 mm 0.00 in0.0 mm 0.00 in0.0 mm
05:24 PM 41.4°F5.2°C 18.3°F-7.6°C 39% 4.0 mph WSW6.4 kmh WSW 4.9 mph7.9 kmh 29.34 in993.6 mb 0.00 in0.0 mm 0.00 in0.0 mm 0.00 in0.0 mm
05:23 PM 41.4°F5.2°C 18.3°F-7.6°C 39% 2.5 mph WSW4.0 kmh WSW 7.4 mph11.9 kmh 29.34 in993.6 mb 0.00 in0.0 mm 0.00 in0.0 mm 0.00 in0.0 mm
05:22 PM 41.4°F5.2°C 18.3°F-7.6°C 39% 4.5 mph WSW7.2 kmh WSW 7.4 mph11.9 kmh 29.34 in993.6 mb 0.00 in0.0 mm 0.00 in0.0 mm 0.00 in0.0 mm
05:21 PM 41.5°F5.3°C 18.5°F-7.5°C 39% 0.4 mph WSW0.6 kmh WSW 2.5 mph4.0 kmh 29.34 in993.6 mb 0.00 in0.0 mm 0.00 in0.0 mm 0.00 in0.0 mm
05:20 PM 41.5°F5.3°C 18.5°F-7.5°C 39% 2.5 mph WSW4.0 kmh WSW 12.3 mph19.8 kmh 29.34 in993.6 mb 0.00 in0.0 mm 0.00 in0.0 mm 0.00 in0.0 mm
05:19 PM 41.5°F5.3°C 17.8°F-7.9°C 38% 6.7 mph SW10.8 kmh SW 12.3 mph19.8 kmh 29.34 in993.6 mb 0.00 in0.0 mm 0.00 in0.0 mm 0.00 in0.0 mm
05:18 PM 41.5°F5.3°C 17.8°F-7.9°C 38% 0.9 mph S1.4 kmh S 4.9 mph7.9 kmh 29.34 in993.6 mb 0.00 in0.0 mm 0.00 in0.0 mm 0.00 in0.0 mm
05:17 PM 41.5°F5.3°C 17.8°F-7.9°C 38% 4.3 mph WNW6.9 kmh WNW 7.4 mph11.9 kmh 29.34 in993.6 mb 0.00 in0.0 mm 0.00 in0.0 mm 0.00 in0.0 mm
05:16 PM 41.5°F5.3°C 17.8°F-7.9°C 38% 5.8 mph NW9.3 kmh NW 7.4 mph11.9 kmh 29.34 in993.6 mb 0.00 in0.0 mm 0.00 in0.0 mm 0.00 in0.0 mm
05:14 PM 41.7°F5.4°C 17.4°F-8.1°C 37% 0.2 mph WSW0.3 kmh WSW 2.5 mph4.0 kmh 29.34 in993.6 mb 0.00 in0.0 mm 0.00 in0.0 mm 0.00 in0.0 mm
05:13 PM 41.7°F5.4°C 17.4°F-8.1°C 37% 1.8 mph WSW2.9 kmh WSW 9.8 mph15.8 kmh 29.34 in993.6 mb 0.00 in0.0 mm 0.00 in0.0 mm 0.00 in0.0 mm
05:12 PM 41.7°F5.4°C 17.4°F-8.1°C 37% 4.3 mph W6.9 kmh W 4.9 mph7.9 kmh 29.34 in993.6 mb 0.00 in0.0 mm 0.00 in0.0 mm 0.00 in0.0 mm
05:11 PM 41.9°F5.5°C 17.6°F-8.0°C 37% 2.9 mph WSW4.7 kmh WSW 7.4 mph11.9 kmh 29.34 in993.6 mb 0.00 in0.0 mm 0.00 in0.0 mm 0.00 in0.0 mm
05:10 PM 41.9°F5.5°C 17.6°F-8.0°C 37% 4.0 mph WNW6.4 kmh WNW 9.8 mph15.8 kmh 29.34 in993.6 mb 0.00 in0.0 mm 0.00 in0.0 mm 0.00 in0.0 mm
05:09 PM 41.9°F5.5°C 17.6°F-8.0°C 37% 3.6 mph WSW5.8 kmh WSW 7.4 mph11.9 kmh 29.33 in993.2 mb 0.00 in0.0 mm 0.00 in0.0 mm 0.00 in0.0 mm
05:08 PM 41.9°F5.5°C 17.6°F-8.0°C 37% 2.7 mph NW4.3 kmh NW 4.9 mph7.9 kmh 29.33 in993.2 mb 0.00 in0.0 mm 0.00 in0.0 mm 0.00 in0.0 mm
05:07 PM 41.9°F5.5°C 17.6°F-8.0°C 37% 2.7 mph WSW4.3 kmh WSW 7.4 mph11.9 kmh 29.33 in993.2 mb 0.00 in0.0 mm 0.00 in0.0 mm 0.00 in0.0 mm
05:06 PM 41.9°F5.5°C 18.1°F-7.7°C 38% 1.1 mph WNW1.8 kmh WNW 4.9 mph7.9 kmh 29.33 in993.2 mb 0.00 in0.0 mm 0.00 in0.0 mm 0.00 in0.0 mm
05:05 PM 41.9°F5.5°C 18.7°F-7.4°C 39% 5.6 mph W9.0 kmh W -- 29.31 in992.6 mb 0.00 in0.0 mm 0.00 in0.0 mm 0.00 in0.0 mm
05:04 PM 41.9°F5.5°C 18.7°F-7.4°C 39% 5.6 mph W9.0 kmh W 7.4 mph11.9 kmh 29.31 in992.6 mb 0.00 in0.0 mm 0.00 in0.0 mm 0.00 in0.0 mm
05:03 PM 41.9°F5.5°C 18.7°F-7.4°C 39% 5.6 mph W9.0 kmh W 7.4 mph11.9 kmh 29.31 in992.6 mb 0.00 in0.0 mm 0.00 in0.0 mm 0.00 in0.0 mm
05:02 PM 41.9°F5.5°C 18.7°F-7.4°C 39% 5.6 mph W9.0 kmh W 7.4 mph11.9 kmh 29.31 in992.6 mb 0.00 in0.0 mm 0.00 in0.0 mm 0.00 in0.0 mm
05:01 PM 41.9°F5.5°C 18.7°F-7.4°C 39% 5.6 mph W9.0 kmh W 7.4 mph11.9 kmh 29.31 in992.6 mb 0.00 in0.0 mm 0.00 in0.0 mm 0.00 in0.0 mm
05:00 PM 41.9°F5.5°C 18.7°F-7.4°C 39% 5.6 mph W9.0 kmh W 7.4 mph11.9 kmh 29.31 in992.6 mb 0.00 in0.0 mm 0.00 in0.0 mm 0.00 in0.0 mm
04:58 PM 41.9°F5.5°C 18.7°F-7.4°C 39% 5.6 mph W9.0 kmh W 7.4 mph11.9 kmh 29.31 in992.6 mb 0.00 in0.0 mm 0.00 in0.0 mm 0.00 in0.0 mm
04:57 PM 41.9°F5.5°C 18.7°F-7.4°C 39% 5.6 mph W9.0 kmh W 7.4 mph11.9 kmh 29.31 in992.6 mb 0.00 in0.0 mm 0.00 in0.0 mm 0.00 in0.0 mm
04:56 PM 41.9°F5.5°C 18.7°F-7.4°C 39% 5.6 mph W9.0 kmh W 7.4 mph11.9 kmh 29.31 in992.6 mb 0.00 in0.0 mm 0.00 in0.0 mm 0.00 in0.0 mm
04:55 PM 41.9°F5.5°C 18.7°F-7.4°C 39% 5.6 mph W9.0 kmh W 7.4 mph11.9 kmh 29.31 in992.6 mb 0.00 in0.0 mm 0.00 in0.0 mm 0.00 in0.0 mm
04:54 PM 41.9°F5.5°C 18.7°F-7.4°C 39% 5.6 mph W9.0 kmh W 7.4 mph11.9 kmh 29.31 in992.6 mb 0.00 in0.0 mm 0.00 in0.0 mm 0.00 in0.0 mm
04:53 PM 41.9°F5.5°C 18.7°F-7.4°C 39% 2.5 mph W4.0 kmh W 9.8 mph15.8 kmh 29.31 in992.6 mb 0.00 in0.0 mm 0.00 in0.0 mm 0.00 in0.0 mm
04:52 PM 41.9°F5.5°C 18.7°F-7.4°C 39% 7.4 mph SW11.9 kmh SW 12.3 mph19.8 kmh 29.31 in992.6 mb 0.00 in0.0 mm 0.00 in0.0 mm 0.00 in0.0 mm
04:51 PM 41.9°F5.5°C 18.7°F-7.4°C 39% 8.7 mph W14.0 kmh W 17.4 mph28.0 kmh 29.31 in992.6 mb 0.00 in0.0 mm 0.00 in0.0 mm 0.00 in0.0 mm
04:50 PM 41.9°F5.5°C 19.4°F-7.0°C 40% 7.6 mph SW12.2 kmh SW 15.0 mph24.1 kmh 29.32 in992.9 mb 0.00 in0.0 mm 0.00 in0.0 mm 0.00 in0.0 mm
04:49 PM 42.1°F5.6°C 19.6°F-6.9°C 40% 5.1 mph NNW8.2 kmh NNW 7.4 mph11.9 kmh 29.32 in992.9 mb 0.00 in0.0 mm 0.00 in0.0 mm 0.00 in0.0 mm
04:48 PM 42.1°F5.6°C 19.6°F-6.9°C 40% Calm Calm 4.9 mph7.9 kmh 29.31 in992.6 mb 0.00 in0.0 mm 0.00 in0.0 mm 0.00 in0.0 mm
04:47 PM 42.1°F5.6°C 19.6°F-6.9°C 40% 3.6 mph WSW5.8 kmh WSW 7.4 mph11.9 kmh 29.32 in992.9 mb 0.00 in0.0 mm 0.00 in0.0 mm 0.00 in0.0 mm
04:46 PM 42.1°F5.6°C 19.6°F-6.9°C 40% 4.3 mph W6.9 kmh W 12.3 mph19.8 kmh 29.32 in992.9 mb 0.00 in0.0 mm 0.00 in0.0 mm 0.00 in0.0 mm
04:45 PM 42.3°F5.7°C 19.6°F-6.9°C 40% 0.4 mph SW0.6 kmh SW 12.3 mph19.8 kmh 29.32 in992.9 mb 0.00 in0.0 mm 0.00 in0.0 mm 0.00 in0.0 mm
04:43 PM 42.3°F5.7°C 19.6°F-6.9°C 40% 5.1 mph WSW8.2 kmh WSW 7.4 mph11.9 kmh 29.32 in992.9 mb 0.00 in0.0 mm 0.00 in0.0 mm 0.00 in0.0 mm
04:42 PM 42.4°F5.8°C 19.8°F-6.8°C 40% 1.1 mph WSW1.8 kmh WSW 9.8 mph15.8 kmh 29.30 in992.2 mb 0.00 in0.0 mm 0.00 in0.0 mm 0.00 in0.0 mm
04:41 PM 42.4°F5.8°C 19.8°F-6.8°C 40% 3.6 mph SW5.8 kmh SW 17.4 mph28.0 kmh 29.30 in992.2 mb 0.00 in0.0 mm 0.00 in0.0 mm 0.00 in0.0 mm
04:40 PM 42.4°F5.8°C 19.8°F-6.8°C 40% 13.6 mph WSW21.9 kmh WSW 17.4 mph28.0 kmh 29.30 in992.2 mb 0.00 in0.0 mm 0.00 in0.0 mm 0.00 in0.0 mm
04:39 PM 42.6°F5.9°C 19.9°F-6.7°C 40% 9.8 mph SW15.8 kmh SW 12.3 mph19.8 kmh 29.30 in992.2 mb 0.00 in0.0 mm 0.00 in0.0 mm 0.00 in0.0 mm
04:38 PM 42.6°F5.9°C 19.4°F-7.0°C 39% 8.7 mph WSW14.0 kmh WSW 12.3 mph19.8 kmh 29.30 in992.2 mb 0.00 in0.0 mm 0.00 in0.0 mm 0.00 in0.0 mm
04:37 PM 42.8°F6.0°C 19.6°F-6.9°C 39% 3.6 mph WSW5.8 kmh WSW 17.4 mph28.0 kmh 29.30 in992.2 mb 0.00 in0.0 mm 0.00 in0.0 mm 0.00 in0.0 mm
04:36 PM 42.8°F6.0°C 19.6°F-6.9°C 39% 5.6 mph SW9.0 kmh SW 17.4 mph28.0 kmh 29.31 in992.6 mb 0.00 in0.0 mm 0.00 in0.0 mm 0.00 in0.0 mm
04:35 PM 43.0°F6.1°C 19.8°F-6.8°C 39% 5.8 mph S9.3 kmh S 17.4 mph28.0 kmh 29.31 in992.6 mb 0.00 in0.0 mm 0.00 in0.0 mm 0.00 in0.0 mm
04:34 PM 43.0°F6.1°C 19.8°F-6.8°C 39% 9.2 mph SW14.8 kmh SW 17.4 mph28.0 kmh 29.31 in992.6 mb 0.00 in0.0 mm 0.00 in0.0 mm 0.00 in0.0 mm
04:33 PM 43.0°F6.1°C 19.0°F-7.2°C 38% 11.9 mph SW19.2 kmh SW 15.0 mph24.1 kmh 29.29 in991.9 mb 0.00 in0.0 mm 0.00 in0.0 mm 0.00 in0.0 mm
04:32 PM 43.0°F6.1°C 19.0°F-7.2°C 38% 7.4 mph WSW11.9 kmh WSW 9.8 mph15.8 kmh 29.31 in992.6 mb 0.00 in0.0 mm 0.00 in0.0 mm 0.00 in0.0 mm
04:31 PM 43.2°F6.2°C 19.2°F-7.1°C 38% 5.1 mph WSW8.2 kmh WSW 7.4 mph11.9 kmh 29.31 in992.6 mb 0.00 in0.0 mm 0.00 in0.0 mm 0.00 in0.0 mm
04:30 PM 43.2°F6.2°C 19.2°F-7.1°C 38% 2.5 mph WNW4.0 kmh WNW 12.3 mph19.8 kmh 29.31 in992.6 mb 0.00 in0.0 mm 0.00 in0.0 mm 0.00 in0.0 mm
04:28 PM 43.2°F6.2°C 19.2°F-7.1°C 38% 5.8 mph W9.3 kmh W 12.3 mph19.8 kmh 29.31 in992.6 mb 0.00 in0.0 mm 0.00 in0.0 mm 0.00 in0.0 mm
04:27 PM 43.2°F6.2°C 19.9°F-6.7°C 39% 5.1 mph SW8.2 kmh SW 9.8 mph15.8 kmh 29.31 in992.6 mb 0.00 in0.0 mm 0.00 in0.0 mm 0.00 in0.0 mm
04:26 PM 43.3°F6.3°C 20.1°F-6.6°C 39% 4.0 mph SW6.4 kmh SW 9.8 mph15.8 kmh 29.31 in992.6 mb 0.00 in0.0 mm 0.00 in0.0 mm 0.00 in0.0 mm
04:25 PM 43.3°F6.3°C 20.7°F-6.3°C 40% 2.7 mph WNW4.3 kmh WNW 12.3 mph19.8 kmh 29.31 in992.6 mb 0.00 in0.0 mm 0.00 in0.0 mm 0.00 in0.0 mm
04:24 PM 43.3°F6.3°C 20.7°F-6.3°C 40% 5.6 mph SW9.0 kmh SW 12.3 mph19.8 kmh 29.31 in992.6 mb 0.00 in0.0 mm 0.00 in0.0 mm 0.00 in0.0 mm
04:23 PM 43.5°F6.4°C 20.8°F-6.2°C 40% 4.3 mph SW6.9 kmh SW 19.9 mph32.0 kmh 29.31 in992.6 mb 0.00 in0.0 mm 0.00 in0.0 mm 0.00 in0.0 mm
04:22 PM 43.5°F6.4°C 20.8°F-6.2°C 40% 4.9 mph SW7.9 kmh SW 17.4 mph28.0 kmh 29.29 in991.9 mb 0.00 in0.0 mm 0.00 in0.0 mm 0.00 in0.0 mm
04:21 PM 43.7°F6.5°C 21.6°F-5.8°C 41% 4.5 mph SW7.2 kmh SW 9.8 mph15.8 kmh 29.29 in991.9 mb 0.00 in0.0 mm 0.00 in0.0 mm 0.00 in0.0 mm
04:20 PM 43.7°F6.5°C 22.1°F-5.5°C 42% 9.2 mph W14.8 kmh W 19.9 mph32.0 kmh 29.31 in992.6 mb 0.00 in0.0 mm 0.00 in0.0 mm 0.00 in0.0 mm
04:19 PM 43.9°F6.6°C 22.8°F-5.1°C 43% 13.9 mph WSW22.4 kmh WSW 19.9 mph32.0 kmh 29.29 in991.9 mb 0.00 in0.0 mm 0.00 in0.0 mm 0.00 in0.0 mm
04:18 PM 43.9°F6.6°C 23.4°F-4.8°C 44% 9.8 mph WSW15.8 kmh WSW 17.4 mph28.0 kmh 29.30 in992.2 mb 0.00 in0.0 mm 0.00 in0.0 mm 0.00 in0.0 mm
04:17 PM 43.9°F6.6°C 23.4°F-4.8°C 44% 7.6 mph WSW12.2 kmh WSW 9.8 mph15.8 kmh 29.30 in992.2 mb 0.00 in0.0 mm 0.00 in0.0 mm 0.00 in0.0 mm
04:16 PM 44.1°F6.7°C 23.5°F-4.7°C 44% 6.0 mph WSW9.7 kmh WSW 17.4 mph28.0 kmh 29.29 in991.9 mb 0.00 in0.0 mm 0.00 in0.0 mm 0.00 in0.0 mm
04:15 PM 44.1°F6.7°C 23.5°F-4.7°C 44% 10.7 mph WSW17.2 kmh WSW 17.4 mph28.0 kmh 29.28 in991.5 mb 0.00 in0.0 mm 0.00 in0.0 mm 0.00 in0.0 mm
04:13 PM 44.1°F6.7°C 23.5°F-4.7°C 44% 2.7 mph WSW4.3 kmh WSW 9.8 mph15.8 kmh 29.28 in991.5 mb 0.00 in0.0 mm 0.00 in0.0 mm 0.00 in0.0 mm
04:12 PM 44.1°F6.7°C 23.5°F-4.7°C 44% 5.6 mph W9.0 kmh W 12.3 mph19.8 kmh 29.28 in991.5 mb 0.00 in0.0 mm 0.00 in0.0 mm 0.00 in0.0 mm
04:11 PM 44.1°F6.7°C 23.5°F-4.7°C 44% 10.3 mph SW16.6 kmh SW 19.9 mph32.0 kmh 29.28 in991.5 mb 0.00 in0.0 mm 0.00 in0.0 mm 0.00 in0.0 mm
04:10 PM 44.2°F6.8°C 23.7°F-4.6°C 44% 6.7 mph W10.8 kmh W 12.3 mph19.8 kmh 29.28 in991.5 mb 0.00 in0.0 mm 0.00 in0.0 mm 0.00 in0.0 mm
04:09 PM 44.2°F6.8°C 23.7°F-4.6°C 44% 6.0 mph WSW9.7 kmh WSW 9.8 mph15.8 kmh 29.28 in991.5 mb 0.00 in0.0 mm 0.00 in0.0 mm 0.00 in0.0 mm
04:08 PM 44.2°F6.8°C 23.2°F-4.9°C 43% 6.7 mph NNW10.8 kmh NNW 9.8 mph15.8 kmh 29.28 in991.5 mb 0.00 in0.0 mm 0.00 in0.0 mm 0.00 in0.0 mm
04:07 PM 44.2°F6.8°C 22.6°F-5.2°C 42% 2.7 mph WSW4.3 kmh WSW 9.8 mph15.8 kmh 29.28 in991.5 mb 0.00 in0.0 mm 0.00 in0.0 mm 0.00 in0.0 mm
04:06 PM 44.2°F6.8°C 22.1°F-5.5°C 41% 4.9 mph SW7.9 kmh SW 15.0 mph24.1 kmh 29.28 in991.5 mb 0.00 in0.0 mm 0.00 in0.0 mm 0.00 in0.0 mm
04:05 PM 44.2°F6.8°C 22.1°F-5.5°C 41% 5.6 mph WSW9.0 kmh WSW 9.8 mph15.8 kmh 29.28 in991.5 mb 0.00 in0.0 mm 0.00 in0.0 mm 0.00 in0.0 mm
04:04 PM 44.2°F6.8°C 21.4°F-5.9°C 40% 8.1 mph WSW13.0 kmh WSW 15.0 mph24.1 kmh 29.28 in991.5 mb 0.00 in0.0 mm 0.00 in0.0 mm 0.00 in0.0 mm
04:03 PM 44.4°F6.9°C 21.0°F-6.1°C 39% 3.6 mph W5.8 kmh W 15.0 mph24.1 kmh 29.28 in991.5 mb 0.00 in0.0 mm 0.00 in0.0 mm 0.00 in0.0 mm
04:02 PM 44.4°F6.9°C 20.5°F-6.4°C 38% 12.1 mph WSW19.5 kmh WSW 15.0 mph24.1 kmh 29.28 in991.5 mb 0.00 in0.0 mm 0.00 in0.0 mm 0.00 in0.0 mm
04:01 PM 44.4°F6.9°C 19.8°F-6.8°C 37% 7.4 mph WSW11.9 kmh WSW 15.0 mph24.1 kmh 29.26 in990.9 mb 0.00 in0.0 mm 0.00 in0.0 mm 0.00 in0.0 mm
04:00 PM 44.4°F6.9°C 19.0°F-7.2°C 36% 13.4 mph SW21.6 kmh SW 17.4 mph28.0 kmh 29.28 in991.5 mb 0.00 in0.0 mm 0.00 in0.0 mm 0.00 in0.0 mm
03:58 PM 44.6°F7.0°C 19.2°F-7.1°C 36% 6.5 mph WSW10.5 kmh WSW 7.4 mph11.9 kmh 29.26 in990.9 mb 0.00 in0.0 mm 0.00 in0.0 mm 0.00 in0.0 mm
03:57 PM 44.6°F7.0°C 18.7°F-7.4°C 35% 3.4 mph W5.5 kmh W 4.9 mph7.9 kmh 29.26 in990.9 mb 0.00 in0.0 mm 0.00 in0.0 mm 0.00 in0.0 mm
03:56 PM 44.6°F7.0°C 19.2°F-7.1°C 36% 3.6 mph WSW5.8 kmh WSW 15.0 mph24.1 kmh 29.26 in990.9 mb 0.00 in0.0 mm 0.00 in0.0 mm 0.00 in0.0 mm
03:55 PM 44.8°F7.1°C 19.4°F-7.0°C 36% 10.7 mph WSW17.2 kmh WSW 15.0 mph24.1 kmh 29.27 in991.2 mb 0.00 in0.0 mm 0.00 in0.0 mm 0.00 in0.0 mm
03:54 PM 45.0°F7.2°C 19.6°F-6.9°C 36% 9.6 mph WSW15.4 kmh WSW 12.3 mph19.8 kmh 29.27 in991.2 mb 0.00 in0.0 mm 0.00 in0.0 mm 0.00 in0.0 mm
03:53 PM 45.0°F7.2°C 19.6°F-6.9°C 36% 5.6 mph WSW9.0 kmh WSW 17.4 mph28.0 kmh 29.27 in991.2 mb 0.00 in0.0 mm 0.00 in0.0 mm 0.00 in0.0 mm
03:52 PM 45.1°F7.3°C 19.0°F-7.2°C 35% 13.9 mph SW22.4 kmh SW 17.4 mph28.0 kmh 29.26 in990.9 mb 0.00 in0.0 mm 0.00 in0.0 mm 0.00 in0.0 mm
03:51 PM 45.1°F7.3°C 19.0°F-7.2°C 35% 7.2 mph SW11.6 kmh SW 9.8 mph15.8 kmh 29.26 in990.9 mb 0.00 in0.0 mm 0.00 in0.0 mm 0.00 in0.0 mm
03:50 PM 45.3°F7.4°C 18.7°F-7.4°C 34% 3.4 mph W5.5 kmh W 7.4 mph11.9 kmh 29.24 in990.2 mb 0.00 in0.0 mm 0.00 in0.0 mm 0.00 in0.0 mm
03:49 PM 45.5°F7.5°C 18.7°F-7.4°C 34% 2.5 mph W4.0 kmh W 15.0 mph24.1 kmh 29.27 in991.2 mb 0.00 in0.0 mm 0.00 in0.0 mm 0.00 in0.0 mm
03:48 PM 45.7°F7.6°C 19.6°F-6.9°C 35% 11.2 mph WSW18.0 kmh WSW 15.0 mph24.1 kmh 29.27 in991.2 mb 0.00 in0.0 mm 0.00 in0.0 mm 0.00 in0.0 mm
03:47 PM 45.7°F7.6°C 19.6°F-6.9°C 35% 5.1 mph WSW8.2 kmh WSW 15.0 mph24.1 kmh 29.26 in990.9 mb 0.00 in0.0 mm 0.00 in0.0 mm 0.00 in0.0 mm
03:46 PM 45.7°F7.6°C 18.9°F-7.3°C 34% 11.2 mph WSW18.0 kmh WSW 15.0 mph24.1 kmh 29.26 in990.9 mb 0.00 in0.0 mm 0.00 in0.0 mm 0.00 in0.0 mm
03:45 PM 45.9°F7.7°C 19.0°F-7.2°C 34% 8.7 mph SSW14.0 kmh SSW 12.3 mph19.8 kmh 29.26 in990.9 mb 0.00 in0.0 mm 0.00 in0.0 mm 0.00 in0.0 mm
03:43 PM 45.9°F7.7°C 19.8°F-6.8°C 35% 3.6 mph WSW5.8 kmh WSW 19.9 mph32.0 kmh 29.26 in990.9 mb 0.00 in0.0 mm 0.00 in0.0 mm 0.00 in0.0 mm
03:42 PM 45.9°F7.7°C 19.0°F-7.2°C 34% 11.9 mph WSW19.2 kmh WSW 19.9 mph32.0 kmh 29.26 in990.9 mb 0.00 in0.0 mm 0.00 in0.0 mm 0.00 in0.0 mm
03:41 PM 45.9°F7.7°C 19.0°F-7.2°C 34% 7.4 mph W11.9 kmh W 15.0 mph24.1 kmh 29.26 in990.9 mb 0.00 in0.0 mm 0.00 in0.0 mm 0.00 in0.0 mm
03:40 PM 45.9°F7.7°C 18.3°F-7.6°C 33% 8.9 mph WSW14.3 kmh WSW 17.4 mph28.0 kmh 29.26 in990.9 mb 0.00 in0.0 mm 0.00 in0.0 mm 0.00 in0.0 mm
03:39 PM 46.0°F7.8°C 18.5°F-7.5°C 33% 14.5 mph WSW23.3 kmh WSW 19.9 mph32.0 kmh 29.26 in990.9 mb 0.00 in0.0 mm 0.00 in0.0 mm 0.00 in0.0 mm
03:38 PM 46.0°F7.8°C 18.5°F-7.5°C 33% 13.9 mph W22.4 kmh W 19.9 mph32.0 kmh 29.26 in990.9 mb 0.00 in0.0 mm 0.00 in0.0 mm 0.00 in0.0 mm
03:37 PM 46.0°F7.8°C 18.5°F-7.5°C 33% 12.8 mph SE20.6 kmh SE 17.4 mph28.0 kmh 29.26 in990.9 mb 0.00 in0.0 mm 0.00 in0.0 mm 0.00 in0.0 mm
03:36 PM 46.2°F7.9°C 19.4°F-7.0°C 34% 7.2 mph W11.6 kmh W 22.4 mph36.0 kmh 29.26 in990.9 mb 0.00 in0.0 mm 0.00 in0.0 mm 0.00 in0.0 mm
03:35 PM 46.2°F7.9°C 18.7°F-7.4°C 33% 16.8 mph SW27.0 kmh SW 19.9 mph32.0 kmh 29.25 in990.5 mb 0.00 in0.0 mm 0.00 in0.0 mm 0.00 in0.0 mm
03:34 PM 46.2°F7.9°C 18.7°F-7.4°C 33% 10.3 mph SW16.6 kmh SW 17.4 mph28.0 kmh 29.25 in990.5 mb 0.00 in0.0 mm 0.00 in0.0 mm 0.00 in0.0 mm
03:33 PM 46.2°F7.9°C 18.7°F-7.4°C 33% 8.1 mph WSW13.0 kmh WSW 15.0 mph24.1 kmh 29.26 in990.9 mb 0.00 in0.0 mm 0.00 in0.0 mm 0.00 in0.0 mm
03:32 PM 46.2°F7.9°C 18.7°F-7.4°C 33% 6.7 mph SW10.8 kmh SW 15.0 mph24.1 kmh 29.26 in990.9 mb 0.00 in0.0 mm 0.00 in0.0 mm 0.00 in0.0 mm
03:31 PM 46.4°F8.0°C 18.9°F-7.3°C 33% 4.0 mph WSW6.4 kmh WSW 15.0 mph24.1 kmh 29.26 in990.9 mb 0.00 in0.0 mm 0.00 in0.0 mm 0.00 in0.0 mm
03:30 PM 46.4°F8.0°C 18.9°F-7.3°C 33% 8.7 mph WSW14.0 kmh WSW 12.3 mph19.8 kmh 29.26 in990.9 mb 0.00 in0.0 mm 0.00 in0.0 mm 0.00 in0.0 mm
03:29 PM 46.4°F8.0°C 18.9°F-7.3°C 33% 3.6 mph S5.8 kmh S 19.9 mph32.0 kmh 29.26 in990.9 mb 0.00 in0.0 mm 0.00 in0.0 mm 0.00 in0.0 mm
03:27 PM 46.4°F8.0°C 18.9°F-7.3°C 33% 7.4 mph S11.9 kmh S 12.3 mph19.8 kmh 29.26 in990.9 mb 0.00 in0.0 mm 0.00 in0.0 mm 0.00 in0.0 mm
03:26 PM 46.2°F7.9°C 19.4°F-7.0°C 34% 5.8 mph WSW9.3 kmh WSW 12.3 mph19.8 kmh 29.26 in990.9 mb 0.00 in0.0 mm 0.00 in0.0 mm 0.00 in0.0 mm
03:25 PM 46.2°F7.9°C 20.1°F-6.6°C 35% 8.1 mph WSW13.0 kmh WSW 15.0 mph24.1 kmh 29.26 in990.9 mb 0.00 in0.0 mm 0.00 in0.0 mm 0.00 in0.0 mm
03:24 PM 46.2°F7.9°C 20.1°F-6.6°C 35% 11.9 mph SSW19.2 kmh SSW 19.9 mph32.0 kmh 29.26 in990.9 mb 0.00 in0.0 mm 0.00 in0.0 mm 0.00 in0.0 mm
03:23 PM 46.2°F7.9°C 21.4°F-5.9°C 37% 15.4 mph SSE24.8 kmh SSE 19.9 mph32.0 kmh 29.26 in990.9 mb 0.00 in0.0 mm 0.00 in0.0 mm 0.00 in0.0 mm
03:22 PM 46.0°F7.8°C 20.5°F-6.4°C 36% 6.0 mph W9.7 kmh W 15.0 mph24.1 kmh 29.26 in990.9 mb 0.00 in0.0 mm 0.00 in0.0 mm 0.00 in0.0 mm
03:21 PM 46.0°F7.8°C 21.2°F-6.0°C 37% 1.1 mph SE1.8 kmh SE 9.8 mph15.8 kmh 29.26 in990.9 mb 0.00 in0.0 mm 0.00 in0.0 mm 0.00 in0.0 mm
03:20 PM 46.0°F7.8°C 21.2°F-6.0°C 37% 5.6 mph SSE9.0 kmh SSE 15.0 mph24.1 kmh 29.25 in990.5 mb 0.00 in0.0 mm 0.00 in0.0 mm 0.00 in0.0 mm
03:19 PM 45.9°F7.7°C 21.7°F-5.7°C 38% 10.3 mph SW16.6 kmh SW 12.3 mph19.8 kmh 29.26 in990.9 mb 0.00 in0.0 mm 0.00 in0.0 mm 0.00 in0.0 mm
03:18 PM 45.9°F7.7°C 22.3°F-5.4°C 39% 5.8 mph SSW9.3 kmh SSW 12.3 mph19.8 kmh 29.26 in990.9 mb 0.00 in0.0 mm 0.00 in0.0 mm 0.00 in0.0 mm
03:17 PM 45.7°F7.6°C 22.8°F-5.1°C 40% 7.6 mph SW12.2 kmh SW 12.3 mph19.8 kmh 29.26 in990.9 mb 0.00 in0.0 mm 0.00 in0.0 mm 0.00 in0.0 mm
03:16 PM 45.7°F7.6°C 21.6°F-5.8°C 38% 8.1 mph WSW13.0 kmh WSW 9.8 mph15.8 kmh 29.26 in990.9 mb 0.00 in0.0 mm 0.00 in0.0 mm 0.00 in0.0 mm
03:15 PM 45.7°F7.6°C 21.6°F-5.8°C 38% 5.6 mph S9.0 kmh S 9.8 mph15.8 kmh 29.26 in990.9 mb 0.00 in0.0 mm 0.00 in0.0 mm 0.00 in0.0 mm
03:14 PM 45.7°F7.6°C 20.8°F-6.2°C 37% 0.4 mph E0.6 kmh E 9.8 mph15.8 kmh 29.26 in990.9 mb 0.00 in0.0 mm 0.00 in0.0 mm 0.00 in0.0 mm
03:12 PM 45.7°F7.6°C 20.8°F-6.2°C 37% 1.8 mph SW2.9 kmh SW 7.4 mph11.9 kmh 29.26 in990.9 mb 0.00 in0.0 mm 0.00 in0.0 mm 0.00 in0.0 mm
03:11 PM 45.9°F7.7°C 20.5°F-6.4°C 36% 6.7 mph S10.8 kmh S 7.4 mph11.9 kmh 29.27 in991.2 mb 0.00 in0.0 mm 0.00 in0.0 mm 0.00 in0.0 mm
03:10 PM 45.9°F7.7°C 20.5°F-6.4°C 36% 5.6 mph SE9.0 kmh SE 9.8 mph15.8 kmh 29.27 in991.2 mb 0.00 in0.0 mm 0.00 in0.0 mm 0.00 in0.0 mm
03:09 PM 45.9°F7.7°C 19.8°F-6.8°C 35% 1.8 mph SE2.9 kmh SE 12.3 mph19.8 kmh 29.26 in990.9 mb 0.00 in0.0 mm 0.00 in0.0 mm 0.00 in0.0 mm
03:08 PM 45.9°F7.7°C 21.0°F-6.1°C 37% 11.2 mph SW18.0 kmh SW 15.0 mph24.1 kmh 29.27 in991.2 mb 0.00 in0.0 mm 0.00 in0.0 mm 0.00 in0.0 mm
03:07 PM 45.9°F7.7°C 21.0°F-6.1°C 37% 7.6 mph SW12.2 kmh SW 15.0 mph24.1 kmh 29.27 in991.2 mb 0.00 in0.0 mm 0.00 in0.0 mm 0.00 in0.0 mm
03:06 PM 45.9°F7.7°C 21.0°F-6.1°C 37% 4.0 mph WSW6.4 kmh WSW 7.4 mph11.9 kmh 29.26 in990.9 mb 0.00 in0.0 mm 0.00 in0.0 mm 0.00 in0.0 mm
03:05 PM 45.9°F7.7°C 19.0°F-7.2°C 34% 2.7 mph WSW4.3 kmh WSW 12.3 mph19.8 kmh 29.27 in991.2 mb 0.00 in0.0 mm 0.00 in0.0 mm 0.00 in0.0 mm
03:04 PM 46.0°F7.8°C 19.2°F-7.1°C 34% 9.2 mph WSW14.8 kmh WSW 17.4 mph28.0 kmh 29.27 in991.2 mb 0.00 in0.0 mm 0.00 in0.0 mm 0.00 in0.0 mm
03:03 PM 46.0°F7.8°C 19.2°F-7.1°C 34% 5.8 mph S9.3 kmh S 12.3 mph19.8 kmh 29.27 in991.2 mb 0.00 in0.0 mm 0.00 in0.0 mm 0.00 in0.0 mm
03:02 PM 46.0°F7.8°C 19.2°F-7.1°C 34% 4.3 mph SW6.9 kmh SW 15.0 mph24.1 kmh 29.27 in991.2 mb 0.00 in0.0 mm 0.00 in0.0 mm 0.00 in0.0 mm
03:01 PM 46.0°F7.8°C 19.2°F-7.1°C 34% 8.3 mph SSW13.4 kmh SSW 12.3 mph19.8 kmh 29.26 in990.9 mb 0.00 in0.0 mm 0.00 in0.0 mm 0.00 in0.0 mm
03:00 PM 46.0°F7.8°C 19.2°F-7.1°C 34% 7.6 mph WSW12.2 kmh WSW 12.3 mph19.8 kmh 29.27 in991.2 mb 0.00 in0.0 mm 0.00 in0.0 mm 0.00 in0.0 mm
02:59 PM 46.2°F7.9°C 19.4°F-7.0°C 34% 2.5 mph WSW4.0 kmh WSW 15.0 mph24.1 kmh 29.27 in991.2 mb 0.00 in0.0 mm 0.00 in0.0 mm 0.00 in0.0 mm
02:57 PM 46.2°F7.9°C 20.1°F-6.6°C 35% 8.1 mph W13.0 kmh W 12.3 mph19.8 kmh 29.27 in991.2 mb 0.00 in0.0 mm 0.00 in0.0 mm 0.00 in0.0 mm
02:56 PM 46.4°F8.0°C 20.3°F-6.5°C 35% 2.0 mph SW3.2 kmh SW 12.3 mph19.8 kmh 29.27 in991.2 mb 0.00 in0.0 mm 0.00 in0.0 mm 0.00 in0.0 mm
02:55 PM 46.4°F8.0°C 20.3°F-6.5°C 35% 2.0 mph WSW3.2 kmh WSW 15.0 mph24.1 kmh 29.27 in991.2 mb 0.00 in0.0 mm 0.00 in0.0 mm 0.00 in0.0 mm
02:54 PM 46.4°F8.0°C 20.8°F-6.2°C 36% 11.4 mph S18.3 kmh S 19.9 mph32.0 kmh 29.27 in991.2 mb 0.00 in0.0 mm 0.00 in0.0 mm 0.00 in0.0 mm
02:53 PM 46.4°F8.0°C 20.8°F-6.2°C 36% 7.2 mph S11.6 kmh S 7.4 mph11.9 kmh 29.27 in991.2 mb 0.00 in0.0 mm 0.00 in0.0 mm 0.00 in0.0 mm
02:52 PM 46.4°F8.0°C 20.8°F-6.2°C 36% 4.5 mph SE7.2 kmh SE 17.4 mph28.0 kmh 29.25 in990.5 mb 0.00 in0.0 mm 0.00 in0.0 mm 0.00 in0.0 mm
02:51 PM 46.4°F8.0°C 20.8°F-6.2°C 36% 7.6 mph WSW12.2 kmh WSW 12.3 mph19.8 kmh 29.27 in991.2 mb 0.00 in0.0 mm 0.00 in0.0 mm 0.00 in0.0 mm
02:50 PM 46.2°F7.9°C 20.7°F-6.3°C 36% 5.1 mph S8.2 kmh S 9.8 mph15.8 kmh 29.27 in991.2 mb 0.00 in0.0 mm 0.00 in0.0 mm 0.00 in0.0 mm
02:49 PM 46.2°F7.9°C 20.1°F-6.6°C 35% 8.3 mph SW13.4 kmh SW 15.0 mph24.1 kmh 29.27 in991.2 mb 0.00 in0.0 mm 0.00 in0.0 mm 0.00 in0.0 mm
02:48 PM 46.2°F7.9°C 20.1°F-6.6°C 35% 9.2 mph WSW14.8 kmh WSW 15.0 mph24.1 kmh 29.27 in991.2 mb 0.00 in0.0 mm 0.00 in0.0 mm 0.00 in0.0 mm
02:47 PM 46.4°F8.0°C 19.6°F-6.9°C 34% 9.2 mph S14.8 kmh S 12.3 mph19.8 kmh 29.27 in991.2 mb 0.00 in0.0 mm 0.00 in0.0 mm 0.00 in0.0 mm
02:46 PM 46.4°F8.0°C 19.6°F-6.9°C 34% 10.3 mph SSW16.6 kmh SSW 15.0 mph24.1 kmh 29.27 in991.2 mb 0.00 in0.0 mm 0.00 in0.0 mm 0.00 in0.0 mm
02:45 PM 46.2°F7.9°C 21.4°F-5.9°C 37% 7.2 mph SW11.6 kmh SW 15.0 mph24.1 kmh 29.27 in991.2 mb 0.00 in0.0 mm 0.00 in0.0 mm 0.00 in0.0 mm
02:44 PM 46.2°F7.9°C 19.4°F-7.0°C 34% 7.2 mph WSW11.6 kmh WSW 15.0 mph24.1 kmh 29.27 in991.2 mb 0.00 in0.0 mm 0.00 in0.0 mm 0.00 in0.0 mm
02:42 PM 46.2°F7.9°C 21.4°F-5.9°C 37% 13.4 mph SW21.6 kmh SW 17.4 mph28.0 kmh 29.27 in991.2 mb 0.00 in0.0 mm 0.00 in0.0 mm 0.00 in0.0 mm
02:41 PM 46.2°F7.9°C 21.4°F-5.9°C 37% 12.1 mph S19.5 kmh S 17.4 mph28.0 kmh 29.27 in991.2 mb 0.00 in0.0 mm 0.00 in0.0 mm 0.00 in0.0 mm
02:40 PM 46.2°F7.9°C 21.4°F-5.9°C 37% 12.3 mph SW19.8 kmh SW 15.0 mph24.1 kmh 29.27 in991.2 mb 0.00 in0.0 mm 0.00 in0.0 mm 0.00 in0.0 mm
02:39 PM 46.0°F7.8°C 21.2°F-6.0°C 37% 12.8 mph SW20.6 kmh SW 15.0 mph24.1 kmh 29.27 in991.2 mb 0.00 in0.0 mm 0.00 in0.0 mm 0.00 in0.0 mm
02:38 PM 46.0°F7.8°C 21.2°F-6.0°C 37% 8.9 mph WSW14.3 kmh WSW 19.9 mph32.0 kmh 29.27 in991.2 mb 0.00 in0.0 mm 0.00 in0.0 mm 0.00 in0.0 mm
02:37 PM 46.0°F7.8°C 19.2°F-7.1°C 34% 7.2 mph WSW11.6 kmh WSW 22.4 mph36.0 kmh 29.27 in991.2 mb 0.00 in0.0 mm 0.00 in0.0 mm 0.00 in0.0 mm
02:36 PM 46.0°F7.8°C 21.2°F-6.0°C 37% 18.1 mph WSW29.1 kmh WSW 22.4 mph36.0 kmh 29.27 in991.2 mb 0.00 in0.0 mm 0.00 in0.0 mm 0.00 in0.0 mm
02:35 PM 46.0°F7.8°C 21.2°F-6.0°C 37% 15.0 mph WSW24.1 kmh WSW 19.9 mph32.0 kmh 29.27 in991.2 mb 0.00 in0.0 mm 0.00 in0.0 mm 0.00 in0.0 mm
02:34 PM 46.0°F7.8°C 19.9°F-6.7°C 35% 8.9 mph SW14.3 kmh SW 15.0 mph24.1 kmh 29.27 in991.2 mb 0.00 in0.0 mm 0.00 in0.0 mm 0.00 in0.0 mm
02:33 PM 46.0°F7.8°C 19.9°F-6.7°C 35% 9.2 mph WSW14.8 kmh WSW 19.9 mph32.0 kmh 29.27 in991.2 mb 0.00 in0.0 mm 0.00 in0.0 mm 0.00 in0.0 mm
02:32 PM 46.0°F7.8°C 21.2°F-6.0°C 37% 13.9 mph WSW22.4 kmh WSW 17.4 mph28.0 kmh 29.25 in990.5 mb 0.00 in0.0 mm 0.00 in0.0 mm 0.00 in0.0 mm
02:31 PM 45.9°F7.7°C 21.0°F-6.1°C 37% 4.5 mph WSW7.2 kmh WSW 27.5 mph44.3 kmh 29.27 in991.2 mb 0.00 in0.0 mm 0.00 in0.0 mm 0.00 in0.0 mm
02:30 PM 45.9°F7.7°C 21.7°F-5.7°C 38% 22.4 mph SW36.0 kmh SW 27.5 mph44.3 kmh 29.27 in991.2 mb 0.00 in0.0 mm 0.00 in0.0 mm 0.00 in0.0 mm
02:29 PM 45.7°F7.6°C 20.8°F-6.2°C 37% 9.6 mph SW15.4 kmh SW 19.9 mph32.0 kmh 29.27 in991.2 mb 0.00 in0.0 mm 0.00 in0.0 mm 0.00 in0.0 mm
02:27 PM 45.7°F7.6°C 20.8°F-6.2°C 37% 6.0 mph SSW9.7 kmh SSW 15.0 mph24.1 kmh 29.27 in991.2 mb 0.00 in0.0 mm 0.00 in0.0 mm 0.00 in0.0 mm
02:26 PM 45.7°F7.6°C 21.6°F-5.8°C 38% 10.3 mph SW16.6 kmh SW 15.0 mph24.1 kmh 29.27 in991.2 mb 0.00 in0.0 mm 0.00 in0.0 mm 0.00 in0.0 mm
02:25 PM 45.5°F7.5°C 21.4°F-5.9°C 38% 8.1 mph WSW13.0 kmh WSW 15.0 mph24.1 kmh 29.27 in991.2 mb 0.00 in0.0 mm 0.00 in0.0 mm 0.00 in0.0 mm
02:24 PM 45.7°F7.6°C 20.3°F-6.5°C 36% 11.2 mph SW18.0 kmh SW 24.8 mph39.9 kmh 29.25 in990.5 mb 0.00 in0.0 mm 0.00 in0.0 mm 0.00 in0.0 mm
02:23 PM 45.7°F7.6°C 20.3°F-6.5°C 36% 22.4 mph WSW36.0 kmh WSW 24.8 mph39.9 kmh 29.27 in991.2 mb 0.00 in0.0 mm 0.00 in0.0 mm 0.00 in0.0 mm
02:22 PM 45.7°F7.6°C 20.3°F-6.5°C 36% 11.4 mph SW18.3 kmh SW 22.4 mph36.0 kmh 29.27 in991.2 mb 0.00 in0.0 mm 0.00 in0.0 mm 0.00 in0.0 mm
02:21 PM 45.7°F7.6°C 20.3°F-6.5°C 36% 15.2 mph SW24.5 kmh SW 22.4 mph36.0 kmh 29.27 in991.2 mb 0.00 in0.0 mm 0.00 in0.0 mm 0.00 in0.0 mm
02:20 PM 45.9°F7.7°C 20.5°F-6.4°C 36% 17.7 mph WSW28.5 kmh WSW 22.4 mph36.0 kmh 29.27 in991.2 mb 0.00 in0.0 mm 0.00 in0.0 mm 0.00 in0.0 mm
02:19 PM 45.9°F7.7°C 20.5°F-6.4°C 36% 14.3 mph SSW23.0 kmh SSW 22.4 mph36.0 kmh 29.27 in991.2 mb 0.00 in0.0 mm 0.00 in0.0 mm 0.00 in0.0 mm
02:18 PM 45.9°F7.7°C 20.5°F-6.4°C 36% 5.8 mph WSW9.3 kmh WSW 22.4 mph36.0 kmh 29.27 in991.2 mb 0.00 in0.0 mm 0.00 in0.0 mm 0.00 in0.0 mm
02:17 PM 46.0°F7.8°C 20.5°F-6.4°C 36% 17.4 mph S28.0 kmh S 22.4 mph36.0 kmh 29.28 in991.5 mb 0.00 in0.0 mm 0.00 in0.0 mm 0.00 in0.0 mm
02:16 PM 46.0°F7.8°C 20.5°F-6.4°C 36% 8.9 mph NNW14.3 kmh NNW 15.0 mph24.1 kmh 29.27 in991.2 mb 0.00 in0.0 mm 0.00 in0.0 mm 0.00 in0.0 mm
02:15 PM 46.0°F7.8°C 20.5°F-6.4°C 36% 11.4 mph WSW18.3 kmh WSW 24.8 mph39.9 kmh 29.27 in991.2 mb 0.00 in0.0 mm 0.00 in0.0 mm 0.00 in0.0 mm
02:14 PM 46.0°F7.8°C 20.5°F-6.4°C 36% 11.9 mph S19.2 kmh S 17.4 mph28.0 kmh 29.27 in991.2 mb 0.00 in0.0 mm 0.00 in0.0 mm 0.00 in0.0 mm
02:12 PM 46.0°F7.8°C 20.5°F-6.4°C 36% 4.3 mph SW6.9 kmh SW 17.4 mph28.0 kmh 29.27 in991.2 mb 0.00 in0.0 mm 0.00 in0.0 mm 0.00 in0.0 mm
02:11 PM 46.2°F7.9°C 20.7°F-6.3°C 36% 10.7 mph WSW17.2 kmh WSW 17.4 mph28.0 kmh 29.26 in990.9 mb 0.00 in0.0 mm 0.00 in0.0 mm 0.00 in0.0 mm
02:10 PM 46.2°F7.9°C 20.7°F-6.3°C 36% 6.5 mph S10.5 kmh S 17.4 mph28.0 kmh 29.26 in990.9 mb 0.00 in0.0 mm 0.00 in0.0 mm 0.00 in0.0 mm
02:09 PM 46.2°F7.9°C 20.7°F-6.3°C 36% 12.1 mph WSW19.5 kmh WSW 19.9 mph32.0 kmh 29.26 in990.9 mb 0.00 in0.0 mm 0.00 in0.0 mm 0.00 in0.0 mm
02:08 PM 46.4°F8.0°C 20.3°F-6.5°C 35% 9.2 mph W14.8 kmh W 17.4 mph28.0 kmh 29.26 in990.9 mb 0.00 in0.0 mm 0.00 in0.0 mm 0.00 in0.0 mm
02:07 PM 46.4°F8.0°C 20.3°F-6.5°C 35% 13.4 mph WSW21.6 kmh WSW 22.4 mph36.0 kmh 29.26 in990.9 mb 0.00 in0.0 mm 0.00 in0.0 mm 0.00 in0.0 mm
02:06 PM 46.6°F8.1°C 20.3°F-6.5°C 35% 7.4 mph WSW11.9 kmh WSW 19.9 mph32.0 kmh 29.26 in990.9 mb 0.00 in0.0 mm 0.00 in0.0 mm 0.00 in0.0 mm
02:05 PM 46.6°F8.1°C 20.3°F-6.5°C 35% 15.4 mph WSW24.8 kmh WSW 19.9 mph32.0 kmh 29.26 in990.9 mb 0.00 in0.0 mm 0.00 in0.0 mm 0.00 in0.0 mm
02:04 PM 46.8°F8.2°C 20.5°F-6.4°C 35% 9.2 mph S14.8 kmh S 19.9 mph32.0 kmh 29.26 in990.9 mb 0.00 in0.0 mm 0.00 in0.0 mm 0.00 in0.0 mm
02:03 PM 46.8°F8.2°C 20.5°F-6.4°C 35% 13.4 mph WSW21.6 kmh WSW 15.0 mph24.1 kmh 29.26 in990.9 mb 0.00 in0.0 mm 0.00 in0.0 mm 0.00 in0.0 mm
02:02 PM 46.8°F8.2°C 20.5°F-6.4°C 35% 4.9 mph W7.9 kmh W 17.4 mph28.0 kmh 29.26 in990.9 mb 0.00 in0.0 mm 0.00 in0.0 mm 0.00 in0.0 mm
02:01 PM 46.9°F8.3°C 20.7°F-6.3°C 35% 15.0 mph WSW24.1 kmh WSW 22.4 mph36.0 kmh 29.26 in990.9 mb 0.00 in0.0 mm 0.00 in0.0 mm 0.00 in0.0 mm
02:00 PM 47.1°F8.4°C 20.8°F-6.2°C 35% 10.7 mph S17.2 kmh S 22.4 mph36.0 kmh 29.26 in990.9 mb 0.00 in0.0 mm 0.00 in0.0 mm 0.00 in0.0 mm
01:59 PM 47.1°F8.4°C 22.1°F-5.5°C 37% 11.4 mph S18.3 kmh S 15.0 mph24.1 kmh 29.27 in991.2 mb 0.00 in0.0 mm 0.00 in0.0 mm 0.00 in0.0 mm
01:57 PM 47.3°F8.5°C 20.3°F-6.5°C 34% 6.0 mph SW9.7 kmh SW 12.3 mph19.8 kmh 29.25 in990.5 mb 0.00 in0.0 mm 0.00 in0.0 mm 0.00 in0.0 mm
01:56 PM 47.5°F8.6°C 20.5°F-6.4°C 34% 8.9 mph SW14.3 kmh SW 19.9 mph32.0 kmh 29.27 in991.2 mb 0.00 in0.0 mm 0.00 in0.0 mm 0.00 in0.0 mm
01:55 PM 47.7°F8.7°C 20.7°F-6.3°C 34% 8.7 mph WSW14.0 kmh WSW 19.9 mph32.0 kmh 29.27 in991.2 mb 0.00 in0.0 mm 0.00 in0.0 mm 0.00 in0.0 mm
01:54 PM 47.7°F8.7°C 20.7°F-6.3°C 34% 8.3 mph SW13.4 kmh SW 19.9 mph32.0 kmh 29.27 in991.2 mb 0.00 in0.0 mm 0.00 in0.0 mm 0.00 in0.0 mm
01:53 PM 47.8°F8.8°C 22.8°F-5.1°C 37% 15.4 mph SW24.8 kmh SW 19.9 mph32.0 kmh 29.27 in991.2 mb 0.00 in0.0 mm 0.00 in0.0 mm 0.00 in0.0 mm
01:52 PM 48.0°F8.9°C 23.0°F-5.0°C 37% 10.5 mph SW16.9 kmh SW 15.0 mph24.1 kmh 29.27 in991.2 mb 0.00 in0.0 mm 0.00 in0.0 mm 0.00 in0.0 mm
01:51 PM 48.0°F8.9°C 23.0°F-5.0°C 37% 12.8 mph WSW20.6 kmh WSW 19.9 mph32.0 kmh 29.27 in991.2 mb 0.00 in0.0 mm 0.00 in0.0 mm 0.00 in0.0 mm
01:50 PM 48.2°F9.0°C 23.2°F-4.9°C 37% 5.6 mph W9.0 kmh W 15.0 mph24.1 kmh 29.27 in991.2 mb 0.00 in0.0 mm 0.00 in0.0 mm 0.00 in0.0 mm
01:49 PM 48.4°F9.1°C 23.4°F-4.8°C 37% 10.7 mph WSW17.2 kmh WSW 15.0 mph24.1 kmh 29.27 in991.2 mb 0.00 in0.0 mm 0.00 in0.0 mm 0.00 in0.0 mm
01:48 PM 48.4°F9.1°C 22.6°F-5.2°C 36% 5.1 mph WSW8.2 kmh WSW 12.3 mph19.8 kmh 29.27 in991.2 mb 0.00 in0.0 mm 0.00 in0.0 mm 0.00 in0.0 mm
01:47 PM 48.6°F9.2°C 22.8°F-5.1°C 36% 9.2 mph SW14.8 kmh SW 19.9 mph32.0 kmh 29.27 in991.2 mb 0.00 in0.0 mm 0.00 in0.0 mm 0.00 in0.0 mm
01:46 PM 48.7°F9.3°C 23.0°F-5.0°C 36% 15.4 mph SW24.8 kmh SW 19.9 mph32.0 kmh 29.27 in991.2 mb 0.00 in0.0 mm 0.00 in0.0 mm 0.00 in0.0 mm
01:45 PM 48.9°F9.4°C 22.5°F-5.3°C 35% 10.3 mph S16.6 kmh S 19.9 mph32.0 kmh 29.27 in991.2 mb 0.00 in0.0 mm 0.00 in0.0 mm 0.00 in0.0 mm
01:44 PM 49.1°F9.5°C 21.2°F-6.0°C 33% 8.7 mph WSW14.0 kmh WSW 17.4 mph28.0 kmh 29.27 in991.2 mb 0.00 in0.0 mm 0.00 in0.0 mm 0.00 in0.0 mm
01:42 PM 49.3°F9.6°C 22.8°F-5.1°C 35% 8.3 mph W13.4 kmh W 17.4 mph28.0 kmh 29.27 in991.2 mb 0.00 in0.0 mm 0.00 in0.0 mm 0.00 in0.0 mm
01:41 PM 49.5°F9.7°C 21.6°F-5.8°C 33% 8.3 mph SW13.4 kmh SW 22.4 mph36.0 kmh 29.27 in991.2 mb 0.00 in0.0 mm 0.00 in0.0 mm 0.00 in0.0 mm
01:40 PM 49.6°F9.8°C 22.5°F-5.3°C 34% 16.6 mph SW26.7 kmh SW 22.4 mph36.0 kmh 29.27 in991.2 mb 0.00 in0.0 mm 0.00 in0.0 mm 0.00 in0.0 mm
01:39 PM 49.8°F9.9°C 22.6°F-5.2°C 34% 10.7 mph WSW17.2 kmh WSW 17.4 mph28.0 kmh 29.27 in991.2 mb 0.00 in0.0 mm 0.00 in0.0 mm 0.00 in0.0 mm
01:38 PM 50.0°F10.0°C 23.4°F-4.8°C 35% 7.4 mph WSW11.9 kmh WSW 15.0 mph24.1 kmh 29.27 in991.2 mb 0.00 in0.0 mm 0.00 in0.0 mm 0.00 in0.0 mm
01:37 PM 50.0°F10.0°C 22.6°F-5.2°C 34% 6.5 mph WSW10.5 kmh WSW 9.8 mph15.8 kmh 29.27 in991.2 mb 0.00 in0.0 mm 0.00 in0.0 mm 0.00 in0.0 mm
01:36 PM 50.2°F10.1°C 22.1°F-5.5°C 33% 7.2 mph W11.6 kmh W 19.9 mph32.0 kmh 29.27 in991.2 mb 0.00 in0.0 mm 0.00 in0.0 mm 0.00 in0.0 mm
01:35 PM 50.2°F10.1°C 22.1°F-5.5°C 33% 15.4 mph WSW24.8 kmh WSW 19.9 mph32.0 kmh 29.27 in991.2 mb 0.00 in0.0 mm 0.00 in0.0 mm 0.00 in0.0 mm
01:34 PM 50.2°F10.1°C 22.1°F-5.5°C 33% 10.5 mph WSW16.9 kmh WSW 17.4 mph28.0 kmh 29.28 in991.5 mb 0.00 in0.0 mm 0.00 in0.0 mm 0.00 in0.0 mm
01:33 PM 50.2°F10.1°C 22.1°F-5.5°C 33% 5.8 mph WSW9.3 kmh WSW 15.0 mph24.1 kmh 29.29 in991.9 mb 0.00 in0.0 mm 0.00 in0.0 mm 0.00 in0.0 mm
01:32 PM 50.4°F10.2°C 21.6°F-5.8°C 32% 9.8 mph W15.8 kmh W 15.0 mph24.1 kmh 29.28 in991.5 mb 0.00 in0.0 mm 0.00 in0.0 mm 0.00 in0.0 mm
01:31 PM 50.4°F10.2°C 21.6°F-5.8°C 32% 11.4 mph WSW18.3 kmh WSW 15.0 mph24.1 kmh 29.28 in991.5 mb 0.00 in0.0 mm 0.00 in0.0 mm 0.00 in0.0 mm
01:30 PM 50.4°F10.2°C 20.8°F-6.2°C 31% 8.1 mph WSW13.0 kmh WSW 22.4 mph36.0 kmh 29.28 in991.5 mb 0.00 in0.0 mm 0.00 in0.0 mm 0.00 in0.0 mm
01:29 PM 50.4°F10.2°C 23.7°F-4.6°C 35% 4.0 mph WNW6.4 kmh WNW 15.0 mph24.1 kmh 29.26 in990.9 mb 0.00 in0.0 mm 0.00 in0.0 mm 0.00 in0.0 mm
01:27 PM 50.4°F10.2°C 23.7°F-4.6°C 35% 8.9 mph WSW14.3 kmh WSW 19.9 mph32.0 kmh 29.28 in991.5 mb 0.00 in0.0 mm 0.00 in0.0 mm 0.00 in0.0 mm
01:26 PM 50.4°F10.2°C 24.4°F-4.2°C 36% 10.5 mph SW16.9 kmh SW 15.0 mph24.1 kmh 29.28 in991.5 mb 0.00 in0.0 mm 0.00 in0.0 mm 0.00 in0.0 mm
01:25 PM 50.5°F10.3°C 23.9°F-4.5°C 35% 8.1 mph WSW13.0 kmh WSW 12.3 mph19.8 kmh 29.29 in991.9 mb 0.00 in0.0 mm 0.00 in0.0 mm 0.00 in0.0 mm
01:24 PM 50.5°F10.3°C 23.9°F-4.5°C 35% 7.2 mph WSW11.6 kmh WSW 19.9 mph32.0 kmh 29.28 in991.5 mb 0.00 in0.0 mm 0.00 in0.0 mm 0.00 in0.0 mm
01:23 PM 50.5°F10.3°C 23.9°F-4.5°C 35% 9.6 mph SW15.4 kmh SW 22.4 mph36.0 kmh 29.28 in991.5 mb 0.00 in0.0 mm 0.00 in0.0 mm 0.00 in0.0 mm
01:22 PM 50.5°F10.3°C 23.2°F-4.9°C 34% 10.5 mph SW16.9 kmh SW 19.9 mph32.0 kmh 29.28 in991.5 mb 0.00 in0.0 mm 0.00 in0.0 mm 0.00 in0.0 mm
01:21 PM 50.5°F10.3°C 22.5°F-5.3°C 33% 5.6 mph WSW9.0 kmh WSW 12.3 mph19.8 kmh 29.28 in991.5 mb 0.00 in0.0 mm 0.00 in0.0 mm 0.00 in0.0 mm
01:20 PM 50.5°F10.3°C 22.5°F-5.3°C 33% 8.7 mph SW14.0 kmh SW 9.8 mph15.8 kmh 29.29 in991.9 mb 0.00 in0.0 mm 0.00 in0.0 mm 0.00 in0.0 mm
01:19 PM 50.4°F10.2°C 22.3°F-5.4°C 33% 8.1 mph SW13.0 kmh SW 15.0 mph24.1 kmh 29.28 in991.5 mb 0.00 in0.0 mm 0.00 in0.0 mm 0.00 in0.0 mm
01:18 PM 50.4°F10.2°C 22.3°F-5.4°C 33% 6.0 mph W9.7 kmh W 15.0 mph24.1 kmh 29.28 in991.5 mb 0.00 in0.0 mm 0.00 in0.0 mm 0.00 in0.0 mm
01:17 PM 50.4°F10.2°C 22.3°F-5.4°C 33% 7.2 mph WSW11.6 kmh WSW 12.3 mph19.8 kmh 29.28 in991.5 mb 0.00 in0.0 mm 0.00 in0.0 mm 0.00 in0.0 mm
01:16 PM 50.4°F10.2°C 21.6°F-5.8°C 32% 9.8 mph W15.8 kmh W 17.4 mph28.0 kmh 29.29 in991.9 mb 0.00 in0.0 mm 0.00 in0.0 mm 0.00 in0.0 mm
01:15 PM 50.2°F10.1°C 21.4°F-5.9°C 32% 13.9 mph SW22.4 kmh SW 17.4 mph28.0 kmh 29.29 in991.9 mb 0.00 in0.0 mm 0.00 in0.0 mm 0.00 in0.0 mm
01:14 PM 50.2°F10.1°C 21.4°F-5.9°C 32% 2.0 mph SSE3.2 kmh SSE 12.3 mph19.8 kmh 29.29 in991.9 mb 0.00 in0.0 mm 0.00 in0.0 mm 0.00 in0.0 mm
01:12 PM 50.2°F10.1°C 22.1°F-5.5°C 33% 7.4 mph S11.9 kmh S 15.0 mph24.1 kmh 29.29 in991.9 mb 0.00 in0.0 mm 0.00 in0.0 mm 0.00 in0.0 mm
01:11 PM 50.0°F10.0°C 22.1°F-5.5°C 33% 13.6 mph SSW21.9 kmh SSW 15.0 mph24.1 kmh 29.31 in992.6 mb 0.00 in0.0 mm 0.00 in0.0 mm 0.00 in0.0 mm
01:10 PM 50.0°F10.0°C 22.6°F-5.2°C 34% 5.8 mph NW9.3 kmh NW 17.4 mph28.0 kmh 29.29 in991.9 mb 0.00 in0.0 mm 0.00 in0.0 mm 0.00 in0.0 mm
01:09 PM 50.0°F10.0°C 18.1°F-7.7°C 28% 12.3 mph W19.8 kmh W 17.4 mph28.0 kmh 29.30 in992.2 mb 0.00 in0.0 mm 0.00 in0.0 mm 0.00 in0.0 mm
01:08 PM 50.0°F10.0°C 18.1°F-7.7°C 28% 5.8 mph NW9.3 kmh NW 19.9 mph32.0 kmh 29.29 in991.9 mb 0.00 in0.0 mm 0.00 in0.0 mm 0.00 in0.0 mm
01:07 PM 49.8°F9.9°C 18.9°F-7.3°C 29% 14.3 mph SSW23.0 kmh SSW 19.9 mph32.0 kmh 29.30 in992.2 mb 0.00 in0.0 mm 0.00 in0.0 mm 0.00 in0.0 mm
01:06 PM 49.8°F9.9°C 18.9°F-7.3°C 29% 8.7 mph W14.0 kmh W 9.8 mph15.8 kmh 29.29 in991.9 mb 0.00 in0.0 mm 0.00 in0.0 mm 0.00 in0.0 mm
01:05 PM 49.8°F9.9°C 18.9°F-7.3°C 29% 4.9 mph SSW7.9 kmh SSW 17.4 mph28.0 kmh 29.29 in991.9 mb 0.00 in0.0 mm 0.00 in0.0 mm 0.00 in0.0 mm
01:04 PM 49.8°F9.9°C 19.6°F-6.9°C 30% 5.6 mph WSW9.0 kmh WSW 17.4 mph28.0 kmh 29.30 in992.2 mb 0.00 in0.0 mm 0.00 in0.0 mm 0.00 in0.0 mm
01:03 PM 50.0°F10.0°C 19.0°F-7.2°C 29% 15.2 mph WSW24.5 kmh WSW 17.4 mph28.0 kmh 29.30 in992.2 mb 0.00 in0.0 mm 0.00 in0.0 mm 0.00 in0.0 mm
01:02 PM 50.0°F10.0°C 19.0°F-7.2°C 29% 4.5 mph W7.2 kmh W 9.8 mph15.8 kmh 29.30 in992.2 mb 0.00 in0.0 mm 0.00 in0.0 mm 0.00 in0.0 mm
01:01 PM 49.8°F9.9°C 18.0°F-7.8°C 28% 8.9 mph W14.3 kmh W 9.8 mph15.8 kmh 29.30 in992.2 mb 0.00 in0.0 mm 0.00 in0.0 mm 0.00 in0.0 mm
01:00 PM 49.8°F9.9°C 18.0°F-7.8°C 28% 7.4 mph WSW11.9 kmh WSW 12.3 mph19.8 kmh 29.30 in992.2 mb 0.00 in0.0 mm 0.00 in0.0 mm 0.00 in0.0 mm
12:59 PM 50.0°F10.0°C 22.1°F-5.5°C 33% 5.6 mph WSW9.0 kmh WSW 19.9 mph32.0 kmh 29.30 in992.2 mb 0.00 in0.0 mm 0.00 in0.0 mm 0.00 in0.0 mm
12:57 PM 50.0°F10.0°C 22.1°F-5.5°C 33% 8.3 mph S13.4 kmh S 12.3 mph19.8 kmh 29.31 in992.6 mb 0.00 in0.0 mm 0.00 in0.0 mm 0.00 in0.0 mm
12:56 PM 50.0°F10.0°C 21.4°F-5.9°C 32% 9.8 mph W15.8 kmh W 27.5 mph44.3 kmh 29.30 in992.2 mb 0.00 in0.0 mm 0.00 in0.0 mm 0.00 in0.0 mm
12:55 PM 50.0°F10.0°C 18.1°F-7.7°C 28% 5.1 mph WNW8.2 kmh WNW 9.8 mph15.8 kmh 29.30 in992.2 mb 0.00 in0.0 mm 0.00 in0.0 mm 0.00 in0.0 mm
12:54 PM 50.2°F10.1°C 18.3°F-7.6°C 28% 8.1 mph SW13.0 kmh SW 17.4 mph28.0 kmh 29.29 in991.9 mb 0.00 in0.0 mm 0.00 in0.0 mm 0.00 in0.0 mm
12:53 PM 50.2°F10.1°C 19.2°F-7.1°C 29% 13.9 mph WSW22.4 kmh WSW 19.9 mph32.0 kmh 29.30 in992.2 mb 0.00 in0.0 mm 0.00 in0.0 mm 0.00 in0.0 mm
12:52 PM 50.2°F10.1°C 19.2°F-7.1°C 29% 7.2 mph WNW11.6 kmh WNW 12.3 mph19.8 kmh 29.30 in992.2 mb 0.00 in0.0 mm 0.00 in0.0 mm 0.00 in0.0 mm
12:51 PM 50.4°F10.2°C 20.1°F-6.6°C 30% 8.3 mph WSW13.4 kmh WSW 17.4 mph28.0 kmh 29.30 in992.2 mb 0.00 in0.0 mm 0.00 in0.0 mm 0.00 in0.0 mm
12:50 PM 50.4°F10.2°C 20.1°F-6.6°C 30% 6.7 mph W10.8 kmh W 19.9 mph32.0 kmh 29.30 in992.2 mb 0.00 in0.0 mm 0.00 in0.0 mm 0.00 in0.0 mm
12:49 PM 50.5°F10.3°C 20.3°F-6.5°C 30% 4.5 mph WSW7.2 kmh WSW 17.4 mph28.0 kmh 29.30 in992.2 mb 0.00 in0.0 mm 0.00 in0.0 mm 0.00 in0.0 mm
12:48 PM 50.4°F10.2°C 20.1°F-6.6°C 30% 6.7 mph WSW10.8 kmh WSW 12.3 mph19.8 kmh 29.30 in992.2 mb 0.00 in0.0 mm 0.00 in0.0 mm 0.00 in0.0 mm
12:47 PM 50.4°F10.2°C 24.4°F-4.2°C 36% 9.8 mph WSW15.8 kmh WSW 15.0 mph24.1 kmh 29.30 in992.2 mb 0.00 in0.0 mm 0.00 in0.0 mm 0.00 in0.0 mm
12:46 PM 50.4°F10.2°C 24.4°F-4.2°C 36% 11.2 mph S18.0 kmh S 19.9 mph32.0 kmh 29.30 in992.2 mb 0.00 in0.0 mm 0.00 in0.0 mm 0.00 in0.0 mm
12:45 PM 50.2°F10.1°C 23.5°F-4.7°C 35% 6.7 mph WSW10.8 kmh WSW 9.8 mph15.8 kmh 29.30 in992.2 mb 0.00 in0.0 mm 0.00 in0.0 mm 0.00 in0.0 mm
12:44 PM 50.2°F10.1°C 24.3°F-4.3°C 36% 2.0 mph NW3.2 kmh NW 9.8 mph15.8 kmh 29.30 in992.2 mb 0.00 in0.0 mm 0.00 in0.0 mm 0.00 in0.0 mm
12:42 PM 50.2°F10.1°C 24.3°F-4.3°C 36% 7.4 mph SW11.9 kmh SW 15.0 mph24.1 kmh 29.32 in992.9 mb 0.00 in0.0 mm 0.00 in0.0 mm 0.00 in0.0 mm
12:41 PM 50.2°F10.1°C 23.5°F-4.7°C 35% 10.3 mph SW16.6 kmh SW 15.0 mph24.1 kmh 29.32 in992.9 mb 0.00 in0.0 mm 0.00 in0.0 mm 0.00 in0.0 mm
12:40 PM 50.0°F10.0°C 23.4°F-4.8°C 35% 5.1 mph SW8.2 kmh SW 12.3 mph19.8 kmh 29.30 in992.2 mb 0.00 in0.0 mm 0.00 in0.0 mm 0.00 in0.0 mm
12:39 PM 49.8°F9.9°C 23.2°F-4.9°C 35% 5.8 mph ESE9.3 kmh ESE 9.8 mph15.8 kmh 29.30 in992.2 mb 0.00 in0.0 mm 0.00 in0.0 mm 0.00 in0.0 mm
12:38 PM 49.6°F9.8°C 23.7°F-4.6°C 36% 1.1 mph ESE1.8 kmh ESE 12.3 mph19.8 kmh 29.30 in992.2 mb 0.00 in0.0 mm 0.00 in0.0 mm 0.00 in0.0 mm
12:37 PM 49.6°F9.8°C 23.7°F-4.6°C 36% 11.4 mph WSW18.3 kmh WSW 24.8 mph39.9 kmh 29.32 in992.9 mb 0.00 in0.0 mm 0.00 in0.0 mm 0.00 in0.0 mm
12:36 PM 49.6°F9.8°C 23.2°F-4.9°C 35% 13.0 mph WSW20.9 kmh WSW 17.4 mph28.0 kmh 29.32 in992.9 mb 0.00 in0.0 mm 0.00 in0.0 mm 0.00 in0.0 mm
12:35 PM 49.5°F9.7°C 23.0°F-5.0°C 35% 1.1 mph WSW1.8 kmh WSW 17.4 mph28.0 kmh 29.32 in992.9 mb 0.00 in0.0 mm 0.00 in0.0 mm 0.00 in0.0 mm
12:34 PM 49.3°F9.6°C 22.1°F-5.5°C 34% 9.2 mph S14.8 kmh S 17.4 mph28.0 kmh 29.33 in993.2 mb 0.00 in0.0 mm 0.00 in0.0 mm 0.00 in0.0 mm
12:33 PM 49.3°F9.6°C 22.8°F-5.1°C 35% 6.5 mph WSW10.5 kmh WSW 9.8 mph15.8 kmh 29.32 in992.9 mb 0.00 in0.0 mm 0.00 in0.0 mm 0.00 in0.0 mm
12:32 PM 49.3°F9.6°C 22.1°F-5.5°C 34% 2.0 mph SW3.2 kmh SW 9.8 mph15.8 kmh 29.33 in993.2 mb 0.00 in0.0 mm 0.00 in0.0 mm 0.00 in0.0 mm
12:31 PM 49.3°F9.6°C 22.1°F-5.5°C 34% 5.6 mph SW9.0 kmh SW 19.9 mph32.0 kmh 29.32 in992.9 mb 0.00 in0.0 mm 0.00 in0.0 mm 0.00 in0.0 mm
12:30 PM 49.3°F9.6°C 21.4°F-5.9°C 33% 13.4 mph WSW21.6 kmh WSW 19.9 mph32.0 kmh 29.34 in993.6 mb 0.00 in0.0 mm 0.00 in0.0 mm 0.00 in0.0 mm
12:29 PM 49.1°F9.5°C 20.5°F-6.4°C 32% 8.9 mph SW14.3 kmh SW 12.3 mph19.8 kmh 29.32 in992.9 mb 0.00 in0.0 mm 0.00 in0.0 mm 0.00 in0.0 mm
12:28 PM 48.9°F9.4°C 20.3°F-6.5°C 32% 6.5 mph WSW10.5 kmh WSW 12.3 mph19.8 kmh 29.34 in993.6 mb 0.00 in0.0 mm 0.00 in0.0 mm 0.00 in0.0 mm
12:26 PM 48.7°F9.3°C 20.8°F-6.2°C 33% 6.7 mph SW10.8 kmh SW 24.8 mph39.9 kmh 29.32 in992.9 mb 0.00 in0.0 mm 0.00 in0.0 mm 0.00 in0.0 mm
12:25 PM 48.6°F9.2°C 20.8°F-6.2°C 33% 8.7 mph WSW14.0 kmh WSW 17.4 mph28.0 kmh 29.32 in992.9 mb 0.00 in0.0 mm 0.00 in0.0 mm 0.00 in0.0 mm
12:24 PM 48.2°F9.0°C 21.2°F-6.0°C 34% 13.9 mph S22.4 kmh S 17.4 mph28.0 kmh 29.32 in992.9 mb 0.00 in0.0 mm 0.00 in0.0 mm 0.00 in0.0 mm
12:23 PM 48.0°F8.9°C 21.0°F-6.1°C 34% 3.4 mph WSW5.5 kmh WSW 9.8 mph15.8 kmh 29.32 in992.9 mb 0.00 in0.0 mm 0.00 in0.0 mm 0.00 in0.0 mm
12:22 PM 47.8°F8.8°C 21.6°F-5.8°C 35% 4.5 mph NW7.2 kmh NW 24.8 mph39.9 kmh 29.33 in993.2 mb 0.00 in0.0 mm 0.00 in0.0 mm 0.00 in0.0 mm
12:21 PM 47.7°F8.7°C 20.7°F-6.3°C 34% 16.8 mph SSW27.0 kmh SSW 24.8 mph39.9 kmh 29.33 in993.2 mb 0.00 in0.0 mm 0.00 in0.0 mm 0.00 in0.0 mm
12:20 PM 47.7°F8.7°C 21.4°F-5.9°C 35% 8.1 mph W13.0 kmh W 9.8 mph15.8 kmh 29.33 in993.2 mb 0.00 in0.0 mm 0.00 in0.0 mm 0.00 in0.0 mm
12:19 PM 47.5°F8.6°C 21.2°F-6.0°C 35% 3.6 mph NNW5.8 kmh NNW 12.3 mph19.8 kmh 29.33 in993.2 mb 0.00 in0.0 mm 0.00 in0.0 mm 0.00 in0.0 mm
12:18 PM 47.5°F8.6°C 19.8°F-6.8°C 33% 7.4 mph WSW11.9 kmh WSW 12.3 mph19.8 kmh 29.32 in992.9 mb 0.00 in0.0 mm 0.00 in0.0 mm 0.00 in0.0 mm
12:17 PM 47.5°F8.6°C 20.5°F-6.4°C 34% 8.1 mph WSW13.0 kmh WSW 15.0 mph24.1 kmh 29.33 in993.2 mb 0.00 in0.0 mm 0.00 in0.0 mm 0.00 in0.0 mm
12:16 PM 47.5°F8.6°C 20.5°F-6.4°C 34% 12.8 mph WSW20.6 kmh WSW 19.9 mph32.0 kmh 29.33 in993.2 mb 0.00 in0.0 mm 0.00 in0.0 mm 0.00 in0.0 mm
12:15 PM 47.5°F8.6°C 21.2°F-6.0°C 35% 16.1 mph SW25.9 kmh SW 22.4 mph36.0 kmh 29.33 in993.2 mb 0.00 in0.0 mm 0.00 in0.0 mm 0.00 in0.0 mm
12:14 PM 47.3°F8.5°C 21.0°F-6.1°C 35% 9.8 mph SW15.8 kmh SW 15.0 mph24.1 kmh 29.33 in993.2 mb 0.00 in0.0 mm 0.00 in0.0 mm 0.00 in0.0 mm
12:13 PM 47.3°F8.5°C 21.7°F-5.7°C 36% 5.1 mph SW8.2 kmh SW 15.0 mph24.1 kmh 29.33 in993.2 mb 0.00 in0.0 mm 0.00 in0.0 mm 0.00 in0.0 mm
12:11 PM 47.3°F8.5°C 22.3°F-5.4°C 37% 8.7 mph WSW14.0 kmh WSW 9.8 mph15.8 kmh 29.33 in993.2 mb 0.00 in0.0 mm 0.00 in0.0 mm 0.00 in0.0 mm
12:10 PM 47.3°F8.5°C 19.6°F-6.9°C 33% 2.0 mph SSE3.2 kmh SSE 12.3 mph19.8 kmh 29.34 in993.6 mb 0.00 in0.0 mm 0.00 in0.0 mm 0.00 in0.0 mm
12:09 PM 47.3°F8.5°C 21.7°F-5.7°C 36% 8.9 mph W14.3 kmh W 22.4 mph36.0 kmh 29.33 in993.2 mb 0.00 in0.0 mm 0.00 in0.0 mm 0.00 in0.0 mm
12:08 PM 47.3°F8.5°C 21.7°F-5.7°C 36% 10.7 mph SW17.2 kmh SW 22.4 mph36.0 kmh 29.36 in994.2 mb 0.00 in0.0 mm 0.00 in0.0 mm 0.00 in0.0 mm
12:07 PM 47.3°F8.5°C 21.7°F-5.7°C 36% 5.8 mph S9.3 kmh S 19.9 mph32.0 kmh 29.34 in993.6 mb 0.00 in0.0 mm 0.00 in0.0 mm 0.00 in0.0 mm
12:06 PM 47.3°F8.5°C 21.7°F-5.7°C 36% 4.9 mph SSW7.9 kmh SSW 19.9 mph32.0 kmh 29.34 in993.6 mb 0.00 in0.0 mm 0.00 in0.0 mm 0.00 in0.0 mm
12:05 PM 47.3°F8.5°C 22.3°F-5.4°C 37% 11.9 mph S19.2 kmh S 17.4 mph28.0 kmh 29.33 in993.2 mb 0.00 in0.0 mm 0.00 in0.0 mm 0.00 in0.0 mm
12:04 PM 47.3°F8.5°C 21.7°F-5.7°C 36% 9.6 mph SW15.4 kmh SW 17.4 mph28.0 kmh 29.33 in993.2 mb 0.00 in0.0 mm 0.00 in0.0 mm 0.00 in0.0 mm
12:03 PM 47.1°F8.4°C 21.6°F-5.8°C 36% 7.4 mph WSW11.9 kmh WSW 15.0 mph24.1 kmh 29.33 in993.2 mb 0.00 in0.0 mm 0.00 in0.0 mm 0.00 in0.0 mm
12:02 PM 47.1°F8.4°C 22.1°F-5.5°C 37% 1.3 mph SW2.1 kmh SW 9.8 mph15.8 kmh 29.33 in993.2 mb 0.00 in0.0 mm 0.00 in0.0 mm 0.00 in0.0 mm
12:01 PM 47.1°F8.4°C 22.1°F-5.5°C 37% 6.0 mph SW9.7 kmh SW 9.8 mph15.8 kmh 29.33 in993.2 mb 0.00 in0.0 mm 0.00 in0.0 mm 0.00 in0.0 mm
12:00 PM 47.1°F8.4°C 22.1°F-5.5°C 37% 0.2 mph SSW0.3 kmh SSW 15.0 mph24.1 kmh 29.33 in993.2 mb 0.00 in0.0 mm 0.00 in0.0 mm 0.00 in0.0 mm
11:59 AM 47.1°F8.4°C 22.1°F-5.5°C 37% 8.1 mph SW13.0 kmh SW 17.4 mph28.0 kmh 29.33 in993.2 mb 0.00 in0.0 mm 0.00 in0.0 mm 0.00 in0.0 mm
11:58 AM 46.9°F8.3°C 22.1°F-5.5°C 37% 13.0 mph WSW20.9 kmh WSW 17.4 mph28.0 kmh 29.33 in993.2 mb 0.00 in0.0 mm 0.00 in0.0 mm 0.00 in0.0 mm
11:56 AM 46.9°F8.3°C 19.9°F-6.7°C 34% 8.7 mph SW14.0 kmh SW 12.3 mph19.8 kmh 29.33 in993.2 mb 0.00 in0.0 mm 0.00 in0.0 mm 0.00 in0.0 mm
11:55 AM 46.9°F8.3°C 19.4°F-7.0°C 33% 9.2 mph SW14.8 kmh SW 17.4 mph28.0 kmh 29.33 in993.2 mb 0.00 in0.0 mm 0.00 in0.0 mm 0.00 in0.0 mm
11:54 AM 46.9°F8.3°C 22.1°F-5.5°C 37% 14.3 mph SW23.0 kmh SW 17.4 mph28.0 kmh 29.33 in993.2 mb 0.00 in0.0 mm 0.00 in0.0 mm 0.00 in0.0 mm
11:53 AM 46.9°F8.3°C 19.4°F-7.0°C 33% 2.9 mph SW4.7 kmh SW 12.3 mph19.8 kmh 29.33 in993.2 mb 0.00 in0.0 mm 0.00 in0.0 mm 0.00 in0.0 mm
11:52 AM 46.9°F8.3°C 20.7°F-6.3°C 35% 10.7 mph WSW17.2 kmh WSW 15.0 mph24.1 kmh 29.33 in993.2 mb 0.00 in0.0 mm 0.00 in0.0 mm 0.00 in0.0 mm
11:51 AM 46.8°F8.2°C 19.9°F-6.7°C 34% 4.5 mph WSW7.2 kmh WSW 15.0 mph24.1 kmh 29.34 in993.6 mb 0.00 in0.0 mm 0.00 in0.0 mm 0.00 in0.0 mm
11:50 AM 46.8°F8.2°C 19.9°F-6.7°C 34% 1.1 mph SSW1.8 kmh SSW 12.3 mph19.8 kmh 29.33 in993.2 mb 0.00 in0.0 mm 0.00 in0.0 mm 0.00 in0.0 mm
11:49 AM 46.6°F8.1°C 20.3°F-6.5°C 35% 5.1 mph WSW8.2 kmh WSW 12.3 mph19.8 kmh 29.33 in993.2 mb 0.00 in0.0 mm 0.00 in0.0 mm 0.00 in0.0 mm
11:48 AM 46.6°F8.1°C 20.3°F-6.5°C 35% 9.8 mph WSW15.8 kmh WSW 12.3 mph19.8 kmh 29.33 in993.2 mb 0.00 in0.0 mm 0.00 in0.0 mm 0.00 in0.0 mm
11:47 AM 46.6°F8.1°C 20.3°F-6.5°C 35% 7.6 mph W12.2 kmh W 9.8 mph15.8 kmh 29.33 in993.2 mb 0.00 in0.0 mm 0.00 in0.0 mm 0.00 in0.0 mm
11:46 AM 46.6°F8.1°C 19.8°F-6.8°C 34% 6.5 mph SW10.5 kmh SW 12.3 mph19.8 kmh 29.34 in993.6 mb 0.00 in0.0 mm 0.00 in0.0 mm 0.00 in0.0 mm
11:45 AM 46.6°F8.1°C 20.3°F-6.5°C 35% 6.5 mph SW10.5 kmh SW 9.8 mph15.8 kmh 29.35 in993.9 mb 0.00 in0.0 mm 0.00 in0.0 mm 0.00 in0.0 mm
11:44 AM 46.6°F8.1°C 20.3°F-6.5°C 35% 6.7 mph SW10.8 kmh SW 17.4 mph28.0 kmh 29.35 in993.9 mb 0.00 in0.0 mm 0.00 in0.0 mm 0.00 in0.0 mm
11:43 AM 46.6°F8.1°C 20.3°F-6.5°C 35% 5.8 mph WSW9.3 kmh WSW 7.4 mph11.9 kmh 29.35 in993.9 mb 0.00 in0.0 mm 0.00 in0.0 mm 0.00 in0.0 mm
11:41 AM 46.6°F8.1°C 19.0°F-7.2°C 33% 4.5 mph WSW7.2 kmh WSW 9.8 mph15.8 kmh 29.34 in993.6 mb 0.00 in0.0 mm 0.00 in0.0 mm 0.00 in0.0 mm
11:40 AM 46.8°F8.2°C 19.2°F-7.1°C 33% 8.3 mph S13.4 kmh S 17.4 mph28.0 kmh 29.35 in993.9 mb 0.00 in0.0 mm 0.00 in0.0 mm 0.00 in0.0 mm
11:39 AM 46.6°F8.1°C 21.0°F-6.1°C 36% 9.8 mph SSW15.8 kmh SSW 17.4 mph28.0 kmh 29.35 in993.9 mb 0.00 in0.0 mm 0.00 in0.0 mm 0.00 in0.0 mm
11:38 AM 46.6°F8.1°C 21.7°F-5.7°C 37% 5.1 mph SSW8.2 kmh SSW 15.0 mph24.1 kmh 29.35 in993.9 mb 0.00 in0.0 mm 0.00 in0.0 mm 0.00 in0.0 mm
11:37 AM 46.6°F8.1°C 21.0°F-6.1°C 36% 2.7 mph WSW4.3 kmh WSW 15.0 mph24.1 kmh 29.35 in993.9 mb 0.00 in0.0 mm 0.00 in0.0 mm 0.00 in0.0 mm
11:36 AM 46.4°F8.0°C 21.6°F-5.8°C 37% 4.5 mph NW7.2 kmh NW 15.0 mph24.1 kmh 29.35 in993.9 mb 0.00 in0.0 mm 0.00 in0.0 mm 0.00 in0.0 mm
11:35 AM 46.6°F8.1°C 19.8°F-6.8°C 34% 9.2 mph SE14.8 kmh SE 12.3 mph19.8 kmh 29.35 in993.9 mb 0.00 in0.0 mm 0.00 in0.0 mm 0.00 in0.0 mm
11:34 AM 46.6°F8.1°C 21.7°F-5.7°C 37% 11.9 mph SW19.2 kmh SW 17.4 mph28.0 kmh 29.37 in994.6 mb 0.00 in0.0 mm 0.00 in0.0 mm 0.00 in0.0 mm
11:33 AM 46.6°F8.1°C 21.7°F-5.7°C 37% 4.9 mph SW7.9 kmh SW 22.4 mph36.0 kmh 29.37 in994.6 mb 0.00 in0.0 mm 0.00 in0.0 mm 0.00 in0.0 mm
11:32 AM 46.6°F8.1°C 21.0°F-6.1°C 36% 15.9 mph SW25.6 kmh SW 22.4 mph36.0 kmh 29.37 in994.6 mb 0.00 in0.0 mm 0.00 in0.0 mm 0.00 in0.0 mm
11:31 AM 46.6°F8.1°C 20.3°F-6.5°C 35% 12.1 mph SSE19.5 kmh SSE 15.0 mph24.1 kmh 29.35 in993.9 mb 0.00 in0.0 mm 0.00 in0.0 mm 0.00 in0.0 mm
11:30 AM 46.6°F8.1°C 20.3°F-6.5°C 35% 9.2 mph SSW14.8 kmh SSW 19.9 mph32.0 kmh 29.37 in994.6 mb 0.00 in0.0 mm 0.00 in0.0 mm 0.00 in0.0 mm
11:29 AM 46.4°F8.0°C 20.3°F-6.5°C 35% 4.3 mph SSE6.9 kmh SSE 15.0 mph24.1 kmh 29.37 in994.6 mb 0.00 in0.0 mm 0.00 in0.0 mm 0.00 in0.0 mm
11:28 AM 46.4°F8.0°C 19.6°F-6.9°C 34% 5.1 mph S8.2 kmh S 15.0 mph24.1 kmh 29.39 in995.3 mb 0.00 in0.0 mm 0.00 in0.0 mm 0.00 in0.0 mm
11:26 AM 46.4°F8.0°C 19.6°F-6.9°C 34% 8.9 mph S14.3 kmh S 22.4 mph36.0 kmh 29.39 in995.3 mb 0.00 in0.0 mm 0.00 in0.0 mm 0.00 in0.0 mm
11:25 AM 46.4°F8.0°C 19.6°F-6.9°C 34% 12.3 mph SW19.8 kmh SW 22.4 mph36.0 kmh 29.37 in994.6 mb 0.00 in0.0 mm 0.00 in0.0 mm 0.00 in0.0 mm
11:24 AM 46.6°F8.1°C 19.8°F-6.8°C 34% 12.3 mph S19.8 kmh S 24.8 mph39.9 kmh 29.39 in995.3 mb 0.00 in0.0 mm 0.00 in0.0 mm 0.00 in0.0 mm
11:23 AM 46.6°F8.1°C 19.8°F-6.8°C 34% 18.1 mph SW29.1 kmh SW 22.4 mph36.0 kmh 29.37 in994.6 mb 0.00 in0.0 mm 0.00 in0.0 mm 0.00 in0.0 mm
11:22 AM 46.8°F8.2°C 19.9°F-6.7°C 34% 13.4 mph WNW21.6 kmh WNW 19.9 mph32.0 kmh 29.39 in995.3 mb 0.00 in0.0 mm 0.00 in0.0 mm 0.00 in0.0 mm
11:21 AM 46.8°F8.2°C 19.9°F-6.7°C 34% 6.7 mph WSW10.8 kmh WSW 15.0 mph24.1 kmh 29.39 in995.3 mb 0.00 in0.0 mm 0.00 in0.0 mm 0.00 in0.0 mm
11:20 AM 46.9°F8.3°C 19.4°F-7.0°C 33% 2.7 mph SE4.3 kmh SE 22.4 mph36.0 kmh 29.39 in995.3 mb 0.00 in0.0 mm 0.00 in0.0 mm 0.00 in0.0 mm
11:19 AM 46.9°F8.3°C 19.9°F-6.7°C 34% 19.0 mph S30.6 kmh S 19.9 mph32.0 kmh 29.39 in995.3 mb 0.00 in0.0 mm 0.00 in0.0 mm 0.00 in0.0 mm
11:18 AM 46.8°F8.2°C 21.9°F-5.6°C 37% 4.5 mph S7.2 kmh S 15.0 mph24.1 kmh 29.39 in995.3 mb 0.00 in0.0 mm 0.00 in0.0 mm 0.00 in0.0 mm
11:17 AM 46.8°F8.2°C 21.9°F-5.6°C 37% 4.3 mph SW6.9 kmh SW 19.9 mph32.0 kmh 29.39 in995.3 mb 0.00 in0.0 mm 0.00 in0.0 mm 0.00 in0.0 mm
11:16 AM 46.8°F8.2°C 21.2°F-6.0°C 36% 9.6 mph S15.4 kmh S 24.8 mph39.9 kmh 29.38 in994.9 mb 0.00 in0.0 mm 0.00 in0.0 mm 0.00 in0.0 mm
11:15 AM 46.8°F8.2°C 21.9°F-5.6°C 37% 15.4 mph SW24.8 kmh SW 24.8 mph39.9 kmh 29.38 in994.9 mb 0.00 in0.0 mm 0.00 in0.0 mm 0.00 in0.0 mm
11:14 AM 46.6°F8.1°C 21.0°F-6.1°C 36% 8.9 mph WSW14.3 kmh WSW 12.3 mph19.8 kmh 29.38 in994.9 mb 0.00 in0.0 mm 0.00 in0.0 mm 0.00 in0.0 mm
11:13 AM 46.6°F8.1°C 21.7°F-5.7°C 37% 6.0 mph WSW9.7 kmh WSW 15.0 mph24.1 kmh 29.39 in995.3 mb 0.00 in0.0 mm 0.00 in0.0 mm 0.00 in0.0 mm
11:11 AM 46.6°F8.1°C 21.7°F-5.7°C 37% 8.1 mph WSW13.0 kmh WSW 12.3 mph19.8 kmh 29.39 in995.3 mb 0.00 in0.0 mm 0.00 in0.0 mm 0.00 in0.0 mm
11:10 AM 46.6°F8.1°C 21.7°F-5.7°C 37% 6.5 mph WSW10.5 kmh WSW 12.3 mph19.8 kmh 29.39 in995.3 mb 0.00 in0.0 mm 0.00 in0.0 mm 0.00 in0.0 mm
11:09 AM 46.6°F8.1°C 19.8°F-6.8°C 34% 4.3 mph SW6.9 kmh SW 17.4 mph28.0 kmh 29.39 in995.3 mb 0.00 in0.0 mm 0.00 in0.0 mm 0.00 in0.0 mm
11:08 AM 46.6°F8.1°C 19.8°F-6.8°C 34% 9.6 mph WSW15.4 kmh WSW 22.4 mph36.0 kmh 29.39 in995.3 mb 0.00 in0.0 mm 0.00 in0.0 mm 0.00 in0.0 mm
11:07 AM 46.6°F8.1°C 21.7°F-5.7°C 37% 18.1 mph SW29.1 kmh SW 22.4 mph36.0 kmh 29.39 in995.3 mb 0.00 in0.0 mm 0.00 in0.0 mm 0.00 in0.0 mm
11:06 AM 46.6°F8.1°C 21.7°F-5.7°C 37% 16.1 mph WSW25.9 kmh WSW 19.9 mph32.0 kmh 29.39 in995.3 mb 0.00 in0.0 mm 0.00 in0.0 mm 0.00 in0.0 mm
11:05 AM 46.4°F8.0°C 21.6°F-5.8°C 37% 11.2 mph SW18.0 kmh SW 12.3 mph19.8 kmh 29.39 in995.3 mb 0.00 in0.0 mm 0.00 in0.0 mm 0.00 in0.0 mm
11:04 AM 46.2°F7.9°C 20.7°F-6.3°C 36% 5.8 mph WNW9.3 kmh WNW 12.3 mph19.8 kmh 29.39 in995.3 mb 0.00 in0.0 mm 0.00 in0.0 mm 0.00 in0.0 mm
11:03 AM 46.2°F7.9°C 21.4°F-5.9°C 37% 8.7 mph WNW14.0 kmh WNW 17.4 mph28.0 kmh 29.39 in995.3 mb 0.00 in0.0 mm 0.00 in0.0 mm 0.00 in0.0 mm
11:02 AM 46.2°F7.9°C 21.9°F-5.6°C 38% 13.6 mph WSW21.9 kmh WSW 17.4 mph28.0 kmh 29.38 in994.9 mb 0.00 in0.0 mm 0.00 in0.0 mm 0.00 in0.0 mm
11:01 AM 46.2°F7.9°C 19.4°F-7.0°C 34% 11.2 mph SSW18.0 kmh SSW 17.4 mph28.0 kmh 29.40 in995.6 mb 0.00 in0.0 mm 0.00 in0.0 mm 0.00 in0.0 mm
11:00 AM 46.2°F7.9°C 19.4°F-7.0°C 34% 7.6 mph WSW12.2 kmh WSW 15.0 mph24.1 kmh 29.40 in995.6 mb 0.00 in0.0 mm 0.00 in0.0 mm 0.00 in0.0 mm
10:59 AM 46.4°F8.0°C 19.6°F-6.9°C 34% 11.2 mph S18.0 kmh S 15.0 mph24.1 kmh 29.40 in995.6 mb 0.00 in0.0 mm 0.00 in0.0 mm 0.00 in0.0 mm
10:58 AM 46.4°F8.0°C 19.6°F-6.9°C 34% 4.3 mph SSE6.9 kmh SSE 19.9 mph32.0 kmh 29.40 in995.6 mb 0.00 in0.0 mm 0.00 in0.0 mm 0.00 in0.0 mm
10:56 AM 46.4°F8.0°C 19.6°F-6.9°C 34% 15.2 mph WSW24.5 kmh WSW 19.9 mph32.0 kmh 29.40 in995.6 mb 0.00 in0.0 mm 0.00 in0.0 mm 0.00 in0.0 mm
10:55 AM 46.4°F8.0°C 19.6°F-6.9°C 34% 5.1 mph SW8.2 kmh SW 24.8 mph39.9 kmh 29.42 in996.3 mb 0.00 in0.0 mm 0.00 in0.0 mm 0.00 in0.0 mm
10:54 AM 46.4°F8.0°C 21.6°F-5.8°C 37% 18.6 mph WSW29.9 kmh WSW 24.8 mph39.9 kmh 29.40 in995.6 mb 0.00 in0.0 mm 0.00 in0.0 mm 0.00 in0.0 mm
10:53 AM 46.4°F8.0°C 20.8°F-6.2°C 36% 4.5 mph NNW7.2 kmh NNW 15.0 mph24.1 kmh 29.40 in995.6 mb 0.00 in0.0 mm 0.00 in0.0 mm 0.00 in0.0 mm
10:52 AM 46.2°F7.9°C 21.9°F-5.6°C 38% 6.5 mph WSW10.5 kmh WSW 15.0 mph24.1 kmh 29.41 in995.9 mb 0.00 in0.0 mm 0.00 in0.0 mm 0.00 in0.0 mm
10:51 AM 46.2°F7.9°C 21.9°F-5.6°C 38% 11.4 mph WNW18.3 kmh WNW 15.0 mph24.1 kmh 29.41 in995.9 mb 0.00 in0.0 mm 0.00 in0.0 mm 0.00 in0.0 mm
10:50 AM 46.2°F7.9°C 21.9°F-5.6°C 38% 5.1 mph SW8.2 kmh SW 12.3 mph19.8 kmh 29.42 in996.3 mb 0.00 in0.0 mm 0.00 in0.0 mm 0.00 in0.0 mm
10:49 AM 46.2°F7.9°C 20.1°F-6.6°C 35% 9.8 mph SW15.8 kmh SW 15.0 mph24.1 kmh 29.42 in996.3 mb 0.00 in0.0 mm 0.00 in0.0 mm 0.00 in0.0 mm
10:48 AM 46.2°F7.9°C 20.1°F-6.6°C 35% 7.4 mph WSW11.9 kmh WSW 15.0 mph24.1 kmh 29.42 in996.3 mb 0.00 in0.0 mm 0.00 in0.0 mm 0.00 in0.0 mm
10:47 AM 46.2°F7.9°C 20.1°F-6.6°C 35% 8.3 mph WSW13.4 kmh WSW 17.4 mph28.0 kmh 29.42 in996.3 mb 0.00 in0.0 mm 0.00 in0.0 mm 0.00 in0.0 mm
10:46 AM 46.2°F7.9°C 21.9°F-5.6°C 38% 5.1 mph W8.2 kmh W 15.0 mph24.1 kmh 29.43 in996.6 mb 0.00 in0.0 mm 0.00 in0.0 mm 0.00 in0.0 mm
10:45 AM 46.0°F7.8°C 21.9°F-5.6°C 38% 8.1 mph WSW13.0 kmh WSW 17.4 mph28.0 kmh 29.43 in996.6 mb 0.00 in0.0 mm 0.00 in0.0 mm 0.00 in0.0 mm
10:44 AM 46.0°F7.8°C 21.9°F-5.6°C 38% 4.5 mph SSW7.2 kmh SSW 9.8 mph15.8 kmh 29.41 in995.9 mb 0.00 in0.0 mm 0.00 in0.0 mm 0.00 in0.0 mm
10:43 AM 45.9°F7.7°C 21.7°F-5.7°C 38% 5.6 mph SW9.0 kmh SW 9.8 mph15.8 kmh 29.43 in996.6 mb 0.00 in0.0 mm 0.00 in0.0 mm 0.00 in0.0 mm
10:41 AM 45.9°F7.7°C 21.7°F-5.7°C 38% 3.4 mph WSW5.5 kmh WSW 9.8 mph15.8 kmh 29.43 in996.6 mb 0.00 in0.0 mm 0.00 in0.0 mm 0.00 in0.0 mm
10:40 AM 45.9°F7.7°C 21.7°F-5.7°C 38% 6.7 mph NW10.8 kmh NW 9.8 mph15.8 kmh 29.42 in996.3 mb 0.00 in0.0 mm 0.00 in0.0 mm 0.00 in0.0 mm
10:39 AM 45.9°F7.7°C 20.5°F-6.4°C 36% 4.3 mph W6.9 kmh W 4.9 mph7.9 kmh 29.44 in997.0 mb 0.00 in0.0 mm 0.00 in0.0 mm 0.00 in0.0 mm
10:38 AM 45.9°F7.7°C 19.8°F-6.8°C 35% 0.2 mph SW0.3 kmh SW 9.8 mph15.8 kmh 29.44 in997.0 mb 0.00 in0.0 mm 0.00 in0.0 mm 0.00 in0.0 mm
10:37 AM 45.9°F7.7°C 19.8°F-6.8°C 35% 6.7 mph W10.8 kmh W 15.0 mph24.1 kmh 29.44 in997.0 mb 0.00 in0.0 mm 0.00 in0.0 mm 0.00 in0.0 mm
10:36 AM 45.9°F7.7°C 19.8°F-6.8°C 35% 11.9 mph WSW19.2 kmh WSW 17.4 mph28.0 kmh 29.44 in997.0 mb 0.00 in0.0 mm 0.00 in0.0 mm 0.00 in0.0 mm
10:35 AM 45.9°F7.7°C 19.8°F-6.8°C 35% 8.3 mph SW13.4 kmh SW 17.4 mph28.0 kmh 29.44 in997.0 mb 0.00 in0.0 mm 0.00 in0.0 mm 0.00 in0.0 mm
10:34 AM 45.9°F7.7°C 19.0°F-7.2°C 34% 7.2 mph WSW11.6 kmh WSW 12.3 mph19.8 kmh 29.44 in997.0 mb 0.00 in0.0 mm 0.00 in0.0 mm 0.00 in0.0 mm
10:33 AM 45.9°F7.7°C 19.0°F-7.2°C 34% 6.0 mph SW9.7 kmh SW 12.3 mph19.8 kmh 29.44 in997.0 mb 0.00 in0.0 mm 0.00 in0.0 mm 0.00 in0.0 mm
10:32 AM 45.9°F7.7°C 19.8°F-6.8°C 35% 3.6 mph ESE5.8 kmh ESE 15.0 mph24.1 kmh 29.44 in997.0 mb 0.00 in0.0 mm 0.00 in0.0 mm 0.00 in0.0 mm
10:31 AM 45.7°F7.6°C 20.3°F-6.5°C 36% 6.0 mph SW9.7 kmh SW 15.0 mph24.1 kmh 29.44 in997.0 mb 0.00 in0.0 mm 0.00 in0.0 mm 0.00 in0.0 mm
10:30 AM 45.7°F7.6°C 21.6°F-5.8°C 38% 10.5 mph WSW16.9 kmh WSW 15.0 mph24.1 kmh 29.44 in997.0 mb 0.00 in0.0 mm 0.00 in0.0 mm 0.00 in0.0 mm
10:29 AM 45.5°F7.5°C 19.4°F-7.0°C 35% 4.9 mph S7.9 kmh S 17.4 mph28.0 kmh 29.44 in997.0 mb 0.00 in0.0 mm 0.00 in0.0 mm 0.00 in0.0 mm
10:28 AM 45.3°F7.4°C 21.2°F-6.0°C 38% 9.8 mph WSW15.8 kmh WSW 12.3 mph19.8 kmh 29.45 in997.3 mb 0.00 in0.0 mm 0.00 in0.0 mm 0.00 in0.0 mm
10:26 AM 45.3°F7.4°C 21.2°F-6.0°C 38% 10.5 mph SW16.9 kmh SW 15.0 mph24.1 kmh 29.45 in997.3 mb 0.00 in0.0 mm 0.00 in0.0 mm 0.00 in0.0 mm
10:25 AM 45.1°F7.3°C 19.0°F-7.2°C 35% 7.6 mph SW12.2 kmh SW 15.0 mph24.1 kmh 29.45 in997.3 mb 0.00 in0.0 mm 0.00 in0.0 mm 0.00 in0.0 mm
10:24 AM 45.1°F7.3°C 19.0°F-7.2°C 35% 4.9 mph WSW7.9 kmh WSW 19.9 mph32.0 kmh 29.45 in997.3 mb 0.00 in0.0 mm 0.00 in0.0 mm 0.00 in0.0 mm
10:23 AM 45.1°F7.3°C 21.0°F-6.1°C 38% 8.7 mph SW14.0 kmh SW 12.3 mph19.8 kmh 29.45 in997.3 mb 0.00 in0.0 mm 0.00 in0.0 mm 0.00 in0.0 mm
10:22 AM 45.1°F7.3°C 19.0°F-7.2°C 35% 5.1 mph WSW8.2 kmh WSW 9.8 mph15.8 kmh 29.45 in997.3 mb 0.00 in0.0 mm 0.00 in0.0 mm 0.00 in0.0 mm
10:21 AM 45.1°F7.3°C 19.0°F-7.2°C 35% 4.0 mph SSW6.4 kmh SSW 12.3 mph19.8 kmh 29.45 in997.3 mb 0.00 in0.0 mm 0.00 in0.0 mm 0.00 in0.0 mm
10:20 AM 45.3°F7.4°C 19.2°F-7.1°C 35% 7.2 mph WSW11.6 kmh WSW 12.3 mph19.8 kmh 29.44 in997.0 mb 0.00 in0.0 mm 0.00 in0.0 mm 0.00 in0.0 mm
10:19 AM 45.5°F7.5°C 19.4°F-7.0°C 35% 6.0 mph SW9.7 kmh SW 12.3 mph19.8 kmh 29.46 in997.6 mb 0.00 in0.0 mm 0.00 in0.0 mm 0.00 in0.0 mm
10:18 AM 45.5°F7.5°C 19.4°F-7.0°C 35% 12.1 mph SW19.5 kmh SW 15.0 mph24.1 kmh 29.47 in998.0 mb 0.00 in0.0 mm 0.00 in0.0 mm 0.00 in0.0 mm
10:17 AM 45.7°F7.6°C 19.6°F-6.9°C 35% 10.7 mph SW17.2 kmh SW 15.0 mph24.1 kmh 29.46 in997.6 mb 0.00 in0.0 mm 0.00 in0.0 mm 0.00 in0.0 mm
10:16 AM 45.7°F7.6°C 19.6°F-6.9°C 35% 3.4 mph WSW5.5 kmh WSW 9.8 mph15.8 kmh 29.46 in997.6 mb 0.00 in0.0 mm 0.00 in0.0 mm 0.00 in0.0 mm
10:15 AM 45.9°F7.7°C 19.8°F-6.8°C 35% 4.9 mph SW7.9 kmh SW 7.4 mph11.9 kmh 29.46 in997.6 mb 0.00 in0.0 mm 0.00 in0.0 mm 0.00 in0.0 mm
10:14 AM 46.0°F7.8°C 19.9°F-6.7°C 35% 1.3 mph SW2.1 kmh SW 15.0 mph24.1 kmh 29.46 in997.6 mb 0.00 in0.0 mm 0.00 in0.0 mm 0.00 in0.0 mm
10:13 AM 46.2°F7.9°C 20.1°F-6.6°C 35% 12.1 mph SW19.5 kmh SW 15.0 mph24.1 kmh 29.48 in998.3 mb 0.00 in0.0 mm 0.00 in0.0 mm 0.00 in0.0 mm
10:11 AM 46.4°F8.0°C 20.3°F-6.5°C 35% 11.9 mph SW19.2 kmh SW 15.0 mph24.1 kmh 29.47 in998.0 mb 0.00 in0.0 mm 0.00 in0.0 mm 0.00 in0.0 mm
10:10 AM 46.6°F8.1°C 20.3°F-6.5°C 35% 12.8 mph WSW20.6 kmh WSW 15.0 mph24.1 kmh 29.48 in998.3 mb 0.00 in0.0 mm 0.00 in0.0 mm 0.00 in0.0 mm
10:09 AM 46.6°F8.1°C 21.0°F-6.1°C 36% 3.4 mph S5.5 kmh S 12.3 mph19.8 kmh 29.48 in998.3 mb 0.00 in0.0 mm 0.00 in0.0 mm 0.00 in0.0 mm
10:08 AM 46.8°F8.2°C 20.5°F-6.4°C 35% 4.0 mph SW6.4 kmh SW 15.0 mph24.1 kmh 29.48 in998.3 mb 0.00 in0.0 mm 0.00 in0.0 mm 0.00 in0.0 mm
10:07 AM 46.8°F8.2°C 20.5°F-6.4°C 35% 9.2 mph W14.8 kmh W 15.0 mph24.1 kmh 29.48 in998.3 mb 0.00 in0.0 mm 0.00 in0.0 mm 0.00 in0.0 mm
10:06 AM 46.9°F8.3°C 20.7°F-6.3°C 35% 3.6 mph WSW5.8 kmh WSW 15.0 mph24.1 kmh 29.47 in998.0 mb 0.00 in0.0 mm 0.00 in0.0 mm 0.00 in0.0 mm
10:05 AM 46.9°F8.3°C 20.7°F-6.3°C 35% 9.6 mph SSW15.4 kmh SSW 12.3 mph19.8 kmh 29.47 in998.0 mb 0.00 in0.0 mm 0.00 in0.0 mm 0.00 in0.0 mm
10:04 AM 47.1°F8.4°C 20.8°F-6.2°C 35% 6.0 mph S9.7 kmh S 15.0 mph24.1 kmh 29.47 in998.0 mb 0.00 in0.0 mm 0.00 in0.0 mm 0.00 in0.0 mm
10:03 AM 47.3°F8.5°C 21.0°F-6.1°C 35% 9.8 mph WSW15.8 kmh WSW 15.0 mph24.1 kmh 29.49 in998.6 mb 0.00 in0.0 mm 0.00 in0.0 mm 0.00 in0.0 mm
10:02 AM 47.5°F8.6°C 21.2°F-6.0°C 35% 9.8 mph SSW15.8 kmh SSW 12.3 mph19.8 kmh 29.48 in998.3 mb 0.00 in0.0 mm 0.00 in0.0 mm 0.00 in0.0 mm
10:01 AM 47.7°F8.7°C 21.4°F-5.9°C 35% 2.5 mph WSW4.0 kmh WSW 9.8 mph15.8 kmh 29.48 in998.3 mb 0.00 in0.0 mm 0.00 in0.0 mm 0.00 in0.0 mm
10:00 AM 47.8°F8.8°C 21.6°F-5.8°C 35% 8.3 mph SW13.4 kmh SW 9.8 mph15.8 kmh 29.49 in998.6 mb 0.00 in0.0 mm 0.00 in0.0 mm 0.00 in0.0 mm
09:59 AM 47.8°F8.8°C 21.6°F-5.8°C 35% 5.8 mph WNW9.3 kmh WNW 9.8 mph15.8 kmh 29.48 in998.3 mb 0.00 in0.0 mm 0.00 in0.0 mm 0.00 in0.0 mm
09:58 AM 48.0°F8.9°C 21.7°F-5.7°C 35% 9.6 mph SW15.4 kmh SW 15.0 mph24.1 kmh 29.49 in998.6 mb 0.00 in0.0 mm 0.00 in0.0 mm 0.00 in0.0 mm
09:56 AM 48.4°F9.1°C 21.4°F-5.9°C 34% 12.3 mph SW19.8 kmh SW 15.0 mph24.1 kmh 29.49 in998.6 mb 0.00 in0.0 mm 0.00 in0.0 mm 0.00 in0.0 mm
09:55 AM 48.6°F9.2°C 22.1°F-5.5°C 35% 7.2 mph SSW11.6 kmh SSW 15.0 mph24.1 kmh 29.49 in998.6 mb 0.00 in0.0 mm 0.00 in0.0 mm 0.00 in0.0 mm
09:54 AM 48.6°F9.2°C 22.1°F-5.5°C 35% 2.7 mph SSW4.3 kmh SSW 12.3 mph19.8 kmh 29.49 in998.6 mb 0.00 in0.0 mm 0.00 in0.0 mm 0.00 in0.0 mm
09:53 AM 48.7°F9.3°C 21.6°F-5.8°C 34% 8.3 mph S13.4 kmh S 12.3 mph19.8 kmh 29.49 in998.6 mb 0.00 in0.0 mm 0.00 in0.0 mm 0.00 in0.0 mm
09:52 AM 48.9°F9.4°C 21.7°F-5.7°C 34% 5.1 mph SE8.2 kmh SE 7.4 mph11.9 kmh 29.49 in998.6 mb 0.00 in0.0 mm 0.00 in0.0 mm 0.00 in0.0 mm
09:51 AM 49.1°F9.5°C 23.9°F-4.5°C 37% 6.5 mph SW10.5 kmh SW 9.8 mph15.8 kmh 29.51 in999.3 mb 0.00 in0.0 mm 0.00 in0.0 mm 0.00 in0.0 mm
09:50 AM 48.9°F9.4°C 23.2°F-4.9°C 36% 7.2 mph WSW11.6 kmh WSW 9.8 mph15.8 kmh 29.49 in998.6 mb 0.00 in0.0 mm 0.00 in0.0 mm 0.00 in0.0 mm
09:49 AM 48.9°F9.4°C 23.2°F-4.9°C 36% Calm Calm 4.9 mph7.9 kmh 29.50 in999.0 mb 0.00 in0.0 mm 0.00 in0.0 mm 0.00 in0.0 mm
09:48 AM 48.9°F9.4°C 23.2°F-4.9°C 36% 2.5 mph WSW4.0 kmh WSW 9.8 mph15.8 kmh 29.50 in999.0 mb 0.00 in0.0 mm 0.00 in0.0 mm 0.00 in0.0 mm
09:47 AM 49.1°F9.5°C 23.4°F-4.8°C 36% 7.2 mph WSW11.6 kmh WSW 9.8 mph15.8 kmh 29.50 in999.0 mb 0.00 in0.0 mm 0.00 in0.0 mm 0.00 in0.0 mm
09:46 AM 49.1°F9.5°C 22.6°F-5.2°C 35% 4.3 mph SW6.9 kmh SW 7.4 mph11.9 kmh 29.51 in999.3 mb 0.00 in0.0 mm 0.00 in0.0 mm 0.00 in0.0 mm
09:45 AM 49.1°F9.5°C 23.4°F-4.8°C 36% Calm Calm 12.3 mph19.8 kmh 29.51 in999.3 mb 0.00 in0.0 mm 0.00 in0.0 mm 0.00 in0.0 mm
09:44 AM 49.1°F9.5°C 23.4°F-4.8°C 36% 1.1 mph WSW1.8 kmh WSW 7.4 mph11.9 kmh 29.51 in999.3 mb 0.00 in0.0 mm 0.00 in0.0 mm 0.00 in0.0 mm
09:43 AM 49.1°F9.5°C 23.9°F-4.5°C 37% 1.3 mph W2.1 kmh W 7.4 mph11.9 kmh 29.51 in999.3 mb 0.00 in0.0 mm 0.00 in0.0 mm 0.00 in0.0 mm
09:41 AM 49.1°F9.5°C 22.6°F-5.2°C 35% 6.0 mph SW9.7 kmh SW 7.4 mph11.9 kmh 29.51 in999.3 mb 0.00 in0.0 mm 0.00 in0.0 mm 0.00 in0.0 mm
09:40 AM 49.1°F9.5°C 23.4°F-4.8°C 36% 0.4 mph SW0.6 kmh SW 4.9 mph7.9 kmh 29.53 in1000.0 mb 0.00 in0.0 mm 0.00 in0.0 mm 0.00 in0.0 mm
09:39 AM 49.1°F9.5°C 23.9°F-4.5°C 37% 1.8 mph SSW2.9 kmh SSW 7.4 mph11.9 kmh 29.52 in999.7 mb 0.00 in0.0 mm 0.00 in0.0 mm 0.00 in0.0 mm
09:38 AM 48.9°F9.4°C 23.2°F-4.9°C 36% 3.6 mph WSW5.8 kmh WSW 9.8 mph15.8 kmh 29.52 in999.7 mb 0.00 in0.0 mm 0.00 in0.0 mm 0.00 in0.0 mm
09:37 AM 48.9°F9.4°C 23.7°F-4.6°C 37% 6.7 mph SW10.8 kmh SW 9.8 mph15.8 kmh 29.52 in999.7 mb 0.00 in0.0 mm 0.00 in0.0 mm 0.00 in0.0 mm
09:36 AM 48.9°F9.4°C 23.2°F-4.9°C 36% 4.0 mph WSW6.4 kmh WSW 7.4 mph11.9 kmh 29.52 in999.7 mb 0.00 in0.0 mm 0.00 in0.0 mm 0.00 in0.0 mm
09:35 AM 48.9°F9.4°C 23.2°F-4.9°C 36% 5.8 mph WSW9.3 kmh WSW 7.4 mph11.9 kmh 29.52 in999.7 mb 0.00 in0.0 mm 0.00 in0.0 mm 0.00 in0.0 mm
09:34 AM 48.7°F9.3°C 22.3°F-5.4°C 35% 3.6 mph WSW5.8 kmh WSW 7.4 mph11.9 kmh 29.54 in1000.3 mb 0.00 in0.0 mm 0.00 in0.0 mm 0.00 in0.0 mm
09:33 AM 48.7°F9.3°C 22.3°F-5.4°C 35% 3.6 mph S5.8 kmh S 4.9 mph7.9 kmh 29.54 in1000.3 mb 0.00 in0.0 mm 0.00 in0.0 mm 0.00 in0.0 mm
09:32 AM 48.7°F9.3°C 23.0°F-5.0°C 36% 0.4 mph SW0.6 kmh SW 2.5 mph4.0 kmh 29.54 in1000.3 mb 0.00 in0.0 mm 0.00 in0.0 mm 0.00 in0.0 mm
09:31 AM 48.7°F9.3°C 23.5°F-4.7°C 37% 1.1 mph WSW1.8 kmh WSW 4.9 mph7.9 kmh 29.54 in1000.3 mb 0.00 in0.0 mm 0.00 in0.0 mm 0.00 in0.0 mm
09:30 AM 48.7°F9.3°C 22.3°F-5.4°C 35% 2.9 mph WNW4.7 kmh WNW 4.9 mph7.9 kmh 29.55 in1000.7 mb 0.00 in0.0 mm 0.00 in0.0 mm 0.00 in0.0 mm
09:29 AM 48.7°F9.3°C 21.6°F-5.8°C 34% 1.3 mph SW2.1 kmh SW 7.4 mph11.9 kmh 29.55 in1000.7 mb 0.00 in0.0 mm 0.00 in0.0 mm 0.00 in0.0 mm
09:28 AM 48.7°F9.3°C 22.3°F-5.4°C 35% Calm Calm 4.9 mph7.9 kmh 29.55 in1000.7 mb 0.00 in0.0 mm 0.00 in0.0 mm 0.00 in0.0 mm
09:26 AM 48.7°F9.3°C 23.0°F-5.0°C 36% 0.4 mph SW0.6 kmh SW 4.9 mph7.9 kmh 29.55 in1000.7 mb 0.00 in0.0 mm 0.00 in0.0 mm 0.00 in0.0 mm
09:25 AM 48.7°F9.3°C 22.3°F-5.4°C 35% 2.0 mph WSW3.2 kmh WSW 4.9 mph7.9 kmh 29.54 in1000.3 mb 0.00 in0.0 mm 0.00 in0.0 mm 0.00 in0.0 mm
09:24 AM 48.7°F9.3°C 23.0°F-5.0°C 36% Calm Calm 4.9 mph7.9 kmh 29.54 in1000.3 mb 0.00 in0.0 mm 0.00 in0.0 mm 0.00 in0.0 mm
09:23 AM 48.7°F9.3°C 23.0°F-5.0°C 36% 0.9 mph SW1.4 kmh SW 2.5 mph4.0 kmh 29.56 in1001.0 mb 0.00 in0.0 mm 0.00 in0.0 mm 0.00 in0.0 mm
09:22 AM 48.6°F9.2°C 22.8°F-5.1°C 36% 0.2 mph WSW0.3 kmh WSW 2.5 mph4.0 kmh 29.56 in1001.0 mb 0.00 in0.0 mm 0.00 in0.0 mm 0.00 in0.0 mm
09:21 AM 48.6°F9.2°C 22.8°F-5.1°C 36% 1.8 mph SSW2.9 kmh SSW 7.4 mph11.9 kmh 29.57 in1001.4 mb 0.00 in0.0 mm 0.00 in0.0 mm 0.00 in0.0 mm
09:20 AM 48.6°F9.2°C 23.5°F-4.7°C 37% 1.3 mph SW2.1 kmh SW 7.4 mph11.9 kmh 29.57 in1001.4 mb 0.00 in0.0 mm 0.00 in0.0 mm 0.00 in0.0 mm
09:19 AM 48.7°F9.3°C 23.0°F-5.0°C 36% 7.4 mph SW11.9 kmh SW 7.4 mph11.9 kmh 29.57 in1001.4 mb 0.00 in0.0 mm 0.00 in0.0 mm 0.00 in0.0 mm
09:18 AM 48.6°F9.2°C 22.8°F-5.1°C 36% 1.3 mph SW2.1 kmh SW 7.4 mph11.9 kmh 29.56 in1001.0 mb 0.00 in0.0 mm 0.00 in0.0 mm 0.00 in0.0 mm
09:17 AM 48.6°F9.2°C 22.8°F-5.1°C 36% 3.4 mph SW5.5 kmh SW 4.9 mph7.9 kmh 29.56 in1001.0 mb 0.00 in0.0 mm 0.00 in0.0 mm 0.00 in0.0 mm
09:16 AM 48.6°F9.2°C 22.8°F-5.1°C 36% 2.0 mph W3.2 kmh W 4.9 mph7.9 kmh 29.56 in1001.0 mb 0.00 in0.0 mm 0.00 in0.0 mm 0.00 in0.0 mm
09:15 AM 48.4°F9.1°C 22.6°F-5.2°C 36% 2.7 mph SW4.3 kmh SW 4.9 mph7.9 kmh 29.58 in1001.7 mb 0.00 in0.0 mm 0.00 in0.0 mm 0.00 in0.0 mm
09:14 AM 48.4°F9.1°C 22.6°F-5.2°C 36% 2.9 mph WSW4.7 kmh WSW 4.9 mph7.9 kmh 29.57 in1001.4 mb 0.00 in0.0 mm 0.00 in0.0 mm 0.00 in0.0 mm
09:13 AM 48.4°F9.1°C 23.4°F-4.8°C 37% 4.0 mph NNW6.4 kmh NNW 4.9 mph7.9 kmh 29.57 in1001.4 mb 0.00 in0.0 mm 0.00 in0.0 mm 0.00 in0.0 mm
09:11 AM 48.4°F9.1°C 23.4°F-4.8°C 37% 0.9 mph WSW1.4 kmh WSW 7.4 mph11.9 kmh 29.59 in1002.0 mb 0.00 in0.0 mm 0.00 in0.0 mm 0.00 in0.0 mm
09:10 AM 48.4°F9.1°C 23.4°F-4.8°C 37% 0.9 mph SW1.4 kmh SW 4.9 mph7.9 kmh 29.60 in1002.4 mb 0.00 in0.0 mm 0.00 in0.0 mm 0.00 in0.0 mm
09:09 AM 48.4°F9.1°C 23.9°F-4.5°C 38% 2.9 mph NNW4.7 kmh NNW 7.4 mph11.9 kmh 29.58 in1001.7 mb 0.00 in0.0 mm 0.00 in0.0 mm 0.00 in0.0 mm
09:08 AM 48.4°F9.1°C 23.9°F-4.5°C 38% 5.6 mph WNW9.0 kmh WNW 7.4 mph11.9 kmh 29.59 in1002.0 mb 0.00 in0.0 mm 0.00 in0.0 mm 0.00 in0.0 mm
09:07 AM 48.4°F9.1°C 23.9°F-4.5°C 38% 2.9 mph WSW4.7 kmh WSW 4.9 mph7.9 kmh 29.59 in1002.0 mb 0.00 in0.0 mm 0.00 in0.0 mm 0.00 in0.0 mm
09:06 AM 48.6°F9.2°C 24.1°F-4.4°C 38% 1.8 mph WSW2.9 kmh WSW 7.4 mph11.9 kmh 29.60 in1002.4 mb 0.00 in0.0 mm 0.00 in0.0 mm 0.00 in0.0 mm
09:05 AM 48.6°F9.2°C 23.5°F-4.7°C 37% 2.9 mph WSW4.7 kmh WSW 9.8 mph15.8 kmh 29.60 in1002.4 mb 0.00 in0.0 mm 0.00 in0.0 mm 0.00 in0.0 mm
09:04 AM 48.6°F9.2°C 23.5°F-4.7°C 37% 4.0 mph S6.4 kmh S 7.4 mph11.9 kmh 29.60 in1002.4 mb 0.00 in0.0 mm 0.00 in0.0 mm 0.00 in0.0 mm
09:03 AM 48.4°F9.1°C 23.4°F-4.8°C 37% 6.7 mph SW10.8 kmh SW 9.8 mph15.8 kmh 29.60 in1002.4 mb 0.00 in0.0 mm 0.00 in0.0 mm 0.00 in0.0 mm
09:02 AM 48.4°F9.1°C 22.6°F-5.2°C 36% 4.3 mph SW6.9 kmh SW 4.9 mph7.9 kmh 29.60 in1002.4 mb 0.00 in0.0 mm 0.00 in0.0 mm 0.00 in0.0 mm
09:01 AM 48.2°F9.0°C 22.5°F-5.3°C 36% 1.8 mph NW2.9 kmh NW 7.4 mph11.9 kmh 29.61 in1002.7 mb 0.00 in0.0 mm 0.00 in0.0 mm 0.00 in0.0 mm
09:00 AM 48.2°F9.0°C 22.5°F-5.3°C 36% 3.6 mph WSW5.8 kmh WSW 4.9 mph7.9 kmh 29.61 in1002.7 mb 0.00 in0.0 mm 0.00 in0.0 mm 0.00 in0.0 mm
08:59 AM 48.0°F8.9°C 22.3°F-5.4°C 36% 2.5 mph WSW4.0 kmh WSW 4.9 mph7.9 kmh 29.61 in1002.7 mb 0.00 in0.0 mm 0.00 in0.0 mm 0.00 in0.0 mm
08:58 AM 47.8°F8.8°C 22.1°F-5.5°C 36% 4.0 mph WSW6.4 kmh WSW 7.4 mph11.9 kmh 29.61 in1002.7 mb 0.00 in0.0 mm 0.00 in0.0 mm 0.00 in0.0 mm
08:57 AM 47.7°F8.7°C 22.1°F-5.5°C 36% 0.9 mph WSW1.4 kmh WSW 7.4 mph11.9 kmh 29.60 in1002.4 mb 0.00 in0.0 mm 0.00 in0.0 mm 0.00 in0.0 mm
08:55 AM 47.7°F8.7°C 22.6°F-5.2°C 37% 1.1 mph NW1.8 kmh NW 7.4 mph11.9 kmh 29.61 in1002.7 mb 0.00 in0.0 mm 0.00 in0.0 mm 0.00 in0.0 mm
08:54 AM 47.5°F8.6°C 22.5°F-5.3°C 37% 1.8 mph SW2.9 kmh SW 7.4 mph11.9 kmh 29.60 in1002.4 mb 0.00 in0.0 mm 0.00 in0.0 mm 0.00 in0.0 mm
08:53 AM 47.5°F8.6°C 23.2°F-4.9°C 38% 1.8 mph NW2.9 kmh NW 4.9 mph7.9 kmh 29.60 in1002.4 mb 0.00 in0.0 mm 0.00 in0.0 mm 0.00 in0.0 mm
08:52 AM 47.3°F8.5°C 23.0°F-5.0°C 38% 2.5 mph WSW4.0 kmh WSW 4.9 mph7.9 kmh 29.62 in1003.0 mb 0.00 in0.0 mm 0.00 in0.0 mm 0.00 in0.0 mm
08:51 AM 47.3°F8.5°C 23.0°F-5.0°C 38% 3.4 mph WSW5.5 kmh WSW 9.8 mph15.8 kmh 29.62 in1003.0 mb 0.00 in0.0 mm 0.00 in0.0 mm 0.00 in0.0 mm
08:50 AM 47.3°F8.5°C 21.7°F-5.7°C 36% 7.6 mph WSW12.2 kmh WSW 9.8 mph15.8 kmh 29.62 in1003.0 mb 0.00 in0.0 mm 0.00 in0.0 mm 0.00 in0.0 mm
08:49 AM 47.1°F8.4°C 22.1°F-5.5°C 37% 2.7 mph WSW4.3 kmh WSW 4.9 mph7.9 kmh 29.62 in1003.0 mb 0.00 in0.0 mm 0.00 in0.0 mm 0.00 in0.0 mm
08:48 AM 46.9°F8.3°C 22.1°F-5.5°C 37% 1.1 mph NW1.8 kmh NW 4.9 mph7.9 kmh 29.63 in1003.4 mb 0.00 in0.0 mm 0.00 in0.0 mm 0.00 in0.0 mm
08:47 AM 46.8°F8.2°C 22.5°F-5.3°C 38% 2.7 mph WSW4.3 kmh WSW 4.9 mph7.9 kmh 29.62 in1003.0 mb 0.00 in0.0 mm 0.00 in0.0 mm 0.00 in0.0 mm
08:46 AM 46.6°F8.1°C 22.3°F-5.4°C 38% 0.9 mph W1.4 kmh W 9.8 mph15.8 kmh 29.62 in1003.0 mb 0.00 in0.0 mm 0.00 in0.0 mm 0.00 in0.0 mm
08:45 AM 46.4°F8.0°C 22.1°F-5.5°C 38% 2.0 mph SW3.2 kmh SW 7.4 mph11.9 kmh 29.63 in1003.4 mb 0.00 in0.0 mm 0.00 in0.0 mm 0.00 in0.0 mm
08:44 AM 46.2°F7.9°C 21.4°F-5.9°C 37% 3.4 mph SW5.5 kmh SW 4.9 mph7.9 kmh 29.62 in1003.0 mb 0.00 in0.0 mm 0.00 in0.0 mm 0.00 in0.0 mm
08:43 AM 45.9°F7.7°C 21.0°F-6.1°C 37% 1.8 mph WSW2.9 kmh WSW 4.9 mph7.9 kmh 29.62 in1003.0 mb 0.00 in0.0 mm 0.00 in0.0 mm 0.00 in0.0 mm
08:42 AM 45.7°F7.6°C 21.6°F-5.8°C 38% 2.5 mph WSW4.0 kmh WSW 4.9 mph7.9 kmh 29.62 in1003.0 mb 0.00 in0.0 mm 0.00 in0.0 mm 0.00 in0.0 mm
08:40 AM 45.3°F7.4°C 21.2°F-6.0°C 38% 0.2 mph SSW0.3 kmh SSW 2.5 mph4.0 kmh 29.64 in1003.7 mb 0.00 in0.0 mm 0.00 in0.0 mm 0.00 in0.0 mm
08:39 AM 45.1°F7.3°C 21.0°F-6.1°C 38% 1.1 mph SW1.8 kmh SW 2.5 mph4.0 kmh 29.64 in1003.7 mb 0.00 in0.0 mm 0.00 in0.0 mm 0.00 in0.0 mm
08:38 AM 44.8°F7.1°C 20.7°F-6.3°C 38% 1.1 mph SW1.8 kmh SW 4.9 mph7.9 kmh 29.64 in1003.7 mb 0.00 in0.0 mm 0.00 in0.0 mm 0.00 in0.0 mm
08:37 AM 44.6°F7.0°C 20.5°F-6.4°C 38% 1.3 mph WSW2.1 kmh WSW 7.4 mph11.9 kmh 29.65 in1004.1 mb 0.00 in0.0 mm 0.00 in0.0 mm 0.00 in0.0 mm
08:36 AM 44.4°F6.9°C 20.5°F-6.4°C 38% 1.1 mph WSW1.8 kmh WSW 4.9 mph7.9 kmh 29.65 in1004.1 mb 0.00 in0.0 mm 0.00 in0.0 mm 0.00 in0.0 mm
08:35 AM 44.1°F6.7°C 21.2°F-6.0°C 40% 1.3 mph SW2.1 kmh SW 2.5 mph4.0 kmh 29.65 in1004.1 mb 0.00 in0.0 mm 0.00 in0.0 mm 0.00 in0.0 mm
08:34 AM 43.9°F6.6°C 18.7°F-7.4°C 36% 0.2 mph WSW0.3 kmh WSW 4.9 mph7.9 kmh 29.65 in1004.1 mb 0.00 in0.0 mm 0.00 in0.0 mm 0.00 in0.0 mm
08:33 AM 43.9°F6.6°C 18.7°F-7.4°C 36% 1.8 mph SW2.9 kmh SW 7.4 mph11.9 kmh 29.65 in1004.1 mb 0.00 in0.0 mm 0.00 in0.0 mm 0.00 in0.0 mm
08:32 AM 43.7°F6.5°C 20.3°F-6.5°C 39% 2.5 mph WSW4.0 kmh WSW 7.4 mph11.9 kmh 29.65 in1004.1 mb 0.00 in0.0 mm 0.00 in0.0 mm 0.00 in0.0 mm
08:31 AM 43.5°F6.4°C 20.1°F-6.6°C 39% 4.3 mph WSW6.9 kmh WSW 7.4 mph11.9 kmh 29.65 in1004.1 mb 0.00 in0.0 mm 0.00 in0.0 mm 0.00 in0.0 mm
08:30 AM 43.3°F6.3°C 18.9°F-7.3°C 37% 3.4 mph SW5.5 kmh SW 4.9 mph7.9 kmh 29.65 in1004.1 mb 0.00 in0.0 mm 0.00 in0.0 mm 0.00 in0.0 mm
08:29 AM 43.2°F6.2°C 18.7°F-7.4°C 37% 1.1 mph WSW1.8 kmh WSW 4.9 mph7.9 kmh 29.64 in1003.7 mb 0.00 in0.0 mm 0.00 in0.0 mm 0.00 in0.0 mm
08:28 AM 43.0°F6.1°C 18.5°F-7.5°C 37% 0.4 mph SW0.6 kmh SW 4.9 mph7.9 kmh 29.65 in1004.1 mb 0.00 in0.0 mm 0.00 in0.0 mm 0.00 in0.0 mm
08:27 AM 42.8°F6.0°C 18.9°F-7.3°C 38% 1.3 mph W2.1 kmh W 2.5 mph4.0 kmh 29.65 in1004.1 mb 0.00 in0.0 mm 0.00 in0.0 mm 0.00 in0.0 mm
08:25 AM 42.6°F5.9°C 18.9°F-7.3°C 38% 0.4 mph SW0.6 kmh SW 7.4 mph11.9 kmh 29.65 in1004.1 mb 0.00 in0.0 mm 0.00 in0.0 mm 0.00 in0.0 mm
08:24 AM 42.4°F5.8°C 18.7°F-7.4°C 38% 5.1 mph W8.2 kmh W 7.4 mph11.9 kmh 29.65 in1004.1 mb 0.00 in0.0 mm 0.00 in0.0 mm 0.00 in0.0 mm
08:23 AM 42.4°F5.8°C 19.8°F-6.8°C 40% 0.2 mph WSW0.3 kmh WSW 2.5 mph4.0 kmh 29.65 in1004.1 mb 0.00 in0.0 mm 0.00 in0.0 mm 0.00 in0.0 mm
08:22 AM 42.4°F5.8°C 19.8°F-6.8°C 40% 0.2 mph WSW0.3 kmh WSW 2.5 mph4.0 kmh 29.66 in1004.4 mb 0.00 in0.0 mm 0.00 in0.0 mm 0.00 in0.0 mm
08:21 AM 42.4°F5.8°C 19.8°F-6.8°C 40% 0.2 mph WSW0.3 kmh WSW 2.5 mph4.0 kmh 29.66 in1004.4 mb 0.00 in0.0 mm 0.00 in0.0 mm 0.00 in0.0 mm
08:20 AM 42.4°F5.8°C 19.8°F-6.8°C 40% 0.2 mph WSW0.3 kmh WSW 4.9 mph7.9 kmh 29.66 in1004.4 mb 0.00 in0.0 mm 0.00 in0.0 mm 0.00 in0.0 mm
08:19 AM 42.3°F5.7°C 20.3°F-6.5°C 41% 2.7 mph W4.3 kmh W 4.9 mph7.9 kmh 29.66 in1004.4 mb 0.00 in0.0 mm 0.00 in0.0 mm 0.00 in0.0 mm
08:18 AM 42.1°F5.6°C 21.2°F-6.0°C 43% 1.3 mph WSW2.1 kmh WSW 2.5 mph4.0 kmh 29.65 in1004.1 mb 0.00 in0.0 mm 0.00 in0.0 mm 0.00 in0.0 mm
08:17 AM 41.7°F5.4°C 20.8°F-6.2°C 43% 0.9 mph WSW1.4 kmh WSW 2.5 mph4.0 kmh 29.67 in1004.7 mb 0.00 in0.0 mm 0.00 in0.0 mm 0.00 in0.0 mm
08:16 AM 41.5°F5.3°C 21.2°F-6.0°C 44% 2.0 mph WSW3.2 kmh WSW 2.5 mph4.0 kmh 29.65 in1004.1 mb 0.00 in0.0 mm 0.00 in0.0 mm 0.00 in0.0 mm
08:15 AM 41.4°F5.2°C 21.6°F-5.8°C 45% 1.1 mph SW1.8 kmh SW 2.5 mph4.0 kmh 29.67 in1004.7 mb 0.00 in0.0 mm 0.00 in0.0 mm 0.00 in0.0 mm
08:14 AM 41.2°F5.1°C 21.9°F-5.6°C 46% Calm Calm 7.4 mph11.9 kmh 29.68 in1005.1 mb 0.00 in0.0 mm 0.00 in0.0 mm 0.00 in0.0 mm
08:13 AM 41.0°F5.0°C 21.7°F-5.7°C 46% 4.9 mph WSW7.9 kmh WSW 7.4 mph11.9 kmh 29.67 in1004.7 mb 0.00 in0.0 mm 0.00 in0.0 mm 0.00 in0.0 mm
08:12 AM 40.8°F4.9°C 21.6°F-5.8°C 46% 0.9 mph SW1.4 kmh SW 4.9 mph7.9 kmh 29.67 in1004.7 mb 0.00 in0.0 mm 0.00 in0.0 mm 0.00 in0.0 mm
08:10 AM 40.6°F4.8°C 21.9°F-5.6°C 47% 2.9 mph WSW4.7 kmh WSW 7.4 mph11.9 kmh 29.68 in1005.1 mb 0.00 in0.0 mm 0.00 in0.0 mm 0.00 in0.0 mm
08:09 AM 40.5°F4.7°C 21.7°F-5.7°C 47% 4.9 mph SW7.9 kmh SW 7.4 mph11.9 kmh 29.67 in1004.7 mb 0.00 in0.0 mm 0.00 in0.0 mm 0.00 in0.0 mm
08:08 AM 40.3°F4.6°C 21.2°F-6.0°C 46% 5.1 mph WSW8.2 kmh WSW 9.8 mph15.8 kmh 29.68 in1005.1 mb 0.00 in0.0 mm 0.00 in0.0 mm 0.00 in0.0 mm
08:07 AM 40.1°F4.5°C 21.6°F-5.8°C 47% 8.7 mph WSW14.0 kmh WSW 9.8 mph15.8 kmh 29.67 in1004.7 mb 0.00 in0.0 mm 0.00 in0.0 mm 0.00 in0.0 mm
08:06 AM 39.9°F4.4°C 21.7°F-5.7°C 48% 6.0 mph SW9.7 kmh SW 9.8 mph15.8 kmh 29.67 in1004.7 mb 0.00 in0.0 mm 0.00 in0.0 mm 0.00 in0.0 mm
08:05 AM 39.7°F4.3°C 21.7°F-5.7°C 48% 5.8 mph WSW9.3 kmh WSW 9.8 mph15.8 kmh 29.67 in1004.7 mb 0.00 in0.0 mm 0.00 in0.0 mm 0.00 in0.0 mm
08:04 AM 39.6°F4.2°C 21.6°F-5.8°C 48% 4.9 mph WSW7.9 kmh WSW 7.4 mph11.9 kmh 29.69 in1005.4 mb 0.00 in0.0 mm 0.00 in0.0 mm 0.00 in0.0 mm
08:03 AM 39.4°F4.1°C 21.4°F-5.9°C 48% 1.8 mph SW2.9 kmh SW 9.8 mph15.8 kmh 29.69 in1005.4 mb 0.00 in0.0 mm 0.00 in0.0 mm 0.00 in0.0 mm
08:02 AM 39.2°F4.0°C 21.2°F-6.0°C 48% 8.1 mph SW13.0 kmh SW 9.8 mph15.8 kmh 29.67 in1004.7 mb 0.00 in0.0 mm 0.00 in0.0 mm 0.00 in0.0 mm
08:01 AM 38.8°F3.8°C 20.8°F-6.2°C 48% 5.1 mph WSW8.2 kmh WSW 7.4 mph11.9 kmh 29.67 in1004.7 mb 0.00 in0.0 mm 0.00 in0.0 mm 0.00 in0.0 mm
08:00 AM 38.7°F3.7°C 20.7°F-6.3°C 48% 4.5 mph SW7.2 kmh SW 7.4 mph11.9 kmh 29.68 in1005.1 mb 0.00 in0.0 mm 0.00 in0.0 mm 0.00 in0.0 mm
07:59 AM 38.3°F3.5°C 20.3°F-6.5°C 48% 1.8 mph WSW2.9 kmh WSW 4.9 mph7.9 kmh 29.67 in1004.7 mb 0.00 in0.0 mm 0.00 in0.0 mm 0.00 in0.0 mm
07:58 AM 37.9°F3.3°C 20.5°F-6.4°C 49% Calm Calm 9.8 mph15.8 kmh 29.68 in1005.1 mb 0.00 in0.0 mm 0.00 in0.0 mm 0.00 in0.0 mm
07:57 AM 37.8°F3.2°C 20.8°F-6.2°C 50% 7.6 mph WSW12.2 kmh WSW 9.8 mph15.8 kmh 29.68 in1005.1 mb 0.00 in0.0 mm 0.00 in0.0 mm 0.00 in0.0 mm
07:55 AM 37.4°F3.0°C 20.5°F-6.4°C 50% 3.4 mph SW5.5 kmh SW 9.8 mph15.8 kmh 29.67 in1004.7 mb 0.00 in0.0 mm 0.00 in0.0 mm 0.00 in0.0 mm
07:54 AM 37.2°F2.9°C 20.8°F-6.2°C 51% 4.3 mph SW6.9 kmh SW 9.8 mph15.8 kmh 29.67 in1004.7 mb 0.00 in0.0 mm 0.00 in0.0 mm 0.00 in0.0 mm
07:53 AM 37.0°F2.8°C 21.0°F-6.1°C 52% 2.5 mph SW4.0 kmh SW 4.9 mph7.9 kmh 29.67 in1004.7 mb 0.00 in0.0 mm 0.00 in0.0 mm 0.00 in0.0 mm
07:52 AM 36.7°F2.6°C 21.2°F-6.0°C 53% 4.5 mph SW7.2 kmh SW 7.4 mph11.9 kmh 29.67 in1004.7 mb 0.00 in0.0 mm 0.00 in0.0 mm 0.00 in0.0 mm
07:51 AM 36.5°F2.5°C 21.4°F-5.9°C 54% 2.9 mph SW4.7 kmh SW 4.9 mph7.9 kmh 29.67 in1004.7 mb 0.00 in0.0 mm 0.00 in0.0 mm 0.00 in0.0 mm
07:50 AM 36.3°F2.4°C 21.2°F-6.0°C 54% 0.4 mph SW0.6 kmh SW 4.9 mph7.9 kmh 29.67 in1004.7 mb 0.00 in0.0 mm 0.00 in0.0 mm 0.00 in0.0 mm
07:49 AM 36.1°F2.3°C 21.0°F-6.1°C 54% 2.7 mph SW4.3 kmh SW 7.4 mph11.9 kmh 29.67 in1004.7 mb 0.00 in0.0 mm 0.00 in0.0 mm 0.00 in0.0 mm
07:48 AM 36.0°F2.2°C 21.4°F-5.9°C 55% 4.0 mph SW6.4 kmh SW 7.4 mph11.9 kmh 29.69 in1005.4 mb 0.00 in0.0 mm 0.00 in0.0 mm 0.00 in0.0 mm
07:47 AM 35.8°F2.1°C 21.6°F-5.8°C 56% 5.6 mph WSW9.0 kmh WSW 7.4 mph11.9 kmh 29.69 in1005.4 mb 0.00 in0.0 mm 0.00 in0.0 mm 0.00 in0.0 mm
07:46 AM 35.6°F2.0°C 21.9°F-5.6°C 57% 5.1 mph WSW8.2 kmh WSW 7.4 mph11.9 kmh 29.69 in1005.4 mb 0.00 in0.0 mm 0.00 in0.0 mm 0.00 in0.0 mm
07:45 AM 35.6°F2.0°C 21.9°F-5.6°C 57% 4.0 mph SW6.4 kmh SW 9.8 mph15.8 kmh 29.69 in1005.4 mb 0.00 in0.0 mm 0.00 in0.0 mm 0.00 in0.0 mm
07:44 AM 35.4°F1.9°C 21.7°F-5.7°C 57% 4.0 mph SW6.4 kmh SW 7.4 mph11.9 kmh 29.69 in1005.4 mb 0.00 in0.0 mm 0.00 in0.0 mm 0.00 in0.0 mm
07:43 AM 35.2°F1.8°C 21.9°F-5.6°C 58% 2.0 mph SW3.2 kmh SW 7.4 mph11.9 kmh 29.68 in1005.1 mb 0.00 in0.0 mm 0.00 in0.0 mm 0.00 in0.0 mm
07:42 AM 35.2°F1.8°C 21.9°F-5.6°C 58% 3.6 mph SW5.8 kmh SW 9.8 mph15.8 kmh 29.69 in1005.4 mb 0.00 in0.0 mm 0.00 in0.0 mm 0.00 in0.0 mm
07:40 AM 35.1°F1.7°C 21.7°F-5.7°C 58% 2.9 mph WSW4.7 kmh WSW 4.9 mph7.9 kmh 29.68 in1005.1 mb 0.00 in0.0 mm 0.00 in0.0 mm 0.00 in0.0 mm
07:39 AM 35.1°F1.7°C 21.7°F-5.7°C 58% 2.9 mph SW4.7 kmh SW 4.9 mph7.9 kmh 29.69 in1005.4 mb 0.00 in0.0 mm 0.00 in0.0 mm 0.00 in0.0 mm
07:38 AM 34.9°F1.6°C 21.9°F-5.6°C 59% 2.0 mph SW3.2 kmh SW 7.4 mph11.9 kmh 29.68 in1005.1 mb 0.00 in0.0 mm 0.00 in0.0 mm 0.00 in0.0 mm
07:37 AM 34.9°F1.6°C 20.3°F-6.5°C 55% 4.3 mph SW6.9 kmh SW 7.4 mph11.9 kmh 29.68 in1005.1 mb 0.00 in0.0 mm 0.00 in0.0 mm 0.00 in0.0 mm
07:36 AM 34.9°F1.6°C 20.3°F-6.5°C 55% 5.6 mph WSW9.0 kmh WSW 7.4 mph11.9 kmh 29.69 in1005.4 mb 0.00 in0.0 mm 0.00 in0.0 mm 0.00 in0.0 mm
07:35 AM 34.9°F1.6°C 20.8°F-6.2°C 56% 4.9 mph S7.9 kmh S 9.8 mph15.8 kmh 29.69 in1005.4 mb 0.00 in0.0 mm 0.00 in0.0 mm 0.00 in0.0 mm
07:34 AM 34.9°F1.6°C 20.8°F-6.2°C 56% 8.1 mph SW13.0 kmh SW 9.8 mph15.8 kmh 29.68 in1005.1 mb 0.00 in0.0 mm 0.00 in0.0 mm 0.00 in0.0 mm
07:33 AM 34.7°F1.5°C 21.0°F-6.1°C 57% 4.3 mph WSW6.9 kmh WSW 7.4 mph11.9 kmh 29.69 in1005.4 mb 0.00 in0.0 mm 0.00 in0.0 mm 0.00 in0.0 mm
07:32 AM 34.7°F1.5°C 21.4°F-5.9°C 58% 5.1 mph WSW8.2 kmh WSW 7.4 mph11.9 kmh 29.68 in1005.1 mb 0.00 in0.0 mm 0.00 in0.0 mm 0.00 in0.0 mm
07:31 AM 34.7°F1.5°C 21.4°F-5.9°C 58% 3.6 mph WSW5.8 kmh WSW 7.4 mph11.9 kmh 29.68 in1005.1 mb 0.00 in0.0 mm 0.00 in0.0 mm 0.00 in0.0 mm
07:30 AM 34.9°F1.6°C 21.6°F-5.8°C 58% 1.1 mph WSW1.8 kmh WSW 2.5 mph4.0 kmh 29.68 in1005.1 mb 0.00 in0.0 mm 0.00 in0.0 mm 0.00 in0.0 mm
07:29 AM 34.9°F1.6°C 21.9°F-5.6°C 59% Calm Calm -- 29.68 in1005.1 mb 0.00 in0.0 mm 0.00 in0.0 mm 0.00 in0.0 mm
07:28 AM 34.9°F1.6°C 21.2°F-6.0°C 57% Calm Calm -- 29.68 in1005.1 mb 0.00 in0.0 mm 0.00 in0.0 mm 0.00 in0.0 mm
07:27 AM 34.9°F1.6°C 21.2°F-6.0°C 57% Calm Calm -- 29.66 in1004.4 mb 0.00 in0.0 mm 0.00 in0.0 mm 0.00 in0.0 mm
07:25 AM 34.9°F1.6°C 21.2°F-6.0°C 57% Calm Calm -- 29.66 in1004.4 mb 0.00 in0.0 mm 0.00 in0.0 mm 0.00 in0.0 mm
07:24 AM 34.9°F1.6°C 21.2°F-6.0°C 57% Calm Calm -- 29.68 in1005.1 mb 0.00 in0.0 mm 0.00 in0.0 mm 0.00 in0.0 mm
07:23 AM 34.9°F1.6°C 21.2°F-6.0°C 57% Calm Calm -- 29.68 in1005.1 mb 0.00 in0.0 mm 0.00 in0.0 mm 0.00 in0.0 mm
07:22 AM 34.9°F1.6°C 20.8°F-6.2°C 56% Calm Calm -- 29.67 in1004.7 mb 0.00 in0.0 mm 0.00 in0.0 mm 0.00 in0.0 mm
07:21 AM 34.9°F1.6°C 20.8°F-6.2°C 56% Calm Calm 2.5 mph4.0 kmh 29.68 in1005.1 mb 0.00 in0.0 mm 0.00 in0.0 mm 0.00 in0.0 mm
07:20 AM 34.9°F1.6°C 20.8°F-6.2°C 56% Calm Calm 2.5 mph4.0 kmh 29.68 in1005.1 mb 0.00 in0.0 mm 0.00 in0.0 mm 0.00 in0.0 mm
07:19 AM 34.9°F1.6°C 20.8°F-6.2°C 56% 1.1 mph WNW1.8 kmh WNW 2.5 mph4.0 kmh 29.68 in1005.1 mb 0.00 in0.0 mm 0.00 in0.0 mm 0.00 in0.0 mm
07:18 AM 34.9°F1.6°C 20.8°F-6.2°C 56% 1.3 mph NW2.1 kmh NW 2.5 mph4.0 kmh 29.67 in1004.7 mb 0.00 in0.0 mm 0.00 in0.0 mm 0.00 in0.0 mm
07:17 AM 34.9°F1.6°C 20.8°F-6.2°C 56% 1.3 mph NW2.1 kmh NW 2.5 mph4.0 kmh 29.68 in1005.1 mb 0.00 in0.0 mm 0.00 in0.0 mm 0.00 in0.0 mm
07:16 AM 34.9°F1.6°C 20.8°F-6.2°C 56% 1.8 mph W2.9 kmh W 2.5 mph4.0 kmh 29.67 in1004.7 mb 0.00 in0.0 mm 0.00 in0.0 mm 0.00 in0.0 mm
07:15 AM 34.9°F1.6°C 20.8°F-6.2°C 56% 0.9 mph WSW1.4 kmh WSW 4.9 mph7.9 kmh 29.68 in1005.1 mb 0.00 in0.0 mm 0.00 in0.0 mm 0.00 in0.0 mm
07:14 AM 34.9°F1.6°C 20.8°F-6.2°C 56% 0.4 mph SW0.6 kmh SW 7.4 mph11.9 kmh 29.68 in1005.1 mb 0.00 in0.0 mm 0.00 in0.0 mm 0.00 in0.0 mm
07:13 AM 34.9°F1.6°C 20.8°F-6.2°C 56% 2.0 mph SW3.2 kmh SW 4.9 mph7.9 kmh 29.68 in1005.1 mb 0.00 in0.0 mm 0.00 in0.0 mm 0.00 in0.0 mm
07:12 AM 34.7°F1.5°C 20.7°F-6.3°C 56% 2.9 mph WSW4.7 kmh WSW 7.4 mph11.9 kmh 29.68 in1005.1 mb 0.00 in0.0 mm 0.00 in0.0 mm 0.00 in0.0 mm
07:10 AM 34.7°F1.5°C 20.7°F-6.3°C 56% 6.5 mph WSW10.5 kmh WSW 7.4 mph11.9 kmh 29.68 in1005.1 mb 0.00 in0.0 mm 0.00 in0.0 mm 0.00 in0.0 mm
07:09 AM 34.7°F1.5°C 20.1°F-6.6°C 55% 4.0 mph WSW6.4 kmh WSW 9.8 mph15.8 kmh 29.68 in1005.1 mb 0.00 in0.0 mm 0.00 in0.0 mm 0.00 in0.0 mm
07:08 AM 34.5°F1.4°C 19.9°F-6.7°C 55% 5.6 mph SW9.0 kmh SW 7.4 mph11.9 kmh 29.70 in1005.8 mb 0.00 in0.0 mm 0.00 in0.0 mm 0.00 in0.0 mm
07:07 AM 34.5°F1.4°C 20.5°F-6.4°C 56% 4.9 mph WSW7.9 kmh WSW 12.3 mph19.8 kmh 29.68 in1005.1 mb 0.00 in0.0 mm 0.00 in0.0 mm 0.00 in0.0 mm
07:06 AM 34.3°F1.3°C 20.3°F-6.5°C 56% 7.6 mph WSW12.2 kmh WSW 9.8 mph15.8 kmh 29.68 in1005.1 mb 0.00 in0.0 mm 0.00 in0.0 mm 0.00 in0.0 mm
07:05 AM 34.3°F1.3°C 20.7°F-6.3°C 57% 5.6 mph WSW9.0 kmh WSW 9.8 mph15.8 kmh 29.68 in1005.1 mb 0.00 in0.0 mm 0.00 in0.0 mm 0.00 in0.0 mm
07:04 AM 34.2°F1.2°C 20.5°F-6.4°C 57% 4.9 mph WSW7.9 kmh WSW 7.4 mph11.9 kmh 29.70 in1005.8 mb 0.00 in0.0 mm 0.00 in0.0 mm 0.00 in0.0 mm
07:03 AM 34.0°F1.1°C 20.3°F-6.5°C 57% 5.1 mph SW8.2 kmh SW 12.3 mph19.8 kmh 29.68 in1005.1 mb 0.00 in0.0 mm 0.00 in0.0 mm 0.00 in0.0 mm
07:02 AM 33.8°F1.0°C 20.1°F-6.6°C 57% 5.6 mph WSW9.0 kmh WSW 7.4 mph11.9 kmh 29.68 in1005.1 mb 0.00 in0.0 mm 0.00 in0.0 mm 0.00 in0.0 mm
07:01 AM 33.8°F1.0°C 20.1°F-6.6°C 57% 7.2 mph SW11.6 kmh SW 7.4 mph11.9 kmh 29.68 in1005.1 mb 0.00 in0.0 mm 0.00 in0.0 mm 0.00 in0.0 mm
07:00 AM 33.6°F0.9°C 19.9°F-6.7°C 57% 4.3 mph SW6.9 kmh SW 9.8 mph15.8 kmh 29.70 in1005.8 mb 0.00 in0.0 mm 0.00 in0.0 mm 0.00 in0.0 mm
06:59 AM 33.4°F0.8°C 20.3°F-6.5°C 58% 8.7 mph WSW14.0 kmh WSW 9.8 mph15.8 kmh 29.68 in1005.1 mb 0.00 in0.0 mm 0.00 in0.0 mm 0.00 in0.0 mm
06:58 AM 33.3°F0.7°C 20.1°F-6.6°C 58% 6.0 mph WSW9.7 kmh WSW 9.8 mph15.8 kmh 29.68 in1005.1 mb 0.00 in0.0 mm 0.00 in0.0 mm 0.00 in0.0 mm
06:57 AM 33.1°F0.6°C 19.9°F-6.7°C 58% 5.6 mph WSW9.0 kmh WSW 12.3 mph19.8 kmh 29.68 in1005.1 mb 0.00 in0.0 mm 0.00 in0.0 mm 0.00 in0.0 mm
06:55 AM 32.9°F0.5°C 19.8°F-6.8°C 58% 8.1 mph WSW13.0 kmh WSW 12.3 mph19.8 kmh 29.70 in1005.8 mb 0.00 in0.0 mm 0.00 in0.0 mm 0.00 in0.0 mm
06:54 AM 32.7°F0.4°C 19.6°F-6.9°C 58% 7.2 mph WSW11.6 kmh WSW 9.8 mph15.8 kmh 29.68 in1005.1 mb 0.00 in0.0 mm 0.00 in0.0 mm 0.00 in0.0 mm
06:53 AM 32.4°F0.2°C 19.6°F-6.9°C 59% 5.8 mph WSW9.3 kmh WSW 9.8 mph15.8 kmh 29.70 in1005.8 mb 0.00 in0.0 mm 0.00 in0.0 mm 0.00 in0.0 mm
06:52 AM 32.2°F0.1°C 19.4°F-7.0°C 59% 6.7 mph WSW10.8 kmh WSW 9.8 mph15.8 kmh 29.68 in1005.1 mb 0.00 in0.0 mm 0.00 in0.0 mm 0.00 in0.0 mm
06:51 AM 32.0°F0.0°C 19.2°F-7.1°C 59% 7.2 mph W11.6 kmh W 9.8 mph15.8 kmh 29.68 in1005.1 mb 0.00 in0.0 mm 0.00 in0.0 mm 0.00 in0.0 mm
06:50 AM 32.0°F0.0°C 19.8°F-6.8°C 60% 5.8 mph SW9.3 kmh SW 9.8 mph15.8 kmh 29.68 in1005.1 mb 0.00 in0.0 mm 0.00 in0.0 mm 0.00 in0.0 mm
06:49 AM 31.8°F-0.1°C 19.6°F-6.9°C 60% 6.0 mph WSW9.7 kmh WSW 9.8 mph15.8 kmh 29.68 in1005.1 mb 0.00 in0.0 mm 0.00 in0.0 mm 0.00 in0.0 mm
06:48 AM 31.6°F-0.2°C 19.8°F-6.8°C 61% 6.7 mph WSW10.8 kmh WSW 9.8 mph15.8 kmh 29.68 in1005.1 mb 0.00 in0.0 mm 0.00 in0.0 mm 0.00 in0.0 mm
06:47 AM 31.5°F-0.3°C 19.6°F-6.9°C 61% 6.0 mph WSW9.7 kmh WSW 7.4 mph11.9 kmh 29.68 in1005.1 mb 0.00 in0.0 mm 0.00 in0.0 mm 0.00 in0.0 mm
06:46 AM 31.3°F-0.4°C 19.8°F-6.8°C 62% 6.7 mph WSW10.8 kmh WSW 9.8 mph15.8 kmh 29.68 in1005.1 mb 0.00 in0.0 mm 0.00 in0.0 mm 0.00 in0.0 mm
06:45 AM 31.1°F-0.5°C 19.9°F-6.7°C 63% 4.9 mph SW7.9 kmh SW 9.8 mph15.8 kmh 29.68 in1005.1 mb 0.00 in0.0 mm 0.00 in0.0 mm 0.00 in0.0 mm
06:44 AM 30.9°F-0.6°C 20.1°F-6.6°C 64% 5.1 mph SW8.2 kmh SW 7.4 mph11.9 kmh 29.68 in1005.1 mb 0.00 in0.0 mm 0.00 in0.0 mm 0.00 in0.0 mm
06:43 AM 30.7°F-0.7°C 19.9°F-6.7°C 64% 6.5 mph WSW10.5 kmh WSW 12.3 mph19.8 kmh 29.66 in1004.4 mb 0.00 in0.0 mm 0.00 in0.0 mm 0.00 in0.0 mm
06:42 AM 30.6°F-0.8°C 20.1°F-6.6°C 65% 4.3 mph WSW6.9 kmh WSW 12.3 mph19.8 kmh 29.68 in1005.1 mb 0.00 in0.0 mm 0.00 in0.0 mm 0.00 in0.0 mm
06:40 AM 30.4°F-0.9°C 19.9°F-6.7°C 65% 6.5 mph S10.5 kmh S 7.4 mph11.9 kmh 29.66 in1004.4 mb 0.00 in0.0 mm 0.00 in0.0 mm 0.00 in0.0 mm
06:39 AM 30.2°F-1.0°C 20.5°F-6.4°C 67% 4.3 mph SW6.9 kmh SW 9.8 mph15.8 kmh 29.68 in1005.1 mb 0.00 in0.0 mm 0.00 in0.0 mm 0.00 in0.0 mm
06:38 AM 30.2°F-1.0°C 20.8°F-6.2°C 68% 7.2 mph WSW11.6 kmh WSW 9.8 mph15.8 kmh 29.66 in1004.4 mb 0.00 in0.0 mm 0.00 in0.0 mm 0.00 in0.0 mm
06:37 AM 30.0°F-1.1°C 21.0°F-6.1°C 69% 6.0 mph WSW9.7 kmh WSW 7.4 mph11.9 kmh 29.65 in1004.1 mb 0.00 in0.0 mm 0.00 in0.0 mm 0.00 in0.0 mm
06:36 AM 29.8°F-1.2°C 21.2°F-6.0°C 70% 1.3 mph SW2.1 kmh SW 4.9 mph7.9 kmh 29.66 in1004.4 mb 0.00 in0.0 mm 0.00 in0.0 mm 0.00 in0.0 mm
06:35 AM 29.8°F-1.2°C 21.2°F-6.0°C 70% 2.9 mph WSW4.7 kmh WSW 4.9 mph7.9 kmh 29.66 in1004.4 mb 0.00 in0.0 mm 0.00 in0.0 mm 0.00 in0.0 mm
06:34 AM 29.7°F-1.3°C 21.4°F-5.9°C 71% Calm Calm 2.5 mph4.0 kmh 29.65 in1004.1 mb 0.00 in0.0 mm 0.00 in0.0 mm 0.00 in0.0 mm
06:33 AM 29.7°F-1.3°C 21.7°F-5.7°C 72% Calm Calm 2.5 mph4.0 kmh 29.64 in1003.7 mb 0.00 in0.0 mm 0.00 in0.0 mm 0.00 in0.0 mm
06:32 AM 29.7°F-1.3°C 21.7°F-5.7°C 72% 1.1 mph WSW1.8 kmh WSW 2.5 mph4.0 kmh 29.64 in1003.7 mb 0.00 in0.0 mm 0.00 in0.0 mm 0.00 in0.0 mm
06:31 AM 29.7°F-1.3°C 22.1°F-5.5°C 73% Calm Calm 4.9 mph7.9 kmh 29.64 in1003.7 mb 0.00 in0.0 mm 0.00 in0.0 mm 0.00 in0.0 mm
06:30 AM 29.7°F-1.3°C 22.5°F-5.3°C 74% 1.1 mph WSW1.8 kmh WSW 4.9 mph7.9 kmh 29.64 in1003.7 mb 0.00 in0.0 mm 0.00 in0.0 mm 0.00 in0.0 mm
06:29 AM 29.7°F-1.3°C 22.5°F-5.3°C 74% 0.2 mph W0.3 kmh W 4.9 mph7.9 kmh 29.65 in1004.1 mb 0.00 in0.0 mm 0.00 in0.0 mm 0.00 in0.0 mm
06:28 AM 29.7°F-1.3°C 22.5°F-5.3°C 74% Calm Calm -- 29.64 in1003.7 mb 0.00 in0.0 mm 0.00 in0.0 mm 0.00 in0.0 mm
06:27 AM 29.8°F-1.2°C 22.6°F-5.2°C 74% Calm Calm -- 29.64 in1003.7 mb 0.00 in0.0 mm 0.00 in0.0 mm 0.00 in0.0 mm
06:25 AM 30.0°F-1.1°C 22.5°F-5.3°C 73% Calm Calm -- 29.64 in1003.7 mb 0.00 in0.0 mm 0.00 in0.0 mm 0.00 in0.0 mm
06:24 AM 30.0°F-1.1°C 22.5°F-5.3°C 73% Calm Calm -- 29.64 in1003.7 mb 0.00 in0.0 mm 0.00 in0.0 mm 0.00 in0.0 mm
06:23 AM 30.2°F-1.0°C 22.6°F-5.2°C 73% Calm Calm -- 29.64 in1003.7 mb 0.00 in0.0 mm 0.00 in0.0 mm 0.00 in0.0 mm
06:22 AM 30.2°F-1.0°C 22.6°F-5.2°C 73% Calm Calm -- 29.63 in1003.4 mb 0.00 in0.0 mm 0.00 in0.0 mm 0.00 in0.0 mm
06:21 AM 30.4°F-0.9°C 22.8°F-5.1°C 73% Calm Calm -- 29.63 in1003.4 mb 0.00 in0.0 mm 0.00 in0.0 mm 0.00 in0.0 mm
06:20 AM 30.4°F-0.9°C 22.5°F-5.3°C 72% Calm Calm -- 29.63 in1003.4 mb 0.00 in0.0 mm 0.00 in0.0 mm 0.00 in0.0 mm
06:19 AM 30.4°F-0.9°C 22.5°F-5.3°C 72% Calm Calm -- 29.62 in1003.0 mb 0.00 in0.0 mm 0.00 in0.0 mm 0.00 in0.0 mm
06:18 AM 30.4°F-0.9°C 22.5°F-5.3°C 72% Calm Calm -- 29.62 in1003.0 mb 0.00 in0.0 mm 0.00 in0.0 mm 0.00 in0.0 mm
06:17 AM 30.4°F-0.9°C 22.5°F-5.3°C 72% Calm Calm -- 29.63 in1003.4 mb 0.00 in0.0 mm 0.00 in0.0 mm 0.00 in0.0 mm
06:16 AM 30.4°F-0.9°C 22.5°F-5.3°C 72% Calm Calm -- 29.62 in1003.0 mb 0.00 in0.0 mm 0.00 in0.0 mm 0.00 in0.0 mm
06:15 AM 30.4°F-0.9°C 22.5°F-5.3°C 72% Calm Calm -- 29.62 in1003.0 mb 0.00 in0.0 mm 0.00 in0.0 mm 0.00 in0.0 mm
06:14 AM 30.4°F-0.9°C 22.5°F-5.3°C 72% Calm Calm -- 29.62 in1003.0 mb 0.00 in0.0 mm 0.00 in0.0 mm 0.00 in0.0 mm
06:13 AM 30.6°F-0.8°C 22.3°F-5.4°C 71% Calm Calm -- 29.62 in1003.0 mb 0.00 in0.0 mm 0.00 in0.0 mm 0.00 in0.0 mm
06:12 AM 30.6°F-0.8°C 22.3°F-5.4°C 71% Calm Calm -- 29.62 in1003.0 mb 0.00 in0.0 mm 0.00 in0.0 mm 0.00 in0.0 mm
06:11 AM 30.7°F-0.7°C 22.5°F-5.3°C 71% Calm Calm -- 29.62 in1003.0 mb 0.00 in0.0 mm 0.00 in0.0 mm 0.00 in0.0 mm
06:09 AM 30.7°F-0.7°C 22.1°F-5.5°C 70% Calm Calm -- 29.63 in1003.4 mb 0.00 in0.0 mm 0.00 in0.0 mm 0.00 in0.0 mm
06:08 AM 30.9°F-0.6°C 22.3°F-5.4°C 70% Calm Calm -- 29.63 in1003.4 mb 0.00 in0.0 mm 0.00 in0.0 mm 0.00 in0.0 mm
06:07 AM 30.9°F-0.6°C 22.3°F-5.4°C 70% Calm Calm -- 29.63 in1003.4 mb 0.00 in0.0 mm 0.00 in0.0 mm 0.00 in0.0 mm
06:06 AM 31.1°F-0.5°C 22.1°F-5.5°C 69% Calm Calm -- 29.63 in1003.4 mb 0.00 in0.0 mm 0.00 in0.0 mm 0.00 in0.0 mm
06:05 AM 31.1°F-0.5°C 22.1°F-5.5°C 69% Calm Calm -- 29.63 in1003.4 mb 0.00 in0.0 mm 0.00 in0.0 mm 0.00 in0.0 mm
06:04 AM 31.3°F-0.4°C 22.3°F-5.4°C 69% Calm Calm -- 29.63 in1003.4 mb 0.00 in0.0 mm 0.00 in0.0 mm 0.00 in0.0 mm
06:03 AM 31.3°F-0.4°C 21.9°F-5.6°C 68% Calm Calm -- 29.61 in1002.7 mb 0.00 in0.0 mm 0.00 in0.0 mm 0.00 in0.0 mm
06:02 AM 31.5°F-0.3°C 21.7°F-5.7°C 67% Calm Calm -- 29.61 in1002.7 mb 0.00 in0.0 mm 0.00 in0.0 mm 0.00 in0.0 mm
06:01 AM 31.5°F-0.3°C 21.7°F-5.7°C 67% Calm Calm -- 29.61 in1002.7 mb 0.00 in0.0 mm 0.00 in0.0 mm 0.00 in0.0 mm
06:00 AM 31.6°F-0.2°C 21.9°F-5.6°C 67% Calm Calm -- 29.61 in1002.7 mb 0.00 in0.0 mm 0.00 in0.0 mm 0.00 in0.0 mm
05:59 AM 31.6°F-0.2°C 21.9°F-5.6°C 67% Calm Calm -- 29.61 in1002.7 mb 0.00 in0.0 mm 0.00 in0.0 mm 0.00 in0.0 mm
05:58 AM 31.6°F-0.2°C 22.3°F-5.4°C 68% Calm Calm -- 29.61 in1002.7 mb 0.00 in0.0 mm 0.00 in0.0 mm 0.00 in0.0 mm
05:57 AM 31.6°F-0.2°C 21.9°F-5.6°C 67% Calm Calm -- 29.61 in1002.7 mb 0.00 in0.0 mm 0.00 in0.0 mm 0.00 in0.0 mm
05:56 AM 31.8°F-0.1°C 22.1°F-5.5°C 67% Calm Calm -- 29.63 in1003.4 mb 0.00 in0.0 mm 0.00 in0.0 mm 0.00 in0.0 mm
05:54 AM 31.8°F-0.1°C 22.8°F-5.1°C 69% Calm Calm -- 29.61 in1002.7 mb 0.00 in0.0 mm 0.00 in0.0 mm 0.00 in0.0 mm
05:53 AM 31.8°F-0.1°C 22.8°F-5.1°C 69% Calm Calm -- 29.63 in1003.4 mb 0.00 in0.0 mm 0.00 in0.0 mm 0.00 in0.0 mm
05:52 AM 32.0°F0.0°C 23.0°F-5.0°C 69% Calm Calm -- 29.63 in1003.4 mb 0.00 in0.0 mm 0.00 in0.0 mm 0.00 in0.0 mm
05:51 AM 32.0°F0.0°C 23.0°F-5.0°C 69% Calm Calm 2.5 mph4.0 kmh 29.63 in1003.4 mb 0.00 in0.0 mm 0.00 in0.0 mm 0.00 in0.0 mm
05:50 AM 32.0°F0.0°C 22.6°F-5.2°C 68% 2.0 mph NNE3.2 kmh NNE 2.5 mph4.0 kmh 29.61 in1002.7 mb 0.00 in0.0 mm 0.00 in0.0 mm 0.00 in0.0 mm
05:49 AM 32.2°F0.1°C 23.2°F-4.9°C 69% Calm Calm 2.5 mph4.0 kmh 29.61 in1002.7 mb 0.00 in0.0 mm 0.00 in0.0 mm 0.00 in0.0 mm
05:48 AM 32.2°F0.1°C 23.2°F-4.9°C 69% 0.2 mph NNE0.3 kmh NNE 2.5 mph4.0 kmh 29.61 in1002.7 mb 0.00 in0.0 mm 0.00 in0.0 mm 0.00 in0.0 mm
05:47 AM 32.4°F0.2°C 23.0°F-5.0°C 68% Calm Calm 2.5 mph4.0 kmh 29.61 in1002.7 mb 0.00 in0.0 mm 0.00 in0.0 mm 0.00 in0.0 mm
05:46 AM 32.5°F0.3°C 23.2°F-4.9°C 68% Calm Calm 2.5 mph4.0 kmh 29.61 in1002.7 mb 0.00 in0.0 mm 0.00 in0.0 mm 0.00 in0.0 mm
05:45 AM 32.7°F0.4°C 23.0°F-5.0°C 67% 1.1 mph E1.8 kmh E 2.5 mph4.0 kmh 29.61 in1002.7 mb 0.00 in0.0 mm 0.00 in0.0 mm 0.00 in0.0 mm
05:44 AM 32.9°F0.5°C 22.8°F-5.1°C 66% 2.0 mph E3.2 kmh E 2.5 mph4.0 kmh 29.61 in1002.7 mb 0.00 in0.0 mm 0.00 in0.0 mm 0.00 in0.0 mm
05:43 AM 33.1°F0.6°C 23.0°F-5.0°C 66% 1.1 mph SE1.8 kmh SE 2.5 mph4.0 kmh 29.61 in1002.7 mb 0.00 in0.0 mm 0.00 in0.0 mm 0.00 in0.0 mm
05:42 AM 33.3°F0.7°C 23.2°F-4.9°C 66% Calm Calm -- 29.61 in1002.7 mb 0.00 in0.0 mm 0.00 in0.0 mm 0.00 in0.0 mm
05:41 AM 33.3°F0.7°C 22.5°F-5.3°C 64% Calm Calm -- 29.62 in1003.0 mb 0.00 in0.0 mm 0.00 in0.0 mm 0.00 in0.0 mm
05:39 AM 33.4°F0.8°C 22.6°F-5.2°C 64% Calm Calm 2.5 mph4.0 kmh 29.62 in1003.0 mb 0.00 in0.0 mm 0.00 in0.0 mm 0.00 in0.0 mm
05:38 AM 33.4°F0.8°C 22.6°F-5.2°C 64% 0.4 mph WNW0.6 kmh WNW 2.5 mph4.0 kmh 29.60 in1002.4 mb 0.00 in0.0 mm 0.00 in0.0 mm 0.00 in0.0 mm
05:37 AM 33.6°F0.9°C 22.5°F-5.3°C 63% 0.2 mph WNW0.3 kmh WNW 2.5 mph4.0 kmh 29.62 in1003.0 mb 0.00 in0.0 mm 0.00 in0.0 mm 0.00 in0.0 mm
05:36 AM 33.6°F0.9°C 22.5°F-5.3°C 63% Calm Calm -- 29.62 in1003.0 mb 0.00 in0.0 mm 0.00 in0.0 mm 0.00 in0.0 mm
05:35 AM 33.6°F0.9°C 22.5°F-5.3°C 63% Calm Calm -- 29.62 in1003.0 mb 0.00 in0.0 mm 0.00 in0.0 mm 0.00 in0.0 mm
05:34 AM 33.8°F1.0°C 22.1°F-5.5°C 62% Calm Calm -- 29.62 in1003.0 mb 0.00 in0.0 mm 0.00 in0.0 mm 0.00 in0.0 mm
05:33 AM 33.8°F1.0°C 22.1°F-5.5°C 62% Calm Calm 2.5 mph4.0 kmh 29.62 in1003.0 mb 0.00 in0.0 mm 0.00 in0.0 mm 0.00 in0.0 mm
05:32 AM 33.8°F1.0°C 22.1°F-5.5°C 62% 2.0 mph WNW3.2 kmh WNW 2.5 mph4.0 kmh 29.62 in1003.0 mb 0.00 in0.0 mm 0.00 in0.0 mm 0.00 in0.0 mm
05:31 AM 33.8°F1.0°C 22.1°F-5.5°C 62% 0.2 mph WNW0.3 kmh WNW 2.5 mph4.0 kmh 29.62 in1003.0 mb 0.00 in0.0 mm 0.00 in0.0 mm 0.00 in0.0 mm
05:30 AM 33.8°F1.0°C 22.1°F-5.5°C 62% Calm Calm 2.5 mph4.0 kmh 29.62 in1003.0 mb 0.00 in0.0 mm 0.00 in0.0 mm 0.00 in0.0 mm
05:29 AM 33.8°F1.0°C 22.1°F-5.5°C 62% 0.9 mph WNW1.4 kmh WNW 2.5 mph4.0 kmh 29.62 in1003.0 mb 0.00 in0.0 mm 0.00 in0.0 mm 0.00 in0.0 mm
05:28 AM 33.8°F1.0°C 22.1°F-5.5°C 62% Calm Calm 2.5 mph4.0 kmh 29.62 in1003.0 mb 0.00 in0.0 mm 0.00 in0.0 mm 0.00 in0.0 mm
05:27 AM 33.8°F1.0°C 22.1°F-5.5°C 62% Calm Calm 2.5 mph4.0 kmh 29.62 in1003.0 mb 0.00 in0.0 mm 0.00 in0.0 mm 0.00 in0.0 mm
05:26 AM 33.8°F1.0°C 22.1°F-5.5°C 62% Calm Calm 2.5 mph4.0 kmh 29.62 in1003.0 mb 0.00 in0.0 mm 0.00 in0.0 mm 0.00 in0.0 mm
05:24 AM 33.8°F1.0°C 21.7°F-5.7°C 61% 0.4 mph W0.6 kmh W 4.9 mph7.9 kmh 29.62 in1003.0 mb 0.00 in0.0 mm 0.00 in0.0 mm 0.00 in0.0 mm
05:23 AM 33.8°F1.0°C 21.7°F-5.7°C 61% 3.4 mph NW5.5 kmh NW 4.9 mph7.9 kmh 29.62 in1003.0 mb 0.00 in0.0 mm 0.00 in0.0 mm 0.00 in0.0 mm
05:22 AM 33.8°F1.0°C 21.7°F-5.7°C 61% 3.6 mph WNW5.8 kmh WNW 4.9 mph7.9 kmh 29.62 in1003.0 mb 0.00 in0.0 mm 0.00 in0.0 mm 0.00 in0.0 mm
05:21 AM 33.6°F0.9°C 21.2°F-6.0°C 60% 2.0 mph NW3.2 kmh NW 2.5 mph4.0 kmh 29.62 in1003.0 mb 0.00 in0.0 mm 0.00 in0.0 mm 0.00 in0.0 mm
05:20 AM 33.6°F0.9°C 21.2°F-6.0°C 60% 0.9 mph WNW1.4 kmh WNW 2.5 mph4.0 kmh 29.62 in1003.0 mb 0.00 in0.0 mm 0.00 in0.0 mm 0.00 in0.0 mm
05:19 AM 33.6°F0.9°C 20.8°F-6.2°C 59% 0.9 mph W1.4 kmh W 2.5 mph4.0 kmh 29.62 in1003.0 mb 0.00 in0.0 mm 0.00 in0.0 mm 0.00 in0.0 mm
05:18 AM 33.4°F0.8°C 20.7°F-6.3°C 59% Calm Calm 4.9 mph7.9 kmh 29.62 in1003.0 mb 0.00 in0.0 mm 0.00 in0.0 mm 0.00 in0.0 mm
05:17 AM 33.4°F0.8°C 20.7°F-6.3°C 59% Calm Calm 4.9 mph7.9 kmh 29.64 in1003.7 mb 0.00 in0.0 mm 0.00 in0.0 mm 0.00 in0.0 mm
05:16 AM 33.3°F0.7°C 20.5°F-6.4°C 59% 2.7 mph WSW4.3 kmh WSW 7.4 mph11.9 kmh 29.64 in1003.7 mb 0.00 in0.0 mm 0.00 in0.0 mm 0.00 in0.0 mm
05:15 AM 33.3°F0.7°C 20.5°F-6.4°C 59% 2.7 mph WSW4.3 kmh WSW 7.4 mph11.9 kmh 29.62 in1003.0 mb 0.00 in0.0 mm 0.00 in0.0 mm 0.00 in0.0 mm
05:14 AM 33.1°F0.6°C 20.7°F-6.3°C 60% 6.7 mph SW10.8 kmh SW 9.8 mph15.8 kmh 29.64 in1003.7 mb 0.00 in0.0 mm 0.00 in0.0 mm 0.00 in0.0 mm
05:13 AM 33.1°F0.6°C 20.7°F-6.3°C 60% 8.1 mph W13.0 kmh W 9.8 mph15.8 kmh 29.64 in1003.7 mb 0.00 in0.0 mm 0.00 in0.0 mm 0.00 in0.0 mm
05:12 AM 32.9°F0.5°C 20.8°F-6.2°C 61% 5.8 mph WSW9.3 kmh WSW 7.4 mph11.9 kmh 29.65 in1004.1 mb 0.00 in0.0 mm 0.00 in0.0 mm 0.00 in0.0 mm
05:11 AM 32.7°F0.4°C 20.8°F-6.2°C 61% 4.5 mph SW7.2 kmh SW 9.8 mph15.8 kmh 29.65 in1004.1 mb 0.00 in0.0 mm 0.00 in0.0 mm 0.00 in0.0 mm
05:09 AM 32.5°F0.3°C 20.7°F-6.3°C 61% 4.3 mph SW6.9 kmh SW 7.4 mph11.9 kmh 29.65 in1004.1 mb 0.00 in0.0 mm 0.00 in0.0 mm 0.00 in0.0 mm
05:08 AM 32.5°F0.3°C 21.0°F-6.1°C 62% 4.9 mph W7.9 kmh W 7.4 mph11.9 kmh 29.65 in1004.1 mb 0.00 in0.0 mm 0.00 in0.0 mm 0.00 in0.0 mm
05:07 AM 32.4°F0.2°C 20.8°F-6.2°C 62% 7.2 mph SW11.6 kmh SW 9.8 mph15.8 kmh 29.65 in1004.1 mb 0.00 in0.0 mm 0.00 in0.0 mm 0.00 in0.0 mm
05:06 AM 32.2°F0.1°C 21.0°F-6.1°C 63% 5.6 mph SW9.0 kmh SW 7.4 mph11.9 kmh 29.63 in1003.4 mb 0.00 in0.0 mm 0.00 in0.0 mm 0.00 in0.0 mm
05:05 AM 32.0°F0.0°C 20.8°F-6.2°C 63% 1.1 mph SW1.8 kmh SW 7.4 mph11.9 kmh 29.65 in1004.1 mb 0.00 in0.0 mm 0.00 in0.0 mm 0.00 in0.0 mm
05:04 AM 32.0°F0.0°C 21.2°F-6.0°C 64% 2.7 mph SW4.3 kmh SW 7.4 mph11.9 kmh 29.65 in1004.1 mb 0.00 in0.0 mm 0.00 in0.0 mm 0.00 in0.0 mm
05:03 AM 32.0°F0.0°C 21.6°F-5.8°C 65% 3.4 mph WSW5.5 kmh WSW 4.9 mph7.9 kmh 29.63 in1003.4 mb 0.00 in0.0 mm 0.00 in0.0 mm 0.00 in0.0 mm
05:02 AM 32.0°F0.0°C 21.6°F-5.8°C 65% 4.0 mph SW6.4 kmh SW 4.9 mph7.9 kmh 29.65 in1004.1 mb 0.00 in0.0 mm 0.00 in0.0 mm 0.00 in0.0 mm
05:01 AM 31.8°F-0.1°C 21.4°F-5.9°C 65% Calm Calm 4.9 mph7.9 kmh 29.63 in1003.4 mb 0.00 in0.0 mm 0.00 in0.0 mm 0.00 in0.0 mm
05:00 AM 31.6°F-0.2°C 21.6°F-5.8°C 66% 0.2 mph WSW0.3 kmh WSW 2.5 mph4.0 kmh 29.65 in1004.1 mb 0.00 in0.0 mm 0.00 in0.0 mm 0.00 in0.0 mm
04:59 AM 31.5°F-0.3°C 21.0°F-6.1°C 65% 0.9 mph NW1.4 kmh NW 7.4 mph11.9 kmh 29.65 in1004.1 mb 0.00 in0.0 mm 0.00 in0.0 mm 0.00 in0.0 mm
04:58 AM 31.5°F-0.3°C 21.4°F-5.9°C 66% 2.5 mph WSW4.0 kmh WSW 7.4 mph11.9 kmh 29.65 in1004.1 mb 0.00 in0.0 mm 0.00 in0.0 mm 0.00 in0.0 mm
04:57 AM 31.5°F-0.3°C 21.7°F-5.7°C 67% 1.1 mph W1.8 kmh W 2.5 mph4.0 kmh 29.65 in1004.1 mb 0.00 in0.0 mm 0.00 in0.0 mm 0.00 in0.0 mm
04:56 AM 31.5°F-0.3°C 21.7°F-5.7°C 67% Calm Calm 2.5 mph4.0 kmh 29.65 in1004.1 mb 0.00 in0.0 mm 0.00 in0.0 mm 0.00 in0.0 mm
04:54 AM 31.3°F-0.4°C 21.6°F-5.8°C 67% 2.0 mph WSW3.2 kmh WSW 2.5 mph4.0 kmh 29.65 in1004.1 mb 0.00 in0.0 mm 0.00 in0.0 mm 0.00 in0.0 mm
04:53 AM 31.3°F-0.4°C 21.6°F-5.8°C 67% 0.9 mph WNW1.4 kmh WNW 2.5 mph4.0 kmh 29.65 in1004.1 mb 0.00 in0.0 mm 0.00 in0.0 mm 0.00 in0.0 mm
04:52 AM 31.3°F-0.4°C 21.6°F-5.8°C 67% Calm Calm -- 29.65 in1004.1 mb 0.00 in0.0 mm 0.00 in0.0 mm 0.00 in0.0 mm
04:51 AM 31.3°F-0.4°C 21.9°F-5.6°C 68% Calm Calm -- 29.65 in1004.1 mb 0.00 in0.0 mm 0.00 in0.0 mm 0.00 in0.0 mm
04:50 AM 31.3°F-0.4°C 21.6°F-5.8°C 67% Calm Calm 2.5 mph4.0 kmh 29.65 in1004.1 mb 0.00 in0.0 mm 0.00 in0.0 mm 0.00 in0.0 mm
04:49 AM 31.3°F-0.4°C 21.9°F-5.6°C 68% Calm Calm -- 29.64 in1003.7 mb 0.00 in0.0 mm 0.00 in0.0 mm 0.00 in0.0 mm
04:48 AM 31.3°F-0.4°C 21.9°F-5.6°C 68% Calm Calm 2.5 mph4.0 kmh 29.65 in1004.1 mb 0.00 in0.0 mm 0.00 in0.0 mm 0.00 in0.0 mm
04:47 AM 31.3°F-0.4°C 21.9°F-5.6°C 68% 0.2 mph WSW0.3 kmh WSW 2.5 mph4.0 kmh 29.65 in1004.1 mb 0.00 in0.0 mm 0.00 in0.0 mm 0.00 in0.0 mm
04:46 AM 31.3°F-0.4°C 22.3°F-5.4°C 69% Calm Calm 2.5 mph4.0 kmh 29.65 in1004.1 mb 0.00 in0.0 mm 0.00 in0.0 mm 0.00 in0.0 mm
04:45 AM 31.3°F-0.4°C 22.3°F-5.4°C 69% 0.9 mph WSW1.4 kmh WSW 2.5 mph4.0 kmh 29.64 in1003.7 mb 0.00 in0.0 mm 0.00 in0.0 mm 0.00 in0.0 mm
04:44 AM 31.3°F-0.4°C 22.6°F-5.2°C 70% 0.2 mph WNW0.3 kmh WNW 2.5 mph4.0 kmh 29.65 in1004.1 mb 0.00 in0.0 mm 0.00 in0.0 mm 0.00 in0.0 mm
04:43 AM 31.3°F-0.4°C 23.0°F-5.0°C 71% 2.5 mph WSW4.0 kmh WSW 2.5 mph4.0 kmh 29.64 in1003.7 mb 0.00 in0.0 mm 0.00 in0.0 mm 0.00 in0.0 mm
04:42 AM 31.3°F-0.4°C 23.0°F-5.0°C 71% 0.2 mph WSW0.3 kmh WSW 4.9 mph7.9 kmh 29.65 in1004.1 mb 0.00 in0.0 mm 0.00 in0.0 mm 0.00 in0.0 mm
04:41 AM 31.3°F-0.4°C 23.0°F-5.0°C 71% 0.9 mph W1.4 kmh W 2.5 mph4.0 kmh 29.65 in1004.1 mb 0.00 in0.0 mm 0.00 in0.0 mm 0.00 in0.0 mm
04:39 AM 31.3°F-0.4°C 23.0°F-5.0°C 71% 1.1 mph SW1.8 kmh SW 7.4 mph11.9 kmh 29.64 in1003.7 mb 0.00 in0.0 mm 0.00 in0.0 mm 0.00 in0.0 mm
04:38 AM 31.5°F-0.3°C 23.2°F-4.9°C 71% 2.7 mph WSW4.3 kmh WSW 7.4 mph11.9 kmh 29.64 in1003.7 mb 0.00 in0.0 mm 0.00 in0.0 mm 0.00 in0.0 mm
04:37 AM 31.5°F-0.3°C 23.2°F-4.9°C 71% Calm Calm -- 29.64 in1003.7 mb 0.00 in0.0 mm 0.00 in0.0 mm 0.00 in0.0 mm
04:36 AM 31.6°F-0.2°C 23.0°F-5.0°C 70% Calm Calm -- 29.65 in1004.1 mb 0.00 in0.0 mm 0.00 in0.0 mm 0.00 in0.0 mm
04:35 AM 31.6°F-0.2°C 23.4°F-4.8°C 71% Calm Calm -- 29.65 in1004.1 mb 0.00 in0.0 mm 0.00 in0.0 mm 0.00 in0.0 mm
04:34 AM 31.6°F-0.2°C 23.4°F-4.8°C 71% Calm Calm -- 29.65 in1004.1 mb 0.00 in0.0 mm 0.00 in0.0 mm 0.00 in0.0 mm
04:33 AM 31.8°F-0.1°C 23.5°F-4.7°C 71% Calm Calm -- 29.64 in1003.7 mb 0.00 in0.0 mm 0.00 in0.0 mm 0.00 in0.0 mm
04:32 AM 31.8°F-0.1°C 23.2°F-4.9°C 70% Calm Calm -- 29.65 in1004.1 mb 0.00 in0.0 mm 0.00 in0.0 mm 0.00 in0.0 mm
04:31 AM 32.0°F0.0°C 23.7°F-4.6°C 71% Calm Calm -- 29.65 in1004.1 mb 0.00 in0.0 mm 0.00 in0.0 mm 0.00 in0.0 mm
04:30 AM 32.0°F0.0°C 23.4°F-4.8°C 70% Calm Calm -- 29.67 in1004.7 mb 0.00 in0.0 mm 0.00 in0.0 mm 0.00 in0.0 mm
04:29 AM 32.0°F0.0°C 23.0°F-5.0°C 69% Calm Calm -- 29.67 in1004.7 mb 0.00 in0.0 mm 0.00 in0.0 mm 0.00 in0.0 mm
04:28 AM 32.2°F0.1°C 23.5°F-4.7°C 70% Calm Calm -- 29.65 in1004.1 mb 0.00 in0.0 mm 0.00 in0.0 mm 0.00 in0.0 mm
04:27 AM 32.2°F0.1°C 23.5°F-4.7°C 70% Calm Calm -- 29.65 in1004.1 mb 0.00 in0.0 mm 0.00 in0.0 mm 0.00 in0.0 mm
04:26 AM 32.4°F0.2°C 23.7°F-4.6°C 70% Calm Calm 2.5 mph4.0 kmh 29.65 in1004.1 mb 0.00 in0.0 mm 0.00 in0.0 mm 0.00 in0.0 mm
04:24 AM 32.5°F0.3°C 23.9°F-4.5°C 70% Calm Calm 2.5 mph4.0 kmh 29.65 in1004.1 mb 0.00 in0.0 mm 0.00 in0.0 mm 0.00 in0.0 mm
04:23 AM 32.5°F0.3°C 23.5°F-4.7°C 69% 0.4 mph WSW0.6 kmh WSW 2.5 mph4.0 kmh 29.66 in1004.4 mb 0.00 in0.0 mm 0.00 in0.0 mm 0.00 in0.0 mm
04:22 AM 32.7°F0.4°C 23.7°F-4.6°C 69% 0.2 mph WSW0.3 kmh WSW 2.5 mph4.0 kmh 29.66 in1004.4 mb 0.00 in0.0 mm 0.00 in0.0 mm 0.00 in0.0 mm
04:21 AM 32.9°F0.5°C 23.9°F-4.5°C 69% Calm Calm -- 29.66 in1004.4 mb 0.00 in0.0 mm 0.00 in0.0 mm 0.00 in0.0 mm
04:20 AM 33.1°F0.6°C 23.7°F-4.6°C 68% Calm Calm -- 29.66 in1004.4 mb 0.00 in0.0 mm 0.00 in0.0 mm 0.00 in0.0 mm
04:19 AM 33.3°F0.7°C 23.9°F-4.5°C 68% Calm Calm -- 29.67 in1004.7 mb 0.00 in0.0 mm 0.00 in0.0 mm 0.00 in0.0 mm
04:18 AM 33.3°F0.7°C 23.5°F-4.7°C 67% Calm Calm -- 29.67 in1004.7 mb 0.00 in0.0 mm 0.00 in0.0 mm 0.00 in0.0 mm
04:17 AM 33.4°F0.8°C 23.7°F-4.6°C 67% Calm Calm -- 29.67 in1004.7 mb 0.00 in0.0 mm 0.00 in0.0 mm 0.00 in0.0 mm
04:16 AM 33.6°F0.9°C 23.5°F-4.7°C 66% Calm Calm -- 29.67 in1004.7 mb 0.00 in0.0 mm 0.00 in0.0 mm 0.00 in0.0 mm
04:15 AM 33.8°F1.0°C 24.1°F-4.4°C 67% Calm Calm -- 29.67 in1004.7 mb 0.00 in0.0 mm 0.00 in0.0 mm 0.00 in0.0 mm
04:14 AM 34.0°F1.1°C 23.9°F-4.5°C 66% Calm Calm -- 29.66 in1004.4 mb 0.00 in0.0 mm 0.00 in0.0 mm 0.00 in0.0 mm
04:13 AM 34.2°F1.2°C 24.1°F-4.4°C 66% Calm Calm -- 29.67 in1004.7 mb 0.00 in0.0 mm 0.00 in0.0 mm 0.00 in0.0 mm
04:12 AM 34.3°F1.3°C 24.1°F-4.4°C 66% Calm Calm 2.5 mph4.0 kmh 29.67 in1004.7 mb 0.00 in0.0 mm 0.00 in0.0 mm 0.00 in0.0 mm
04:11 AM 34.5°F1.4°C 24.3°F-4.3°C 66% 0.4 mph WNW0.6 kmh WNW 2.5 mph4.0 kmh 29.66 in1004.4 mb 0.00 in0.0 mm 0.00 in0.0 mm 0.00 in0.0 mm
04:09 AM 34.5°F1.4°C 24.3°F-4.3°C 66% 1.1 mph W1.8 kmh W 2.5 mph4.0 kmh 29.66 in1004.4 mb 0.00 in0.0 mm 0.00 in0.0 mm 0.00 in0.0 mm
04:08 AM 34.7°F1.5°C 24.1°F-4.4°C 65% Calm Calm -- 29.66 in1004.4 mb 0.00 in0.0 mm 0.00 in0.0 mm 0.00 in0.0 mm
04:07 AM 34.9°F1.6°C 24.3°F-4.3°C 65% Calm Calm -- 29.66 in1004.4 mb 0.00 in0.0 mm 0.00 in0.0 mm 0.00 in0.0 mm
04:06 AM 35.1°F1.7°C 24.4°F-4.2°C 65% Calm Calm -- 29.67 in1004.7 mb 0.00 in0.0 mm 0.00 in0.0 mm 0.00 in0.0 mm
04:05 AM 35.2°F1.8°C 24.6°F-4.1°C 65% Calm Calm -- 29.66 in1004.4 mb 0.00 in0.0 mm 0.00 in0.0 mm 0.00 in0.0 mm
04:04 AM 35.4°F1.9°C 24.4°F-4.2°C 64% Calm Calm -- 29.66 in1004.4 mb 0.00 in0.0 mm 0.00 in0.0 mm 0.00 in0.0 mm
04:03 AM 35.6°F2.0°C 24.3°F-4.3°C 63% Calm Calm -- 29.67 in1004.7 mb 0.00 in0.0 mm 0.00 in0.0 mm 0.00 in0.0 mm
04:02 AM 35.8°F2.1°C 24.1°F-4.4°C 62% Calm Calm -- 29.67 in1004.7 mb 0.00 in0.0 mm 0.00 in0.0 mm 0.00 in0.0 mm
04:01 AM 35.8°F2.1°C 24.1°F-4.4°C 62% Calm Calm -- 29.65 in1004.1 mb 0.00 in0.0 mm 0.00 in0.0 mm 0.00 in0.0 mm
04:00 AM 36.0°F2.2°C 23.4°F-4.8°C 60% Calm Calm 2.5 mph4.0 kmh 29.65 in1004.1 mb 0.00 in0.0 mm 0.00 in0.0 mm 0.00 in0.0 mm
03:59 AM 36.0°F2.2°C 23.4°F-4.8°C 60% 0.4 mph W0.6 kmh W 2.5 mph4.0 kmh 29.65 in1004.1 mb 0.00 in0.0 mm 0.00 in0.0 mm 0.00 in0.0 mm
03:58 AM 36.1°F2.3°C 23.5°F-4.7°C 60% 0.2 mph WSW0.3 kmh WSW 2.5 mph4.0 kmh 29.65 in1004.1 mb 0.00 in0.0 mm 0.00 in0.0 mm 0.00 in0.0 mm
03:57 AM 36.1°F2.3°C 23.2°F-4.9°C 59% Calm Calm -- 29.67 in1004.7 mb 0.00 in0.0 mm 0.00 in0.0 mm 0.00 in0.0 mm
03:56 AM 36.3°F2.4°C 23.4°F-4.8°C 59% Calm Calm 2.5 mph4.0 kmh 29.65 in1004.1 mb 0.00 in0.0 mm 0.00 in0.0 mm 0.00 in0.0 mm
03:55 AM 36.3°F2.4°C 23.4°F-4.8°C 59% 0.2 mph W0.3 kmh W 2.5 mph4.0 kmh 29.65 in1004.1 mb 0.00 in0.0 mm 0.00 in0.0 mm 0.00 in0.0 mm
03:53 AM 36.3°F2.4°C 23.0°F-5.0°C 58% 1.8 mph W2.9 kmh W 4.9 mph7.9 kmh 29.67 in1004.7 mb 0.00 in0.0 mm 0.00 in0.0 mm 0.00 in0.0 mm
03:52 AM 36.5°F2.5°C 23.2°F-4.9°C 58% 0.4 mph WNW0.6 kmh WNW 2.5 mph4.0 kmh 29.65 in1004.1 mb 0.00 in0.0 mm 0.00 in0.0 mm 0.00 in0.0 mm
03:51 AM 36.5°F2.5°C 23.2°F-4.9°C 58% 0.2 mph W0.3 kmh W 2.5 mph4.0 kmh 29.65 in1004.1 mb 0.00 in0.0 mm 0.00 in0.0 mm 0.00 in0.0 mm
03:50 AM 36.5°F2.5°C 22.6°F-5.2°C 57% 0.2 mph W0.3 kmh W 2.5 mph4.0 kmh 29.67 in1004.7 mb 0.00 in0.0 mm 0.00 in0.0 mm 0.00 in0.0 mm
03:49 AM 36.5°F2.5°C 22.3°F-5.4°C 56% 1.1 mph W1.8 kmh W 2.5 mph4.0 kmh 29.67 in1004.7 mb 0.00 in0.0 mm 0.00 in0.0 mm 0.00 in0.0 mm
03:48 AM 36.5°F2.5°C 22.3°F-5.4°C 56% Calm Calm 2.5 mph4.0 kmh 29.65 in1004.1 mb 0.00 in0.0 mm 0.00 in0.0 mm 0.00 in0.0 mm
03:47 AM 36.3°F2.4°C 22.1°F-5.5°C 56% 0.2 mph SW0.3 kmh SW 2.5 mph4.0 kmh 29.67 in1004.7 mb 0.00 in0.0 mm 0.00 in0.0 mm 0.00 in0.0 mm
03:46 AM 36.3°F2.4°C 22.1°F-5.5°C 56% 2.5 mph SW4.0 kmh SW 4.9 mph7.9 kmh 29.65 in1004.1 mb 0.00 in0.0 mm 0.00 in0.0 mm 0.00 in0.0 mm
03:45 AM 36.3°F2.4°C 22.1°F-5.5°C 56% 1.8 mph SW2.9 kmh SW 4.9 mph7.9 kmh 29.67 in1004.7 mb 0.00 in0.0 mm 0.00 in0.0 mm 0.00 in0.0 mm
03:44 AM 36.1°F2.3°C 21.9°F-5.6°C 56% 4.0 mph WSW6.4 kmh WSW 4.9 mph7.9 kmh 29.65 in1004.1 mb 0.00 in0.0 mm 0.00 in0.0 mm 0.00 in0.0 mm
03:43 AM 36.1°F2.3°C 21.9°F-5.6°C 56% 3.6 mph WSW5.8 kmh WSW 7.4 mph11.9 kmh 29.65 in1004.1 mb 0.00 in0.0 mm 0.00 in0.0 mm 0.00 in0.0 mm
03:42 AM 36.0°F2.2°C 21.7°F-5.7°C 56% 4.5 mph SW7.2 kmh SW 7.4 mph11.9 kmh 29.67 in1004.7 mb 0.00 in0.0 mm 0.00 in0.0 mm 0.00 in0.0 mm
03:41 AM 35.8°F2.1°C 21.6°F-5.8°C 56% 3.6 mph W5.8 kmh W 7.4 mph11.9 kmh 29.65 in1004.1 mb 0.00 in0.0 mm 0.00 in0.0 mm 0.00 in0.0 mm
03:40 AM 35.8°F2.1°C 21.6°F-5.8°C 56% 4.9 mph WSW7.9 kmh WSW 7.4 mph11.9 kmh 29.67 in1004.7 mb 0.00 in0.0 mm 0.00 in0.0 mm 0.00 in0.0 mm
03:38 AM 35.6°F2.0°C 21.4°F-5.9°C 56% 6.7 mph WSW10.8 kmh WSW 7.4 mph11.9 kmh 29.65 in1004.1 mb 0.00 in0.0 mm 0.00 in0.0 mm 0.00 in0.0 mm
03:37 AM 35.6°F2.0°C 21.4°F-5.9°C 56% 4.5 mph WSW7.2 kmh WSW 7.4 mph11.9 kmh 29.65 in1004.1 mb 0.00 in0.0 mm 0.00 in0.0 mm 0.00 in0.0 mm
03:36 AM 35.4°F1.9°C 21.2°F-6.0°C 56% 6.7 mph SW10.8 kmh SW 7.4 mph11.9 kmh 29.67 in1004.7 mb 0.00 in0.0 mm 0.00 in0.0 mm 0.00 in0.0 mm
03:35 AM 35.4°F1.9°C 21.7°F-5.7°C 57% 2.7 mph SW4.3 kmh SW 4.9 mph7.9 kmh 29.65 in1004.1 mb 0.00 in0.0 mm 0.00 in0.0 mm 0.00 in0.0 mm
03:34 AM 35.2°F1.8°C 21.6°F-5.8°C 57% 3.6 mph SW5.8 kmh SW 7.4 mph11.9 kmh 29.67 in1004.7 mb 0.00 in0.0 mm 0.00 in0.0 mm 0.00 in0.0 mm
03:33 AM 35.2°F1.8°C 21.6°F-5.8°C 57% 6.5 mph SW10.5 kmh SW 7.4 mph11.9 kmh 29.67 in1004.7 mb 0.00 in0.0 mm 0.00 in0.0 mm 0.00 in0.0 mm
03:32 AM 35.1°F1.7°C 21.4°F-5.9°C 57% 6.0 mph S9.7 kmh S 9.8 mph15.8 kmh 29.67 in1004.7 mb 0.00 in0.0 mm 0.00 in0.0 mm 0.00 in0.0 mm
03:31 AM 35.1°F1.7°C 21.4°F-5.9°C 57% 2.5 mph SW4.0 kmh SW 4.9 mph7.9 kmh 29.65 in1004.1 mb 0.00 in0.0 mm 0.00 in0.0 mm 0.00 in0.0 mm
03:30 AM 34.9°F1.6°C 21.6°F-5.8°C 58% 3.4 mph WSW5.5 kmh WSW 7.4 mph11.9 kmh 29.65 in1004.1 mb 0.00 in0.0 mm 0.00 in0.0 mm 0.00 in0.0 mm
03:29 AM 34.9°F1.6°C 21.6°F-5.8°C 58% 6.7 mph WSW10.8 kmh WSW 9.8 mph15.8 kmh 29.65 in1004.1 mb 0.00 in0.0 mm 0.00 in0.0 mm 0.00 in0.0 mm
03:28 AM 34.9°F1.6°C 21.6°F-5.8°C 58% 4.5 mph WSW7.2 kmh WSW 9.8 mph15.8 kmh 29.67 in1004.7 mb 0.00 in0.0 mm 0.00 in0.0 mm 0.00 in0.0 mm
03:27 AM 34.7°F1.5°C 21.4°F-5.9°C 58% 4.0 mph WSW6.4 kmh WSW 9.8 mph15.8 kmh 29.67 in1004.7 mb 0.00 in0.0 mm 0.00 in0.0 mm 0.00 in0.0 mm
03:26 AM 34.7°F1.5°C 21.4°F-5.9°C 58% 3.4 mph SW5.5 kmh SW 4.9 mph7.9 kmh 29.67 in1004.7 mb 0.00 in0.0 mm 0.00 in0.0 mm 0.00 in0.0 mm
03:25 AM 34.5°F1.4°C 21.7°F-5.7°C 59% 1.1 mph SW1.8 kmh SW 12.3 mph19.8 kmh 29.67 in1004.7 mb 0.00 in0.0 mm 0.00 in0.0 mm 0.00 in0.0 mm
03:23 AM 34.5°F1.4°C 22.1°F-5.5°C 60% 8.9 mph WSW14.3 kmh WSW 15.0 mph24.1 kmh 29.65 in1004.1 mb 0.00 in0.0 mm 0.00 in0.0 mm 0.00 in0.0 mm
03:22 AM 34.3°F1.3°C 22.3°F-5.4°C 61% 10.5 mph SW16.9 kmh SW 15.0 mph24.1 kmh 29.65 in1004.1 mb 0.00 in0.0 mm 0.00 in0.0 mm 0.00 in0.0 mm
03:21 AM 34.2°F1.2°C 22.1°F-5.5°C 61% 5.8 mph WSW9.3 kmh WSW 7.4 mph11.9 kmh 29.65 in1004.1 mb 0.00 in0.0 mm 0.00 in0.0 mm 0.00 in0.0 mm
03:20 AM 34.2°F1.2°C 22.5°F-5.3°C 62% 3.6 mph WSW5.8 kmh WSW 7.4 mph11.9 kmh 29.65 in1004.1 mb 0.00 in0.0 mm 0.00 in0.0 mm 0.00 in0.0 mm
03:19 AM 34.0°F1.1°C 22.6°F-5.2°C 63% 4.3 mph SW6.9 kmh SW 9.8 mph15.8 kmh 29.65 in1004.1 mb 0.00 in0.0 mm 0.00 in0.0 mm 0.00 in0.0 mm
03:18 AM 33.8°F1.0°C 23.0°F-5.0°C 64% 7.4 mph WSW11.9 kmh WSW 9.8 mph15.8 kmh 29.65 in1004.1 mb 0.00 in0.0 mm 0.00 in0.0 mm 0.00 in0.0 mm
03:17 AM 33.8°F1.0°C 23.0°F-5.0°C 64% 1.8 mph WSW2.9 kmh WSW 7.4 mph11.9 kmh 29.65 in1004.1 mb 0.00 in0.0 mm 0.00 in0.0 mm 0.00 in0.0 mm
03:16 AM 33.6°F0.9°C 22.8°F-5.1°C 64% 1.3 mph WSW2.1 kmh WSW 7.4 mph11.9 kmh 29.65 in1004.1 mb 0.00 in0.0 mm 0.00 in0.0 mm 0.00 in0.0 mm
03:15 AM 33.6°F0.9°C 22.8°F-5.1°C 64% 0.4 mph WNW0.6 kmh WNW 4.9 mph7.9 kmh 29.65 in1004.1 mb 0.00 in0.0 mm 0.00 in0.0 mm 0.00 in0.0 mm
03:14 AM 33.4°F0.8°C 22.6°F-5.2°C 64% 0.4 mph WSW0.6 kmh WSW 7.4 mph11.9 kmh 29.65 in1004.1 mb 0.00 in0.0 mm 0.00 in0.0 mm 0.00 in0.0 mm
03:13 AM 33.4°F0.8°C 22.6°F-5.2°C 64% 0.2 mph WSW0.3 kmh WSW 4.9 mph7.9 kmh 29.65 in1004.1 mb 0.00 in0.0 mm 0.00 in0.0 mm 0.00 in0.0 mm
03:12 AM 33.4°F0.8°C 23.0°F-5.0°C 65% Calm Calm 4.9 mph7.9 kmh 29.65 in1004.1 mb 0.00 in0.0 mm 0.00 in0.0 mm 0.00 in0.0 mm
03:11 AM 33.3°F0.7°C 22.1°F-5.5°C 63% 1.1 mph SW1.8 kmh SW 4.9 mph7.9 kmh 29.65 in1004.1 mb 0.00 in0.0 mm 0.00 in0.0 mm 0.00 in0.0 mm
03:10 AM 33.3°F0.7°C 22.5°F-5.3°C 64% 2.7 mph WSW4.3 kmh WSW 7.4 mph11.9 kmh 29.65 in1004.1 mb 0.00 in0.0 mm 0.00 in0.0 mm 0.00 in0.0 mm
03:08 AM 33.1°F0.6°C 22.3°F-5.4°C 64% 4.3 mph WSW6.9 kmh WSW 7.4 mph11.9 kmh 29.65 in1004.1 mb 0.00 in0.0 mm 0.00 in0.0 mm 0.00 in0.0 mm
03:07 AM 33.1°F0.6°C 22.3°F-5.4°C 64% 3.6 mph NW5.8 kmh NW 4.9 mph7.9 kmh 29.65 in1004.1 mb 0.00 in0.0 mm 0.00 in0.0 mm 0.00 in0.0 mm
03:06 AM 33.1°F0.6°C 22.3°F-5.4°C 64% 0.9 mph WSW1.4 kmh WSW 4.9 mph7.9 kmh 29.65 in1004.1 mb 0.00 in0.0 mm 0.00 in0.0 mm 0.00 in0.0 mm
03:05 AM 32.9°F0.5°C 22.1°F-5.5°C 64% 3.4 mph W5.5 kmh W 4.9 mph7.9 kmh 29.65 in1004.1 mb 0.00 in0.0 mm 0.00 in0.0 mm 0.00 in0.0 mm
03:04 AM 32.9°F0.5°C 22.1°F-5.5°C 64% 1.3 mph WSW2.1 kmh WSW 2.5 mph4.0 kmh 29.65 in1004.1 mb 0.00 in0.0 mm 0.00 in0.0 mm 0.00 in0.0 mm
03:03 AM 32.7°F0.4°C 21.9°F-5.6°C 64% Calm Calm 2.5 mph4.0 kmh 29.65 in1004.1 mb 0.00 in0.0 mm 0.00 in0.0 mm 0.00 in0.0 mm
03:02 AM 32.7°F0.4°C 21.9°F-5.6°C 64% 0.2 mph WSW0.3 kmh WSW 4.9 mph7.9 kmh 29.65 in1004.1 mb 0.00 in0.0 mm 0.00 in0.0 mm 0.00 in0.0 mm
03:01 AM 32.5°F0.3°C 21.7°F-5.7°C 64% 0.2 mph W0.3 kmh W 4.9 mph7.9 kmh 29.66 in1004.4 mb 0.00 in0.0 mm 0.00 in0.0 mm 0.00 in0.0 mm
03:00 AM 32.5°F0.3°C 22.1°F-5.5°C 65% 0.2 mph WSW0.3 kmh WSW 4.9 mph7.9 kmh 29.65 in1004.1 mb 0.00 in0.0 mm 0.00 in0.0 mm 0.00 in0.0 mm
02:59 AM 32.4°F0.2°C 21.9°F-5.6°C 65% Calm Calm 2.5 mph4.0 kmh 29.65 in1004.1 mb 0.00 in0.0 mm 0.00 in0.0 mm 0.00 in0.0 mm
02:58 AM 32.2°F0.1°C 21.7°F-5.7°C 65% Calm Calm 2.5 mph4.0 kmh 29.65 in1004.1 mb 0.00 in0.0 mm 0.00 in0.0 mm 0.00 in0.0 mm
02:57 AM 32.0°F0.0°C 21.9°F-5.6°C 66% 2.0 mph WSW3.2 kmh WSW 4.9 mph7.9 kmh 29.65 in1004.1 mb 0.00 in0.0 mm 0.00 in0.0 mm 0.00 in0.0 mm
02:56 AM 32.0°F0.0°C 21.9°F-5.6°C 66% 2.5 mph NW4.0 kmh NW 9.8 mph15.8 kmh 29.66 in1004.4 mb 0.00 in0.0 mm 0.00 in0.0 mm 0.00 in0.0 mm
02:55 AM 32.0°F0.0°C 22.3°F-5.4°C 67% 4.3 mph WNW6.9 kmh WNW 7.4 mph11.9 kmh 29.66 in1004.4 mb 0.00 in0.0 mm 0.00 in0.0 mm 0.00 in0.0 mm
02:53 AM 31.8°F-0.1°C 22.5°F-5.3°C 68% 5.1 mph WSW8.2 kmh WSW 7.4 mph11.9 kmh 29.67 in1004.7 mb 0.00 in0.0 mm 0.00 in0.0 mm 0.00 in0.0 mm
02:52 AM 31.6°F-0.2°C 22.3°F-5.4°C 68% Calm Calm 2.5 mph4.0 kmh 29.66 in1004.4 mb 0.00 in0.0 mm 0.00 in0.0 mm 0.00 in0.0 mm
02:51 AM 31.5°F-0.3°C 22.1°F-5.5°C 68% 1.8 mph WSW2.9 kmh WSW 2.5 mph4.0 kmh 29.66 in1004.4 mb 0.00 in0.0 mm 0.00 in0.0 mm 0.00 in0.0 mm
02:50 AM 31.3°F-0.4°C 21.9°F-5.6°C 68% 1.8 mph N2.9 kmh N 4.9 mph7.9 kmh 29.66 in1004.4 mb 0.00 in0.0 mm 0.00 in0.0 mm 0.00 in0.0 mm
02:49 AM 31.1°F-0.5°C 21.7°F-5.7°C 68% 0.9 mph WSW1.4 kmh WSW 2.5 mph4.0 kmh 29.66 in1004.4 mb 0.00 in0.0 mm 0.00 in0.0 mm 0.00 in0.0 mm
02:48 AM 31.1°F-0.5°C 22.1°F-5.5°C 69% Calm Calm 4.9 mph7.9 kmh 29.66 in1004.4 mb 0.00 in0.0 mm 0.00 in0.0 mm 0.00 in0.0 mm
02:47 AM 30.9°F-0.6°C 21.9°F-5.6°C 69% Calm Calm 2.5 mph4.0 kmh 29.66 in1004.4 mb 0.00 in0.0 mm 0.00 in0.0 mm 0.00 in0.0 mm
02:46 AM 30.7°F-0.7°C 21.7°F-5.7°C 69% Calm Calm -- 29.66 in1004.4 mb 0.00 in0.0 mm 0.00 in0.0 mm 0.00 in0.0 mm
02:45 AM 30.6°F-0.8°C 21.6°F-5.8°C 69% Calm Calm 2.5 mph4.0 kmh 29.66 in1004.4 mb 0.00 in0.0 mm 0.00 in0.0 mm 0.00 in0.0 mm
02:44 AM 30.4°F-0.9°C 21.7°F-5.7°C 70% 0.9 mph W1.4 kmh W 2.5 mph4.0 kmh 29.66 in1004.4 mb 0.00 in0.0 mm 0.00 in0.0 mm 0.00 in0.0 mm
02:43 AM 30.4°F-0.9°C 21.7°F-5.7°C 70% 0.4 mph WNW0.6 kmh WNW 2.5 mph4.0 kmh 29.66 in1004.4 mb 0.00 in0.0 mm 0.00 in0.0 mm 0.00 in0.0 mm
02:42 AM 30.2°F-1.0°C 21.6°F-5.8°C 70% Calm Calm 2.5 mph4.0 kmh 29.66 in1004.4 mb 0.00 in0.0 mm 0.00 in0.0 mm 0.00 in0.0 mm
02:41 AM 30.0°F-1.1°C 21.7°F-5.7°C 71% 1.1 mph NW1.8 kmh NW 2.5 mph4.0 kmh 29.67 in1004.7 mb 0.00 in0.0 mm 0.00 in0.0 mm 0.00 in0.0 mm
02:40 AM 30.0°F-1.1°C 21.4°F-5.9°C 70% 0.2 mph W0.3 kmh W 2.5 mph4.0 kmh 29.67 in1004.7 mb 0.00 in0.0 mm 0.00 in0.0 mm 0.00 in0.0 mm
02:38 AM 29.8°F-1.2°C 21.6°F-5.8°C 71% Calm Calm 2.5 mph4.0 kmh 29.67 in1004.7 mb 0.00 in0.0 mm 0.00 in0.0 mm 0.00 in0.0 mm
02:37 AM 29.7°F-1.3°C 21.7°F-5.7°C 72% 1.8 mph W2.9 kmh W 2.5 mph4.0 kmh 29.67 in1004.7 mb 0.00 in0.0 mm 0.00 in0.0 mm 0.00 in0.0 mm
02:36 AM 29.5°F-1.4°C 21.6°F-5.8°C 72% Calm Calm 2.5 mph4.0 kmh 29.67 in1004.7 mb 0.00 in0.0 mm 0.00 in0.0 mm 0.00 in0.0 mm
02:35 AM 29.3°F-1.5°C 21.7°F-5.7°C 73% 0.2 mph WSW0.3 kmh WSW 4.9 mph7.9 kmh 29.67 in1004.7 mb 0.00 in0.0 mm 0.00 in0.0 mm 0.00 in0.0 mm
02:34 AM 29.3°F-1.5°C 22.3°F-5.4°C 75% 3.6 mph SW5.8 kmh SW 4.9 mph7.9 kmh 29.67 in1004.7 mb 0.00 in0.0 mm 0.00 in0.0 mm 0.00 in0.0 mm
02:33 AM 29.1°F-1.6°C 22.3°F-5.4°C 75% 4.0 mph WSW6.4 kmh WSW 4.9 mph7.9 kmh 29.65 in1004.1 mb 0.00 in0.0 mm 0.00 in0.0 mm 0.00 in0.0 mm
02:32 AM 29.1°F-1.6°C 22.3°F-5.4°C 75% Calm Calm 2.5 mph4.0 kmh 29.68 in1005.1 mb 0.00 in0.0 mm 0.00 in0.0 mm 0.00 in0.0 mm
02:31 AM 28.9°F-1.7°C 22.1°F-5.5°C 75% 0.2 mph SW0.3 kmh SW 4.9 mph7.9 kmh 29.67 in1004.7 mb 0.00 in0.0 mm 0.00 in0.0 mm 0.00 in0.0 mm
02:30 AM 28.9°F-1.7°C 22.6°F-5.2°C 77% 1.3 mph W2.1 kmh W 2.5 mph4.0 kmh 29.67 in1004.7 mb 0.00 in0.0 mm 0.00 in0.0 mm 0.00 in0.0 mm
02:29 AM 28.8°F-1.8°C 22.5°F-5.3°C 77% 0.4 mph WSW0.6 kmh WSW 2.5 mph4.0 kmh 29.67 in1004.7 mb 0.00 in0.0 mm 0.00 in0.0 mm 0.00 in0.0 mm
02:28 AM 28.8°F-1.8°C 22.8°F-5.1°C 78% Calm Calm 2.5 mph4.0 kmh 29.67 in1004.7 mb 0.00 in0.0 mm 0.00 in0.0 mm 0.00 in0.0 mm
02:27 AM 28.6°F-1.9°C 22.6°F-5.2°C 78% 1.3 mph W2.1 kmh W 2.5 mph4.0 kmh 29.67 in1004.7 mb 0.00 in0.0 mm 0.00 in0.0 mm 0.00 in0.0 mm
02:26 AM 28.6°F-1.9°C 22.8°F-5.1°C 79% Calm Calm -- 29.67 in1004.7 mb 0.00 in0.0 mm 0.00 in0.0 mm 0.00 in0.0 mm
02:25 AM 28.4°F-2.0°C 22.6°F-5.2°C 79% Calm Calm 2.5 mph4.0 kmh 29.67 in1004.7 mb 0.00 in0.0 mm 0.00 in0.0 mm 0.00 in0.0 mm
02:23 AM 28.4°F-2.0°C 22.6°F-5.2°C 79% Calm Calm 2.5 mph4.0 kmh 29.65 in1004.1 mb 0.00 in0.0 mm 0.00 in0.0 mm 0.00 in0.0 mm
02:22 AM 28.4°F-2.0°C 21.6°F-5.8°C 75% Calm Calm -- 29.65 in1004.1 mb 0.00 in0.0 mm 0.00 in0.0 mm 0.00 in0.0 mm
02:21 AM 28.4°F-2.0°C 21.6°F-5.8°C 75% Calm Calm -- 29.65 in1004.1 mb 0.00 in0.0 mm 0.00 in0.0 mm 0.00 in0.0 mm
02:20 AM 28.4°F-2.0°C 21.6°F-5.8°C 75% Calm Calm -- 29.67 in1004.7 mb 0.00 in0.0 mm 0.00 in0.0 mm 0.00 in0.0 mm
02:19 AM 28.2°F-2.1°C 21.4°F-5.9°C 75% Calm Calm -- 29.67 in1004.7 mb 0.00 in0.0 mm 0.00 in0.0 mm 0.00 in0.0 mm
02:18 AM 28.2°F-2.1°C 21.4°F-5.9°C 75% Calm Calm -- 29.67 in1004.7 mb 0.00 in0.0 mm 0.00 in0.0 mm 0.00 in0.0 mm
02:17 AM 28.2°F-2.1°C 21.0°F-6.1°C 74% Calm Calm -- 29.65 in1004.1 mb 0.00 in0.0 mm 0.00 in0.0 mm 0.00 in0.0 mm
02:16 AM 28.2°F-2.1°C 21.0°F-6.1°C 74% Calm Calm -- 29.65 in1004.1 mb 0.00 in0.0 mm 0.00 in0.0 mm 0.00 in0.0 mm
02:15 AM 28.2°F-2.1°C 21.0°F-6.1°C 74% Calm Calm -- 29.65 in1004.1 mb 0.00 in0.0 mm 0.00 in0.0 mm 0.00 in0.0 mm
02:14 AM 28.2°F-2.1°C 21.0°F-6.1°C 74% Calm Calm -- 29.65 in1004.1 mb 0.00 in0.0 mm 0.00 in0.0 mm 0.00 in0.0 mm
02:13 AM 28.2°F-2.1°C 22.3°F-5.4°C 78% Calm Calm -- 29.67 in1004.7 mb 0.00 in0.0 mm 0.00 in0.0 mm 0.00 in0.0 mm
02:12 AM 28.2°F-2.1°C 22.3°F-5.4°C 78% Calm Calm -- 29.67 in1004.7 mb 0.00 in0.0 mm 0.00 in0.0 mm 0.00 in0.0 mm
02:11 AM 28.2°F-2.1°C 22.3°F-5.4°C 78% Calm Calm -- 29.65 in1004.1 mb 0.00 in0.0 mm 0.00 in0.0 mm 0.00 in0.0 mm
02:10 AM 28.2°F-2.1°C 22.3°F-5.4°C 78% Calm Calm -- 29.65 in1004.1 mb 0.00 in0.0 mm 0.00 in0.0 mm 0.00 in0.0 mm
02:08 AM 28.2°F-2.1°C 22.3°F-5.4°C 78% Calm Calm 2.5 mph4.0 kmh 29.65 in1004.1 mb 0.00 in0.0 mm 0.00 in0.0 mm 0.00 in0.0 mm
02:07 AM 28.2°F-2.1°C 21.0°F-6.1°C 74% Calm Calm -- 29.65 in1004.1 mb 0.00 in0.0 mm 0.00 in0.0 mm 0.00 in0.0 mm
02:06 AM 28.4°F-2.0°C 21.6°F-5.8°C 75% Calm Calm -- 29.65 in1004.1 mb 0.00 in0.0 mm 0.00 in0.0 mm 0.00 in0.0 mm
02:05 AM 28.4°F-2.0°C 22.6°F-5.2°C 79% Calm Calm 2.5 mph4.0 kmh 29.67 in1004.7 mb 0.00 in0.0 mm 0.00 in0.0 mm 0.00 in0.0 mm
02:04 AM 28.2°F-2.1°C 22.6°F-5.2°C 79% Calm Calm 2.5 mph4.0 kmh 29.67 in1004.7 mb 0.00 in0.0 mm 0.00 in0.0 mm 0.00 in0.0 mm
02:03 AM 28.2°F-2.1°C 22.8°F-5.1°C 80% Calm Calm -- 29.67 in1004.7 mb 0.00 in0.0 mm 0.00 in0.0 mm 0.00 in0.0 mm
02:02 AM 28.2°F-2.1°C 22.8°F-5.1°C 80% Calm Calm -- 29.65 in1004.1 mb 0.00 in0.0 mm 0.00 in0.0 mm 0.00 in0.0 mm
02:01 AM 28.2°F-2.1°C 22.8°F-5.1°C 80% Calm Calm -- 29.65 in1004.1 mb 0.00 in0.0 mm 0.00 in0.0 mm 0.00 in0.0 mm
02:00 AM 28.2°F-2.1°C 23.2°F-4.9°C 81% Calm Calm -- 29.65 in1004.1 mb 0.00 in0.0 mm 0.00 in0.0 mm 0.00 in0.0 mm
01:59 AM 28.0°F-2.2°C 23.0°F-5.0°C 81% Calm Calm -- 29.67 in1004.7 mb 0.00 in0.0 mm 0.00 in0.0 mm 0.00 in0.0 mm
01:58 AM 28.0°F-2.2°C 21.7°F-5.7°C 77% Calm Calm -- 29.67 in1004.7 mb 0.00 in0.0 mm 0.00 in0.0 mm 0.00 in0.0 mm
01:57 AM 28.0°F-2.2°C 23.0°F-5.0°C 81% Calm Calm -- 29.67 in1004.7 mb 0.00 in0.0 mm 0.00 in0.0 mm 0.00 in0.0 mm
01:56 AM 28.0°F-2.2°C 21.7°F-5.7°C 77% Calm Calm -- 29.67 in1004.7 mb 0.00 in0.0 mm 0.00 in0.0 mm 0.00 in0.0 mm
01:55 AM 28.0°F-2.2°C 21.4°F-5.9°C 76% Calm Calm -- 29.67 in1004.7 mb 0.00 in0.0 mm 0.00 in0.0 mm 0.00 in0.0 mm
01:53 AM 28.0°F-2.2°C 21.4°F-5.9°C 76% Calm Calm -- 29.65 in1004.1 mb 0.00 in0.0 mm 0.00 in0.0 mm 0.00 in0.0 mm
01:52 AM 28.2°F-2.1°C 21.6°F-5.8°C 76% Calm Calm -- 29.67 in1004.7 mb 0.00 in0.0 mm 0.00 in0.0 mm 0.00 in0.0 mm
01:51 AM 28.2°F-2.1°C 21.4°F-5.9°C 75% Calm Calm -- 29.67 in1004.7 mb 0.00 in0.0 mm 0.00 in0.0 mm 0.00 in0.0 mm
01:50 AM 28.2°F-2.1°C 21.4°F-5.9°C 75% Calm Calm -- 29.67 in1004.7 mb 0.00 in0.0 mm 0.00 in0.0 mm 0.00 in0.0 mm
01:49 AM 28.4°F-2.0°C 21.6°F-5.8°C 75% Calm Calm -- 29.67 in1004.7 mb 0.00 in0.0 mm 0.00 in0.0 mm 0.00 in0.0 mm
01:48 AM 28.4°F-2.0°C 21.6°F-5.8°C 75% Calm Calm -- 29.67 in1004.7 mb 0.00 in0.0 mm 0.00 in0.0 mm 0.00 in0.0 mm
01:47 AM 28.6°F-1.9°C 21.7°F-5.7°C 75% Calm Calm -- 29.65 in1004.1 mb 0.00 in0.0 mm 0.00 in0.0 mm 0.00 in0.0 mm
01:46 AM 28.6°F-1.9°C 21.4°F-5.9°C 74% Calm Calm -- 29.67 in1004.7 mb 0.00 in0.0 mm 0.00 in0.0 mm 0.00 in0.0 mm
01:45 AM 28.6°F-1.9°C 21.4°F-5.9°C 74% Calm Calm -- 29.65 in1004.1 mb 0.00 in0.0 mm 0.00 in0.0 mm 0.00 in0.0 mm
01:44 AM 28.8°F-1.8°C 21.6°F-5.8°C 74% Calm Calm -- 29.68 in1005.1 mb 0.00 in0.0 mm 0.00 in0.0 mm 0.00 in0.0 mm
01:43 AM 28.8°F-1.8°C 22.8°F-5.1°C 78% Calm Calm -- 29.67 in1004.7 mb 0.00 in0.0 mm 0.00 in0.0 mm 0.00 in0.0 mm
01:42 AM 28.8°F-1.8°C 22.8°F-5.1°C 78% Calm Calm -- 29.67 in1004.7 mb 0.00 in0.0 mm 0.00 in0.0 mm 0.00 in0.0 mm
01:41 AM 28.8°F-1.8°C 22.8°F-5.1°C 78% Calm Calm -- 29.67 in1004.7 mb 0.00 in0.0 mm 0.00 in0.0 mm 0.00 in0.0 mm
01:40 AM 28.9°F-1.7°C 23.0°F-5.0°C 78% Calm Calm -- 29.67 in1004.7 mb 0.00 in0.0 mm 0.00 in0.0 mm 0.00 in0.0 mm
01:38 AM 28.9°F-1.7°C 23.0°F-5.0°C 78% Calm Calm -- 29.67 in1004.7 mb 0.00 in0.0 mm 0.00 in0.0 mm 0.00 in0.0 mm
01:37 AM 28.9°F-1.7°C 23.2°F-4.9°C 79% Calm Calm -- 29.67 in1004.7 mb 0.00 in0.0 mm 0.00 in0.0 mm 0.00 in0.0 mm
01:36 AM 28.9°F-1.7°C 23.2°F-4.9°C 79% Calm Calm -- 29.67 in1004.7 mb 0.00 in0.0 mm 0.00 in0.0 mm 0.00 in0.0 mm
01:35 AM 28.9°F-1.7°C 23.2°F-4.9°C 79% Calm Calm -- 29.67 in1004.7 mb 0.00 in0.0 mm 0.00 in0.0 mm 0.00 in0.0 mm
01:34 AM 29.1°F-1.6°C 23.4°F-4.8°C 79% Calm Calm -- 29.67 in1004.7 mb 0.00 in0.0 mm 0.00 in0.0 mm 0.00 in0.0 mm
01:33 AM 29.1°F-1.6°C 22.3°F-5.4°C 75% Calm Calm -- 29.67 in1004.7 mb 0.00 in0.0 mm 0.00 in0.0 mm 0.00 in0.0 mm
01:32 AM 29.3°F-1.5°C 22.3°F-5.4°C 75% Calm Calm -- 29.68 in1005.1 mb 0.00 in0.0 mm 0.00 in0.0 mm 0.00 in0.0 mm
01:31 AM 29.3°F-1.5°C 22.1°F-5.5°C 74% Calm Calm -- 29.67 in1004.7 mb 0.00 in0.0 mm 0.00 in0.0 mm 0.00 in0.0 mm
01:30 AM 29.5°F-1.4°C 22.3°F-5.4°C 74% Calm Calm -- 29.67 in1004.7 mb 0.00 in0.0 mm 0.00 in0.0 mm 0.00 in0.0 mm
01:29 AM 29.7°F-1.3°C 22.5°F-5.3°C 74% Calm Calm -- 29.67 in1004.7 mb 0.00 in0.0 mm 0.00 in0.0 mm 0.00 in0.0 mm
01:28 AM 29.7°F-1.3°C 22.1°F-5.5°C 73% Calm Calm -- 29.68 in1005.1 mb 0.00 in0.0 mm 0.00 in0.0 mm 0.00 in0.0 mm
01:27 AM 29.8°F-1.2°C 22.3°F-5.4°C 73% Calm Calm -- 29.67 in1004.7 mb 0.00 in0.0 mm 0.00 in0.0 mm 0.00 in0.0 mm
01:26 AM 30.0°F-1.1°C 22.5°F-5.3°C 73% Calm Calm -- 29.67 in1004.7 mb 0.00 in0.0 mm 0.00 in0.0 mm 0.00 in0.0 mm
01:25 AM 30.2°F-1.0°C 23.9°F-4.5°C 77% Calm Calm -- 29.68 in1005.1 mb 0.00 in0.0 mm 0.00 in0.0 mm 0.00 in0.0 mm
01:24 AM 30.2°F-1.0°C 23.9°F-4.5°C 77% Calm Calm -- 29.67 in1004.7 mb 0.00 in0.0 mm 0.00 in0.0 mm 0.00 in0.0 mm
01:22 AM 30.4°F-0.9°C 24.1°F-4.4°C 77% Calm Calm -- 29.67 in1004.7 mb 0.00 in0.0 mm 0.00 in0.0 mm 0.00 in0.0 mm
01:21 AM 30.6°F-0.8°C 23.9°F-4.5°C 76% Calm Calm -- 29.68 in1005.1 mb 0.00 in0.0 mm 0.00 in0.0 mm 0.00 in0.0 mm
01:20 AM 30.7°F-0.7°C 24.1°F-4.4°C 76% Calm Calm -- 29.67 in1004.7 mb 0.00 in0.0 mm 0.00 in0.0 mm 0.00 in0.0 mm
01:19 AM 30.9°F-0.6°C 24.3°F-4.3°C 76% Calm Calm -- 29.68 in1005.1 mb 0.00 in0.0 mm 0.00 in0.0 mm 0.00 in0.0 mm
01:18 AM 30.9°F-0.6°C 23.9°F-4.5°C 75% Calm Calm -- 29.67 in1004.7 mb 0.00 in0.0 mm 0.00 in0.0 mm 0.00 in0.0 mm
01:17 AM 31.1°F-0.5°C 24.1°F-4.4°C 75% Calm Calm -- 29.67 in1004.7 mb 0.00 in0.0 mm 0.00 in0.0 mm 0.00 in0.0 mm
01:16 AM 31.3°F-0.4°C 24.3°F-4.3°C 75% Calm Calm -- 29.67 in1004.7 mb 0.00 in0.0 mm 0.00 in0.0 mm 0.00 in0.0 mm
01:15 AM 31.5°F-0.3°C 24.4°F-4.2°C 75% Calm Calm -- 29.68 in1005.1 mb 0.00 in0.0 mm 0.00 in0.0 mm 0.00 in0.0 mm
01:14 AM 31.6°F-0.2°C 24.3°F-4.3°C 74% Calm Calm -- 29.68 in1005.1 mb 0.00 in0.0 mm 0.00 in0.0 mm 0.00 in0.0 mm
01:13 AM 31.8°F-0.1°C 24.4°F-4.2°C 74% Calm Calm -- 29.67 in1004.7 mb 0.00 in0.0 mm 0.00 in0.0 mm 0.00 in0.0 mm
01:12 AM 32.0°F0.0°C 24.6°F-4.1°C 74% Calm Calm -- 29.67 in1004.7 mb 0.00 in0.0 mm 0.00 in0.0 mm 0.00 in0.0 mm
01:11 AM 32.0°F0.0°C 24.3°F-4.3°C 73% Calm Calm -- 29.67 in1004.7 mb 0.00 in0.0 mm 0.00 in0.0 mm 0.00 in0.0 mm
01:10 AM 32.0°F0.0°C 24.3°F-4.3°C 73% Calm Calm -- 29.68 in1005.1 mb 0.00 in0.0 mm 0.00 in0.0 mm 0.00 in0.0 mm
01:09 AM 32.2°F0.1°C 24.3°F-4.3°C 72% Calm Calm -- 29.68 in1005.1 mb 0.00 in0.0 mm 0.00 in0.0 mm 0.00 in0.0 mm
01:07 AM 32.4°F0.2°C 24.3°F-4.3°C 72% Calm Calm -- 29.68 in1005.1 mb 0.00 in0.0 mm 0.00 in0.0 mm 0.00 in0.0 mm
01:06 AM 32.5°F0.3°C 24.3°F-4.3°C 71% Calm Calm -- 29.67 in1004.7 mb 0.00 in0.0 mm 0.00 in0.0 mm 0.00 in0.0 mm
01:05 AM 32.7°F0.4°C 24.1°F-4.4°C 70% Calm Calm -- 29.68 in1005.1 mb 0.00 in0.0 mm 0.00 in0.0 mm 0.00 in0.0 mm
01:04 AM 32.9°F0.5°C 24.3°F-4.3°C 70% Calm Calm -- 29.67 in1004.7 mb 0.00 in0.0 mm 0.00 in0.0 mm 0.00 in0.0 mm
01:03 AM 33.1°F0.6°C 24.4°F-4.2°C 70% Calm Calm -- 29.68 in1005.1 mb 0.00 in0.0 mm 0.00 in0.0 mm 0.00 in0.0 mm
01:02 AM 33.1°F0.6°C 24.1°F-4.4°C 69% Calm Calm -- 29.68 in1005.1 mb 0.00 in0.0 mm 0.00 in0.0 mm 0.00 in0.0 mm
01:01 AM 33.3°F0.7°C 24.3°F-4.3°C 69% Calm Calm -- 29.67 in1004.7 mb 0.00 in0.0 mm 0.00 in0.0 mm 0.00 in0.0 mm
01:00 AM 33.4°F0.8°C 24.1°F-4.4°C 68% Calm Calm -- 29.69 in1005.4 mb 0.00 in0.0 mm 0.00 in0.0 mm 0.00 in0.0 mm
12:59 AM 33.4°F0.8°C 24.1°F-4.4°C 68% Calm Calm -- 29.67 in1004.7 mb 0.00 in0.0 mm 0.00 in0.0 mm 0.00 in0.0 mm
12:58 AM 33.6°F0.9°C 23.9°F-4.5°C 67% Calm Calm -- 29.69 in1005.4 mb 0.00 in0.0 mm 0.00 in0.0 mm 0.00 in0.0 mm
12:57 AM 33.8°F1.0°C 24.1°F-4.4°C 67% Calm Calm -- 29.69 in1005.4 mb 0.00 in0.0 mm 0.00 in0.0 mm 0.00 in0.0 mm
12:56 AM 33.8°F1.0°C 23.7°F-4.6°C 66% Calm Calm -- 29.67 in1004.7 mb 0.00 in0.0 mm 0.00 in0.0 mm 0.00 in0.0 mm
12:55 AM 34.0°F1.1°C 23.9°F-4.5°C 66% Calm Calm 2.5 mph4.0 kmh 29.67 in1004.7 mb 0.00 in0.0 mm 0.00 in0.0 mm 0.00 in0.0 mm
12:54 AM 34.2°F1.2°C 23.5°F-4.7°C 65% Calm Calm -- 29.67 in1004.7 mb 0.00 in0.0 mm 0.00 in0.0 mm 0.00 in0.0 mm
12:52 AM 34.3°F1.3°C 23.7°F-4.6°C 65% Calm Calm -- 29.67 in1004.7 mb 0.00 in0.0 mm 0.00 in0.0 mm 0.00 in0.0 mm
12:51 AM 34.3°F1.3°C 23.7°F-4.6°C 65% Calm Calm -- 29.67 in1004.7 mb 0.00 in0.0 mm 0.00 in0.0 mm 0.00 in0.0 mm
12:50 AM 34.5°F1.4°C 23.9°F-4.5°C 65% Calm Calm 2.5 mph4.0 kmh 29.67 in1004.7 mb 0.00 in0.0 mm 0.00 in0.0 mm 0.00 in0.0 mm
12:49 AM 34.7°F1.5°C 24.1°F-4.4°C 65% 0.9 mph WNW1.4 kmh WNW 2.5 mph4.0 kmh 29.67 in1004.7 mb 0.00 in0.0 mm 0.00 in0.0 mm 0.00 in0.0 mm
12:48 AM 34.7°F1.5°C 23.7°F-4.6°C 64% Calm Calm 2.5 mph4.0 kmh 29.67 in1004.7 mb 0.00 in0.0 mm 0.00 in0.0 mm 0.00 in0.0 mm
12:47 AM 34.9°F1.6°C 23.9°F-4.5°C 64% 0.9 mph WNW1.4 kmh WNW 2.5 mph4.0 kmh 29.67 in1004.7 mb 0.00 in0.0 mm 0.00 in0.0 mm 0.00 in0.0 mm
12:46 AM 35.1°F1.7°C 23.7°F-4.6°C 63% Calm Calm 2.5 mph4.0 kmh 29.67 in1004.7 mb 0.00 in0.0 mm 0.00 in0.0 mm 0.00 in0.0 mm
12:45 AM 35.1°F1.7°C 23.7°F-4.6°C 63% Calm Calm 2.5 mph4.0 kmh 29.67 in1004.7 mb 0.00 in0.0 mm 0.00 in0.0 mm 0.00 in0.0 mm
12:44 AM 35.2°F1.8°C 23.9°F-4.5°C 63% Calm Calm -- 29.68 in1005.1 mb 0.00 in0.0 mm 0.00 in0.0 mm 0.00 in0.0 mm
12:43 AM 35.4°F1.9°C 23.7°F-4.6°C 62% Calm Calm 2.5 mph4.0 kmh 29.68 in1005.1 mb 0.00 in0.0 mm 0.00 in0.0 mm 0.00 in0.0 mm
12:42 AM 35.6°F2.0°C 23.9°F-4.5°C 62% 1.8 mph WNW2.9 kmh WNW 2.5 mph4.0 kmh 29.68 in1005.1 mb 0.00 in0.0 mm 0.00 in0.0 mm 0.00 in0.0 mm
12:41 AM 35.6°F2.0°C 23.9°F-4.5°C 62% Calm Calm -- 29.67 in1004.7 mb 0.00 in0.0 mm 0.00 in0.0 mm 0.00 in0.0 mm
12:40 AM 35.8°F2.1°C 24.1°F-4.4°C 62% Calm Calm 2.5 mph4.0 kmh 29.68 in1005.1 mb 0.00 in0.0 mm 0.00 in0.0 mm 0.00 in0.0 mm
12:39 AM 35.8°F2.1°C 24.1°F-4.4°C 62% Calm Calm 2.5 mph4.0 kmh 29.70 in1005.8 mb 0.00 in0.0 mm 0.00 in0.0 mm 0.00 in0.0 mm
12:37 AM 36.0°F2.2°C 24.3°F-4.3°C 62% Calm Calm -- 29.70 in1005.8 mb 0.00 in0.0 mm 0.00 in0.0 mm 0.00 in0.0 mm
12:36 AM 36.0°F2.2°C 24.3°F-4.3°C 62% Calm Calm 2.5 mph4.0 kmh 29.70 in1005.8 mb 0.00 in0.0 mm 0.00 in0.0 mm 0.00 in0.0 mm
12:35 AM 36.1°F2.3°C 24.1°F-4.4°C 61% 0.2 mph W0.3 kmh W 2.5 mph4.0 kmh 29.70 in1005.8 mb 0.00 in0.0 mm 0.00 in0.0 mm 0.00 in0.0 mm
12:34 AM 36.1°F2.3°C 24.1°F-4.4°C 61% Calm Calm 2.5 mph4.0 kmh 29.68 in1005.1 mb 0.00 in0.0 mm 0.00 in0.0 mm 0.00 in0.0 mm
12:33 AM 36.3°F2.4°C 23.7°F-4.6°C 60% 0.2 mph W0.3 kmh W 2.5 mph4.0 kmh 29.70 in1005.8 mb 0.00 in0.0 mm 0.00 in0.0 mm 0.00 in0.0 mm
12:32 AM 36.3°F2.4°C 23.7°F-4.6°C 60% Calm Calm -- 29.68 in1005.1 mb 0.00 in0.0 mm 0.00 in0.0 mm 0.00 in0.0 mm
12:31 AM 36.5°F2.5°C 23.5°F-4.7°C 59% Calm Calm -- 29.70 in1005.8 mb 0.00 in0.0 mm 0.00 in0.0 mm 0.00 in0.0 mm
12:30 AM 36.7°F2.6°C 23.7°F-4.6°C 59% Calm Calm -- 29.70 in1005.8 mb 0.00 in0.0 mm 0.00 in0.0 mm 0.00 in0.0 mm
12:29 AM 36.7°F2.6°C 23.4°F-4.8°C 58% Calm Calm -- 29.70 in1005.8 mb 0.00 in0.0 mm 0.00 in0.0 mm 0.00 in0.0 mm
12:28 AM 36.7°F2.6°C 23.4°F-4.8°C 58% Calm Calm 2.5 mph4.0 kmh 29.70 in1005.8 mb 0.00 in0.0 mm 0.00 in0.0 mm 0.00 in0.0 mm
12:27 AM 36.9°F2.7°C 23.5°F-4.7°C 58% 0.2 mph W0.3 kmh W 4.9 mph7.9 kmh 29.70 in1005.8 mb 0.00 in0.0 mm 0.00 in0.0 mm 0.00 in0.0 mm
12:26 AM 36.9°F2.7°C 23.0°F-5.0°C 57% Calm Calm 2.5 mph4.0 kmh 29.69 in1005.4 mb 0.00 in0.0 mm 0.00 in0.0 mm 0.00 in0.0 mm
12:25 AM 36.9°F2.7°C 22.6°F-5.2°C 56% 0.9 mph WSW1.4 kmh WSW 2.5 mph4.0 kmh 29.70 in1005.8 mb 0.00 in0.0 mm 0.00 in0.0 mm 0.00 in0.0 mm
12:24 AM 36.9°F2.7°C 22.6°F-5.2°C 56% 0.4 mph WSW0.6 kmh WSW 2.5 mph4.0 kmh 29.70 in1005.8 mb 0.00 in0.0 mm 0.00 in0.0 mm 0.00 in0.0 mm
12:22 AM 36.7°F2.6°C 22.5°F-5.3°C 56% Calm Calm 2.5 mph4.0 kmh 29.69 in1005.4 mb 0.00 in0.0 mm 0.00 in0.0 mm 0.00 in0.0 mm
12:21 AM 36.7°F2.6°C 22.5°F-5.3°C 56% 0.2 mph WSW0.3 kmh WSW 2.5 mph4.0 kmh 29.70 in1005.8 mb 0.00 in0.0 mm 0.00 in0.0 mm 0.00 in0.0 mm
12:20 AM 36.7°F2.6°C 22.5°F-5.3°C 56% Calm Calm 2.5 mph4.0 kmh 29.69 in1005.4 mb 0.00 in0.0 mm 0.00 in0.0 mm 0.00 in0.0 mm
12:19 AM 36.7°F2.6°C 22.5°F-5.3°C 56% Calm Calm 2.5 mph4.0 kmh 29.69 in1005.4 mb 0.00 in0.0 mm 0.00 in0.0 mm 0.00 in0.0 mm
12:18 AM 36.5°F2.5°C 22.3°F-5.4°C 56% 0.4 mph WSW0.6 kmh WSW 2.5 mph4.0 kmh 29.71 in1006.1 mb 0.00 in0.0 mm 0.00 in0.0 mm 0.00 in0.0 mm
12:17 AM 36.3°F2.4°C 22.1°F-5.5°C 56% 0.9 mph WSW1.4 kmh WSW 2.5 mph4.0 kmh 29.71 in1006.1 mb 0.00 in0.0 mm 0.00 in0.0 mm 0.00 in0.0 mm
12:16 AM 36.3°F2.4°C 22.1°F-5.5°C 56% 0.2 mph WSW0.3 kmh WSW 4.9 mph7.9 kmh 29.69 in1005.4 mb 0.00 in0.0 mm 0.00 in0.0 mm 0.00 in0.0 mm
12:15 AM 36.1°F2.3°C 21.9°F-5.6°C 56% 2.9 mph WSW4.7 kmh WSW 4.9 mph7.9 kmh 29.69 in1005.4 mb 0.00 in0.0 mm 0.00 in0.0 mm 0.00 in0.0 mm
12:14 AM 36.0°F2.2°C 23.4°F-4.8°C 60% 2.7 mph WSW4.3 kmh WSW 7.4 mph11.9 kmh 29.70 in1005.8 mb 0.00 in0.0 mm 0.00 in0.0 mm 0.00 in0.0 mm
12:13 AM 35.8°F2.1°C 21.6°F-5.8°C 56% 1.8 mph SW2.9 kmh SW 4.9 mph7.9 kmh 29.70 in1005.8 mb 0.00 in0.0 mm 0.00 in0.0 mm 0.00 in0.0 mm
12:12 AM 35.4°F1.9°C 23.0°F-5.0°C 60% 2.5 mph WSW4.0 kmh WSW 7.4 mph11.9 kmh 29.70 in1005.8 mb 0.00 in0.0 mm 0.00 in0.0 mm 0.00 in0.0 mm
12:11 AM 35.4°F1.9°C 23.0°F-5.0°C 60% 2.7 mph SW4.3 kmh SW 4.9 mph7.9 kmh 29.70 in1005.8 mb 0.00 in0.0 mm 0.00 in0.0 mm 0.00 in0.0 mm
12:10 AM 35.4°F1.9°C 23.0°F-5.0°C 60% 2.7 mph SW4.3 kmh SW 4.9 mph7.9 kmh 29.70 in1005.8 mb 0.00 in0.0 mm 0.00 in0.0 mm 0.00 in0.0 mm
12:09 AM 35.4°F1.9°C 23.0°F-5.0°C 60% 2.7 mph SW4.3 kmh SW 4.9 mph7.9 kmh 29.71 in1006.1 mb 0.00 in0.0 mm 0.00 in0.0 mm 0.00 in0.0 mm
12:07 AM 35.4°F1.9°C 23.0°F-5.0°C 60% 2.7 mph SW4.3 kmh SW 7.4 mph11.9 kmh 29.71 in1006.1 mb 0.00 in0.0 mm 0.00 in0.0 mm 0.00 in0.0 mm
12:06 AM 35.2°F1.8°C 22.8°F-5.1°C 60% 4.9 mph WSW7.9 kmh WSW 7.4 mph11.9 kmh 29.70 in1005.8 mb 0.00 in0.0 mm 0.00 in0.0 mm 0.00 in0.0 mm
12:05 AM 35.1°F1.7°C 21.0°F-6.1°C 56% 3.4 mph SW5.5 kmh SW 4.9 mph7.9 kmh 29.72 in1006.4 mb 0.00 in0.0 mm 0.00 in0.0 mm 0.00 in0.0 mm
12:04 AM 34.7°F1.5°C 22.3°F-5.4°C 60% 1.3 mph WSW2.1 kmh WSW 4.9 mph7.9 kmh 29.72 in1006.4 mb 0.00 in0.0 mm 0.00 in0.0 mm 0.00 in0.0 mm
12:03 AM 34.5°F1.4°C 20.5°F-6.4°C 56% 2.7 mph WSW4.3 kmh WSW 7.4 mph11.9 kmh 29.72 in1006.4 mb 0.00 in0.0 mm 0.00 in0.0 mm 0.00 in0.0 mm
12:02 AM 34.3°F1.3°C 22.3°F-5.4°C 61% 2.7 mph WSW4.3 kmh WSW 4.9 mph7.9 kmh 29.72 in1006.4 mb 0.00 in0.0 mm 0.00 in0.0 mm 0.00 in0.0 mm
12:01 AM 34.2°F1.2°C 20.5°F-6.4°C 57% Calm Calm 4.9 mph7.9 kmh 29.72 in1006.4 mb 0.00 in0.0 mm 0.00 in0.0 mm 0.00 in0.0 mm
12:00 AM 33.8°F1.0°C 20.1°F-6.6°C 57% 0.9 mph WSW1.4 kmh WSW 4.9 mph7.9 kmh 29.70 in1005.8 mb 0.00 in0.0 mm 0.00 in0.0 mm 0.00 in0.0 mm